<?xml version="1.0" encoding="UTF-8" standalone="no" ?>
<gpx xmlns="http://www.topografix.com/GPX/1/1" xmlns:xsi="http://www.w3.org/2001/XMLSchema-instance" xsi:schemaLocation="http://www.topografix.com/GPX/1/1 http://www.topografix.com/GPX/1/1/gpx.xsd" version="1.1" creator="VisuGPX - https://www.visugpx.com">
  <metadata>
    <name>Tourtour</name>
    <desc><![CDATA[Petite randonnée bien agréable au nord de Tourtour]]></desc>
  </metadata>
  <wpt lat="43.60666" lon="6.29398">
    <ele>653.2</ele>
    <name><![CDATA[Ruines]]></name>
    <type><![CDATA[ruines]]></type>
  </wpt>
  <wpt lat="43.6066" lon="6.29398">
    <ele>652.7</ele>
    <name><![CDATA[Source]]></name>
    <type><![CDATA[river]]></type>
  </wpt>
  <wpt lat="43.61004" lon="6.29956">
    <ele>698</ele>
    <name><![CDATA[Ruine]]></name>
    <type><![CDATA[ruines]]></type>
  </wpt>
  <wpt lat="43.60509" lon="6.31867">
    <ele>711.4</ele>
    <name><![CDATA[Ruine]]></name>
    <type><![CDATA[ruines]]></type>
  </wpt>
  <wpt lat="43.60492" lon="6.3189">
    <ele>710.2</ele>
    <name><![CDATA[Chêne remarquable]]></name>
    <type><![CDATA[patrimoine_vegetal]]></type>
  </wpt>
  <trk>
    <name><![CDATA[Tourtour]]></name>
    <extensions>
      <line xmlns="http://www.topografix.com/GPX/gpx_style/0/2">
        <color>0000FF</color>
        <opacity>1</opacity>
        <width>4</width>
      </line>
    </extensions>
    <trkseg>
      <trkpt lat="43.60326" lon="6.29202">
        <ele>642.5</ele>
        <time>2025-07-09T06:12:46.000Z</time>
      </trkpt>
      <trkpt lat="43.60321" lon="6.29201">
        <ele>642.3</ele>
        <time>2025-07-09T06:12:51.000Z</time>
      </trkpt>
      <trkpt lat="43.60316" lon="6.292">
        <ele>642.2</ele>
        <time>2025-07-09T06:12:56.000Z</time>
      </trkpt>
      <trkpt lat="43.60311" lon="6.29198">
        <ele>642.1</ele>
        <time>2025-07-09T06:13:00.999Z</time>
      </trkpt>
      <trkpt lat="43.60306" lon="6.29196">
        <ele>642</ele>
        <time>2025-07-09T06:13:06.000Z</time>
      </trkpt>
      <trkpt lat="43.60301" lon="6.29195">
        <ele>641.8</ele>
        <time>2025-07-09T06:13:10.553Z</time>
      </trkpt>
      <trkpt lat="43.60295" lon="6.29194">
        <ele>641.7</ele>
        <time>2025-07-09T06:13:16.000Z</time>
      </trkpt>
      <trkpt lat="43.6029" lon="6.29196">
        <ele>641.4</ele>
        <time>2025-07-09T06:13:20.627Z</time>
      </trkpt>
      <trkpt lat="43.60284" lon="6.29197">
        <ele>641.2</ele>
        <time>2025-07-09T06:13:26.000Z</time>
      </trkpt>
      <trkpt lat="43.60277" lon="6.29192">
        <ele>641.2</ele>
        <time>2025-07-09T06:13:36.000Z</time>
      </trkpt>
      <trkpt lat="43.60271" lon="6.29186">
        <ele>641.4</ele>
        <time>2025-07-09T06:13:46.000Z</time>
      </trkpt>
      <trkpt lat="43.60265" lon="6.29183">
        <ele>641.6</ele>
        <time>2025-07-09T06:13:56.000Z</time>
      </trkpt>
      <trkpt lat="43.60263" lon="6.29175">
        <ele>642.2</ele>
        <time>2025-07-09T06:14:10.531Z</time>
      </trkpt>
      <trkpt lat="43.6026" lon="6.29167">
        <ele>643</ele>
        <time>2025-07-09T06:14:26.000Z</time>
      </trkpt>
      <trkpt lat="43.60259" lon="6.29161">
        <ele>643.8</ele>
        <time>2025-07-09T06:14:30.499Z</time>
      </trkpt>
      <trkpt lat="43.60257" lon="6.29154">
        <ele>644.8</ele>
        <time>2025-07-09T06:14:36.000Z</time>
      </trkpt>
      <trkpt lat="43.60261" lon="6.2915">
        <ele>645.4</ele>
        <time>2025-07-09T06:14:41.122Z</time>
      </trkpt>
      <trkpt lat="43.60264" lon="6.29145">
        <ele>646.1</ele>
        <time>2025-07-09T06:14:46.000Z</time>
      </trkpt>
      <trkpt lat="43.60271" lon="6.29139">
        <ele>647</ele>
        <time>2025-07-09T06:14:56.000Z</time>
      </trkpt>
      <trkpt lat="43.60278" lon="6.29133">
        <ele>648.1</ele>
        <time>2025-07-09T06:15:06.000Z</time>
      </trkpt>
      <trkpt lat="43.60284" lon="6.29125">
        <ele>649.7</ele>
        <time>2025-07-09T06:15:16.000Z</time>
      </trkpt>
      <trkpt lat="43.60286" lon="6.29113">
        <ele>651.4</ele>
        <time>2025-07-09T06:15:26.000Z</time>
      </trkpt>
      <trkpt lat="43.60288" lon="6.29101">
        <ele>652.9</ele>
        <time>2025-07-09T06:15:36.000Z</time>
      </trkpt>
      <trkpt lat="43.6029" lon="6.29095">
        <ele>653.6</ele>
        <time>2025-07-09T06:15:41.175Z</time>
      </trkpt>
      <trkpt lat="43.60291" lon="6.29089">
        <ele>654.3</ele>
        <time>2025-07-09T06:15:46.000Z</time>
      </trkpt>
      <trkpt lat="43.60292" lon="6.29083">
        <ele>655</ele>
        <time>2025-07-09T06:15:50.632Z</time>
      </trkpt>
      <trkpt lat="43.60293" lon="6.29076">
        <ele>655.4</ele>
        <time>2025-07-09T06:15:56.000Z</time>
      </trkpt>
      <trkpt lat="43.60295" lon="6.2907">
        <ele>655.7</ele>
        <time>2025-07-09T06:16:01.000Z</time>
      </trkpt>
      <trkpt lat="43.60297" lon="6.29064">
        <ele>655.9</ele>
        <time>2025-07-09T06:16:06.000Z</time>
      </trkpt>
      <trkpt lat="43.60299" lon="6.29057">
        <ele>656.2</ele>
        <time>2025-07-09T06:16:11.133Z</time>
      </trkpt>
      <trkpt lat="43.603" lon="6.2905">
        <ele>656.4</ele>
        <time>2025-07-09T06:16:15.999Z</time>
      </trkpt>
      <trkpt lat="43.60302" lon="6.29043">
        <ele>656.6</ele>
        <time>2025-07-09T06:16:21.132Z</time>
      </trkpt>
      <trkpt lat="43.60303" lon="6.29036">
        <ele>656.8</ele>
        <time>2025-07-09T06:16:26.000Z</time>
      </trkpt>
      <trkpt lat="43.60304" lon="6.29028">
        <ele>657</ele>
        <time>2025-07-09T06:16:30.713Z</time>
      </trkpt>
      <trkpt lat="43.60305" lon="6.29019">
        <ele>656.7</ele>
        <time>2025-07-09T06:16:36.000Z</time>
      </trkpt>
      <trkpt lat="43.60305" lon="6.29012">
        <ele>656.4</ele>
        <time>2025-07-09T06:16:41.000Z</time>
      </trkpt>
      <trkpt lat="43.60305" lon="6.29005">
        <ele>656.2</ele>
        <time>2025-07-09T06:16:46.000Z</time>
      </trkpt>
      <trkpt lat="43.60313" lon="6.29">
        <ele>656.5</ele>
        <time>2025-07-09T06:16:56.000Z</time>
      </trkpt>
      <trkpt lat="43.60317" lon="6.29005">
        <ele>656.9</ele>
        <time>2025-07-09T06:17:01.220Z</time>
      </trkpt>
      <trkpt lat="43.60321" lon="6.29009">
        <ele>657.3</ele>
        <time>2025-07-09T06:17:06.000Z</time>
      </trkpt>
      <trkpt lat="43.60324" lon="6.29015">
        <ele>657.5</ele>
        <time>2025-07-09T06:17:11.607Z</time>
      </trkpt>
      <trkpt lat="43.60326" lon="6.2902">
        <ele>657.7</ele>
        <time>2025-07-09T06:17:16.000Z</time>
      </trkpt>
      <trkpt lat="43.60328" lon="6.29027">
        <ele>657.8</ele>
        <time>2025-07-09T06:17:21.000Z</time>
      </trkpt>
      <trkpt lat="43.6033" lon="6.29034">
        <ele>657.9</ele>
        <time>2025-07-09T06:17:26.000Z</time>
      </trkpt>
      <trkpt lat="43.60331" lon="6.29041">
        <ele>657.9</ele>
        <time>2025-07-09T06:17:31.367Z</time>
      </trkpt>
      <trkpt lat="43.60332" lon="6.29047">
        <ele>657.9</ele>
        <time>2025-07-09T06:17:36.000Z</time>
      </trkpt>
      <trkpt lat="43.60336" lon="6.29056">
        <ele>658.3</ele>
        <time>2025-07-09T06:17:46.000Z</time>
      </trkpt>
      <trkpt lat="43.6034" lon="6.29061">
        <ele>658.6</ele>
        <time>2025-07-09T06:17:51.343Z</time>
      </trkpt>
      <trkpt lat="43.60343" lon="6.29066">
        <ele>658.7</ele>
        <time>2025-07-09T06:17:56.000Z</time>
      </trkpt>
      <trkpt lat="43.60347" lon="6.2907">
        <ele>658.7</ele>
        <time>2025-07-09T06:18:00.796Z</time>
      </trkpt>
      <trkpt lat="43.60352" lon="6.29074">
        <ele>658.7</ele>
        <time>2025-07-09T06:18:06.407Z</time>
      </trkpt>
      <trkpt lat="43.60356" lon="6.29078">
        <ele>658.5</ele>
        <time>2025-07-09T06:18:11.203Z</time>
      </trkpt>
      <trkpt lat="43.6036" lon="6.29082">
        <ele>658.1</ele>
        <time>2025-07-09T06:18:16.000Z</time>
      </trkpt>
      <trkpt lat="43.60366" lon="6.29085">
        <ele>658.2</ele>
        <time>2025-07-09T06:18:21.392Z</time>
      </trkpt>
      <trkpt lat="43.60371" lon="6.29088">
        <ele>658.1</ele>
        <time>2025-07-09T06:18:26.000Z</time>
      </trkpt>
      <trkpt lat="43.60377" lon="6.2909">
        <ele>658.1</ele>
        <time>2025-07-09T06:18:31.424Z</time>
      </trkpt>
      <trkpt lat="43.60382" lon="6.29092">
        <ele>658.1</ele>
        <time>2025-07-09T06:18:35.999Z</time>
      </trkpt>
      <trkpt lat="43.60388" lon="6.29094">
        <ele>658</ele>
        <time>2025-07-09T06:18:41.424Z</time>
      </trkpt>
      <trkpt lat="43.60393" lon="6.29096">
        <ele>657.9</ele>
        <time>2025-07-09T06:18:46.000Z</time>
      </trkpt>
      <trkpt lat="43.60398" lon="6.29099">
        <ele>657.7</ele>
        <time>2025-07-09T06:18:51.115Z</time>
      </trkpt>
      <trkpt lat="43.60403" lon="6.29101">
        <ele>657.7</ele>
        <time>2025-07-09T06:18:56.000Z</time>
      </trkpt>
      <trkpt lat="43.60408" lon="6.29101">
        <ele>657.9</ele>
        <time>2025-07-09T06:19:01.000Z</time>
      </trkpt>
      <trkpt lat="43.60413" lon="6.29101">
        <ele>658.2</ele>
        <time>2025-07-09T06:19:06.000Z</time>
      </trkpt>
      <trkpt lat="43.60421" lon="6.29106">
        <ele>658.2</ele>
        <time>2025-07-09T06:19:16.000Z</time>
      </trkpt>
      <trkpt lat="43.60426" lon="6.29107">
        <ele>658.6</ele>
        <time>2025-07-09T06:19:21.025Z</time>
      </trkpt>
      <trkpt lat="43.60431" lon="6.29107">
        <ele>659.1</ele>
        <time>2025-07-09T06:19:26.000Z</time>
      </trkpt>
      <trkpt lat="43.60436" lon="6.29104">
        <ele>660.1</ele>
        <time>2025-07-09T06:19:36.000Z</time>
      </trkpt>
      <trkpt lat="43.60441" lon="6.29105">
        <ele>660.5</ele>
        <time>2025-07-09T06:19:41.581Z</time>
      </trkpt>
      <trkpt lat="43.60445" lon="6.29105">
        <ele>660.9</ele>
        <time>2025-07-09T06:19:45.999Z</time>
      </trkpt>
      <trkpt lat="43.6045" lon="6.29106">
        <ele>661.2</ele>
        <time>2025-07-09T06:19:51.580Z</time>
      </trkpt>
      <trkpt lat="43.60454" lon="6.29106">
        <ele>661.5</ele>
        <time>2025-07-09T06:19:56.000Z</time>
      </trkpt>
      <trkpt lat="43.60459" lon="6.29108">
        <ele>661.6</ele>
        <time>2025-07-09T06:20:01.615Z</time>
      </trkpt>
      <trkpt lat="43.60463" lon="6.29109">
        <ele>661.7</ele>
        <time>2025-07-09T06:20:06.000Z</time>
      </trkpt>
      <trkpt lat="43.6047" lon="6.29107">
        <ele>662.6</ele>
        <time>2025-07-09T06:20:16.000Z</time>
      </trkpt>
      <trkpt lat="43.60475" lon="6.29104">
        <ele>663.1</ele>
        <time>2025-07-09T06:20:21.215Z</time>
      </trkpt>
      <trkpt lat="43.6048" lon="6.29101">
        <ele>663.3</ele>
        <time>2025-07-09T06:20:26.430Z</time>
      </trkpt>
      <trkpt lat="43.60484" lon="6.29098">
        <ele>663.5</ele>
        <time>2025-07-09T06:20:30.784Z</time>
      </trkpt>
      <trkpt lat="43.60489" lon="6.29095">
        <ele>663.7</ele>
        <time>2025-07-09T06:20:36.000Z</time>
      </trkpt>
      <trkpt lat="43.60493" lon="6.29092">
        <ele>663.9</ele>
        <time>2025-07-09T06:20:41.000Z</time>
      </trkpt>
      <trkpt lat="43.60497" lon="6.29089">
        <ele>664.2</ele>
        <time>2025-07-09T06:20:46.000Z</time>
      </trkpt>
      <trkpt lat="43.60503" lon="6.29087">
        <ele>664.2</ele>
        <time>2025-07-09T06:20:51.424Z</time>
      </trkpt>
      <trkpt lat="43.60508" lon="6.29085">
        <ele>664.2</ele>
        <time>2025-07-09T06:20:56.000Z</time>
      </trkpt>
      <trkpt lat="43.60513" lon="6.29085">
        <ele>663.8</ele>
        <time>2025-07-09T06:21:01.515Z</time>
      </trkpt>
      <trkpt lat="43.60517" lon="6.29084">
        <ele>663.7</ele>
        <time>2025-07-09T06:21:06.000Z</time>
      </trkpt>
      <trkpt lat="43.60524" lon="6.29085">
        <ele>663.1</ele>
        <time>2025-07-09T06:21:11.000Z</time>
      </trkpt>
      <trkpt lat="43.60531" lon="6.29086">
        <ele>663.2</ele>
        <time>2025-07-09T06:21:16.000Z</time>
      </trkpt>
      <trkpt lat="43.60537" lon="6.29087">
        <ele>663.7</ele>
        <time>2025-07-09T06:21:21.185Z</time>
      </trkpt>
      <trkpt lat="43.60543" lon="6.29089">
        <ele>664.2</ele>
        <time>2025-07-09T06:21:26.480Z</time>
      </trkpt>
      <trkpt lat="43.60548" lon="6.2909">
        <ele>664.7</ele>
        <time>2025-07-09T06:21:30.814Z</time>
      </trkpt>
      <trkpt lat="43.60554" lon="6.29091">
        <ele>665.3</ele>
        <time>2025-07-09T06:21:36.000Z</time>
      </trkpt>
      <trkpt lat="43.60559" lon="6.29093">
        <ele>665.6</ele>
        <time>2025-07-09T06:21:41.239Z</time>
      </trkpt>
      <trkpt lat="43.60564" lon="6.29095">
        <ele>665.9</ele>
        <time>2025-07-09T06:21:46.478Z</time>
      </trkpt>
      <trkpt lat="43.60568" lon="6.29097">
        <ele>666.1</ele>
        <time>2025-07-09T06:21:50.760Z</time>
      </trkpt>
      <trkpt lat="43.60573" lon="6.29099">
        <ele>666.5</ele>
        <time>2025-07-09T06:21:56.000Z</time>
      </trkpt>
      <trkpt lat="43.60578" lon="6.291">
        <ele>666.9</ele>
        <time>2025-07-09T06:22:01.025Z</time>
      </trkpt>
      <trkpt lat="43.60583" lon="6.291">
        <ele>667.4</ele>
        <time>2025-07-09T06:22:06.000Z</time>
      </trkpt>
      <trkpt lat="43.6059" lon="6.29106">
        <ele>668.4</ele>
        <time>2025-07-09T06:22:16.000Z</time>
      </trkpt>
      <trkpt lat="43.60594" lon="6.2911">
        <ele>669</ele>
        <time>2025-07-09T06:22:21.421Z</time>
      </trkpt>
      <trkpt lat="43.60597" lon="6.29114">
        <ele>669.4</ele>
        <time>2025-07-09T06:22:26.000Z</time>
      </trkpt>
      <trkpt lat="43.606" lon="6.2912">
        <ele>669.8</ele>
        <time>2025-07-09T06:22:31.607Z</time>
      </trkpt>
      <trkpt lat="43.60602" lon="6.29125">
        <ele>670</ele>
        <time>2025-07-09T06:22:36.000Z</time>
      </trkpt>
      <trkpt lat="43.60606" lon="6.29129">
        <ele>670.6</ele>
        <time>2025-07-09T06:22:41.421Z</time>
      </trkpt>
      <trkpt lat="43.60609" lon="6.29133">
        <ele>670.9</ele>
        <time>2025-07-09T06:22:46.000Z</time>
      </trkpt>
      <trkpt lat="43.60617" lon="6.29138">
        <ele>671.7</ele>
        <time>2025-07-09T06:22:56.000Z</time>
      </trkpt>
      <trkpt lat="43.60622" lon="6.29142">
        <ele>672.1</ele>
        <time>2025-07-09T06:23:01.475Z</time>
      </trkpt>
      <trkpt lat="43.60626" lon="6.29146">
        <ele>672.4</ele>
        <time>2025-07-09T06:23:06.154Z</time>
      </trkpt>
      <trkpt lat="43.60631" lon="6.29149">
        <ele>672.8</ele>
        <time>2025-07-09T06:23:11.320Z</time>
      </trkpt>
      <trkpt lat="43.60635" lon="6.29153">
        <ele>673.1</ele>
        <time>2025-07-09T06:23:16.000Z</time>
      </trkpt>
      <trkpt lat="43.6064" lon="6.29154">
        <ele>673.5</ele>
        <time>2025-07-09T06:23:21.025Z</time>
      </trkpt>
      <trkpt lat="43.60645" lon="6.29154">
        <ele>673.4</ele>
        <time>2025-07-09T06:23:26.000Z</time>
      </trkpt>
      <trkpt lat="43.60651" lon="6.29156">
        <ele>673.3</ele>
        <time>2025-07-09T06:23:36.000Z</time>
      </trkpt>
      <trkpt lat="43.60657" lon="6.29158">
        <ele>673.1</ele>
        <time>2025-07-09T06:23:46.000Z</time>
      </trkpt>
      <trkpt lat="43.60664" lon="6.29164">
        <ele>672.4</ele>
        <time>2025-07-09T06:23:56.000Z</time>
      </trkpt>
      <trkpt lat="43.60667" lon="6.29165">
        <ele>672.1</ele>
        <time>2025-07-09T06:24:06.000Z</time>
      </trkpt>
      <trkpt lat="43.60672" lon="6.29165">
        <ele>671.1</ele>
        <time>2025-07-09T06:24:11.000Z</time>
      </trkpt>
      <trkpt lat="43.60677" lon="6.29165">
        <ele>670</ele>
        <time>2025-07-09T06:24:16.000Z</time>
      </trkpt>
      <trkpt lat="43.60683" lon="6.2916">
        <ele>669.6</ele>
        <time>2025-07-09T06:24:26.000Z</time>
      </trkpt>
      <trkpt lat="43.60689" lon="6.29155">
        <ele>669.4</ele>
        <time>2025-07-09T06:24:36.000Z</time>
      </trkpt>
      <trkpt lat="43.60694" lon="6.29156">
        <ele>668.4</ele>
        <time>2025-07-09T06:24:41.581Z</time>
      </trkpt>
      <trkpt lat="43.60698" lon="6.29156">
        <ele>668.7</ele>
        <time>2025-07-09T06:24:46.000Z</time>
      </trkpt>
      <trkpt lat="43.60703" lon="6.29159">
        <ele>668.5</ele>
        <time>2025-07-09T06:24:51.616Z</time>
      </trkpt>
      <trkpt lat="43.60707" lon="6.29161">
        <ele>668.4</ele>
        <time>2025-07-09T06:24:56.000Z</time>
      </trkpt>
      <trkpt lat="43.60712" lon="6.29166">
        <ele>667.5</ele>
        <time>2025-07-09T06:25:06.000Z</time>
      </trkpt>
      <trkpt lat="43.60716" lon="6.29174">
        <ele>665.3</ele>
        <time>2025-07-09T06:25:16.000Z</time>
      </trkpt>
      <trkpt lat="43.6072" lon="6.29177">
        <ele>664.6</ele>
        <time>2025-07-09T06:25:21.000Z</time>
      </trkpt>
      <trkpt lat="43.60724" lon="6.2918">
        <ele>663.9</ele>
        <time>2025-07-09T06:25:26.000Z</time>
      </trkpt>
      <trkpt lat="43.60729" lon="6.29183">
        <ele>663.6</ele>
        <time>2025-07-09T06:25:31.115Z</time>
      </trkpt>
      <trkpt lat="43.60734" lon="6.29185">
        <ele>663.6</ele>
        <time>2025-07-09T06:25:36.000Z</time>
      </trkpt>
      <trkpt lat="43.6074" lon="6.29191">
        <ele>662.6</ele>
        <time>2025-07-09T06:25:54.500Z</time>
      </trkpt>
      <trkpt lat="43.60746" lon="6.29197">
        <ele>662.5</ele>
        <time>2025-07-09T06:26:13.000Z</time>
      </trkpt>
      <trkpt lat="43.60742" lon="6.29207">
        <ele>662.2</ele>
        <time>2025-07-09T06:26:23.000Z</time>
      </trkpt>
      <trkpt lat="43.60734" lon="6.29208">
        <ele>660.9</ele>
        <time>2025-07-09T06:26:33.000Z</time>
      </trkpt>
      <trkpt lat="43.60731" lon="6.29214">
        <ele>660.5</ele>
        <time>2025-07-09T06:26:38.289Z</time>
      </trkpt>
      <trkpt lat="43.60728" lon="6.29219">
        <ele>660</ele>
        <time>2025-07-09T06:26:43.000Z</time>
      </trkpt>
      <trkpt lat="43.60726" lon="6.29225">
        <ele>659.9</ele>
        <time>2025-07-09T06:26:47.753Z</time>
      </trkpt>
      <trkpt lat="43.60723" lon="6.29231">
        <ele>659.8</ele>
        <time>2025-07-09T06:26:53.000Z</time>
      </trkpt>
      <trkpt lat="43.60723" lon="6.29241">
        <ele>660.6</ele>
        <time>2025-07-09T06:27:03.000Z</time>
      </trkpt>
      <trkpt lat="43.60719" lon="6.29252">
        <ele>660.9</ele>
        <time>2025-07-09T06:27:13.000Z</time>
      </trkpt>
      <trkpt lat="43.60715" lon="6.29257">
        <ele>661.2</ele>
        <time>2025-07-09T06:27:17.663Z</time>
      </trkpt>
      <trkpt lat="43.6071" lon="6.29262">
        <ele>661.1</ele>
        <time>2025-07-09T06:27:23.000Z</time>
      </trkpt>
      <trkpt lat="43.60709" lon="6.2927">
        <ele>662</ele>
        <time>2025-07-09T06:27:33.000Z</time>
      </trkpt>
      <trkpt lat="43.60706" lon="6.29278">
        <ele>662.4</ele>
        <time>2025-07-09T06:27:43.000Z</time>
      </trkpt>
      <trkpt lat="43.60704" lon="6.29286">
        <ele>663.5</ele>
        <time>2025-07-09T06:27:53.000Z</time>
      </trkpt>
      <trkpt lat="43.60702" lon="6.29292">
        <ele>664.2</ele>
        <time>2025-07-09T06:27:57.753Z</time>
      </trkpt>
      <trkpt lat="43.60699" lon="6.29298">
        <ele>664.7</ele>
        <time>2025-07-09T06:28:03.000Z</time>
      </trkpt>
      <trkpt lat="43.60697" lon="6.29308">
        <ele>666</ele>
        <time>2025-07-09T06:28:13.485Z</time>
      </trkpt>
      <trkpt lat="43.60695" lon="6.29317">
        <ele>666.8</ele>
        <time>2025-07-09T06:28:23.000Z</time>
      </trkpt>
      <trkpt lat="43.60697" lon="6.29325">
        <ele>668.2</ele>
        <time>2025-07-09T06:28:33.000Z</time>
      </trkpt>
      <trkpt lat="43.60702" lon="6.29333">
        <ele>669.8</ele>
        <time>2025-07-09T06:28:43.000Z</time>
      </trkpt>
      <trkpt lat="43.60709" lon="6.29336">
        <ele>670.3</ele>
        <time>2025-07-09T06:28:53.691Z</time>
      </trkpt>
      <trkpt lat="43.60715" lon="6.29339">
        <ele>670.4</ele>
        <time>2025-07-09T06:29:03.000Z</time>
      </trkpt>
      <trkpt lat="43.60722" lon="6.29337">
        <ele>671.2</ele>
        <time>2025-07-09T06:29:13.000Z</time>
      </trkpt>
      <trkpt lat="43.60729" lon="6.29335">
        <ele>671.4</ele>
        <time>2025-07-09T06:29:23.000Z</time>
      </trkpt>
      <trkpt lat="43.60736" lon="6.29332">
        <ele>671.6</ele>
        <time>2025-07-09T06:29:33.000Z</time>
      </trkpt>
      <trkpt lat="43.60741" lon="6.29325">
        <ele>672.4</ele>
        <time>2025-07-09T06:29:43.056Z</time>
      </trkpt>
      <trkpt lat="43.60745" lon="6.29317">
        <ele>673.7</ele>
        <time>2025-07-09T06:29:53.000Z</time>
      </trkpt>
      <trkpt lat="43.60749" lon="6.29314">
        <ele>674.4</ele>
        <time>2025-07-09T06:29:58.020Z</time>
      </trkpt>
      <trkpt lat="43.60753" lon="6.2931">
        <ele>675.2</ele>
        <time>2025-07-09T06:30:03.467Z</time>
      </trkpt>
      <trkpt lat="43.60756" lon="6.29307">
        <ele>675.8</ele>
        <time>2025-07-09T06:30:07.552Z</time>
      </trkpt>
      <trkpt lat="43.6076" lon="6.29303">
        <ele>676</ele>
        <time>2025-07-09T06:30:13.000Z</time>
      </trkpt>
      <trkpt lat="43.60766" lon="6.29301">
        <ele>676</ele>
        <time>2025-07-09T06:30:18.310Z</time>
      </trkpt>
      <trkpt lat="43.60771" lon="6.29298">
        <ele>676.1</ele>
        <time>2025-07-09T06:30:23.000Z</time>
      </trkpt>
      <trkpt lat="43.60775" lon="6.29297">
        <ele>676.2</ele>
        <time>2025-07-09T06:30:33.000Z</time>
      </trkpt>
      <trkpt lat="43.6078" lon="6.29298">
        <ele>676.3</ele>
        <time>2025-07-09T06:31:26.689Z</time>
      </trkpt>
      <trkpt lat="43.60784" lon="6.29299">
        <ele>676.2</ele>
        <time>2025-07-09T06:32:20.378Z</time>
      </trkpt>
      <trkpt lat="43.60792" lon="6.293">
        <ele>676</ele>
        <time>2025-07-09T06:33:55.000Z</time>
      </trkpt>
      <trkpt lat="43.60796" lon="6.29302">
        <ele>675.7</ele>
        <time>2025-07-09T06:34:05.000Z</time>
      </trkpt>
      <trkpt lat="43.60804" lon="6.29301">
        <ele>675.7</ele>
        <time>2025-07-09T06:34:15.000Z</time>
      </trkpt>
      <trkpt lat="43.60809" lon="6.29298">
        <ele>676.3</ele>
        <time>2025-07-09T06:34:20.449Z</time>
      </trkpt>
      <trkpt lat="43.60813" lon="6.29295">
        <ele>676.9</ele>
        <time>2025-07-09T06:34:25.000Z</time>
      </trkpt>
      <trkpt lat="43.60819" lon="6.29297">
        <ele>676.9</ele>
        <time>2025-07-09T06:34:30.000Z</time>
      </trkpt>
      <trkpt lat="43.60825" lon="6.29299">
        <ele>677</ele>
        <time>2025-07-09T06:34:35.000Z</time>
      </trkpt>
      <trkpt lat="43.60827" lon="6.29307">
        <ele>676.6</ele>
        <time>2025-07-09T06:34:40.000Z</time>
      </trkpt>
      <trkpt lat="43.60829" lon="6.29315">
        <ele>677.3</ele>
        <time>2025-07-09T06:34:45.000Z</time>
      </trkpt>
      <trkpt lat="43.60826" lon="6.29323">
        <ele>677.4</ele>
        <time>2025-07-09T06:34:49.999Z</time>
      </trkpt>
      <trkpt lat="43.60823" lon="6.29331">
        <ele>677.4</ele>
        <time>2025-07-09T06:34:55.000Z</time>
      </trkpt>
      <trkpt lat="43.6082" lon="6.29337">
        <ele>677.4</ele>
        <time>2025-07-09T06:34:59.999Z</time>
      </trkpt>
      <trkpt lat="43.60817" lon="6.29343">
        <ele>677.5</ele>
        <time>2025-07-09T06:35:05.000Z</time>
      </trkpt>
      <trkpt lat="43.60812" lon="6.29347">
        <ele>677.3</ele>
        <time>2025-07-09T06:35:10.145Z</time>
      </trkpt>
      <trkpt lat="43.60807" lon="6.2935">
        <ele>677</ele>
        <time>2025-07-09T06:35:15.000Z</time>
      </trkpt>
      <trkpt lat="43.60801" lon="6.29352">
        <ele>676.4</ele>
        <time>2025-07-09T06:35:19.999Z</time>
      </trkpt>
      <trkpt lat="43.60795" lon="6.29354">
        <ele>675.8</ele>
        <time>2025-07-09T06:35:25.000Z</time>
      </trkpt>
      <trkpt lat="43.60793" lon="6.29361">
        <ele>676.2</ele>
        <time>2025-07-09T06:35:29.805Z</time>
      </trkpt>
      <trkpt lat="43.6079" lon="6.29368">
        <ele>675.9</ele>
        <time>2025-07-09T06:35:35.000Z</time>
      </trkpt>
      <trkpt lat="43.60791" lon="6.29375">
        <ele>676.1</ele>
        <time>2025-07-09T06:35:40.432Z</time>
      </trkpt>
      <trkpt lat="43.60791" lon="6.29381">
        <ele>676.2</ele>
        <time>2025-07-09T06:35:45.000Z</time>
      </trkpt>
      <trkpt lat="43.6079" lon="6.29388">
        <ele>676.2</ele>
        <time>2025-07-09T06:35:50.367Z</time>
      </trkpt>
      <trkpt lat="43.60789" lon="6.29394">
        <ele>675.9</ele>
        <time>2025-07-09T06:35:55.000Z</time>
      </trkpt>
      <trkpt lat="43.6079" lon="6.29401">
        <ele>675.9</ele>
        <time>2025-07-09T06:36:00.000Z</time>
      </trkpt>
      <trkpt lat="43.60791" lon="6.29408">
        <ele>675.8</ele>
        <time>2025-07-09T06:36:05.000Z</time>
      </trkpt>
      <trkpt lat="43.60797" lon="6.29415">
        <ele>675.4</ele>
        <time>2025-07-09T06:36:15.000Z</time>
      </trkpt>
      <trkpt lat="43.608" lon="6.29421">
        <ele>674.5</ele>
        <time>2025-07-09T06:36:20.289Z</time>
      </trkpt>
      <trkpt lat="43.60803" lon="6.29426">
        <ele>673.6</ele>
        <time>2025-07-09T06:36:25.000Z</time>
      </trkpt>
      <trkpt lat="43.60806" lon="6.29437">
        <ele>672.2</ele>
        <time>2025-07-09T06:36:35.411Z</time>
      </trkpt>
      <trkpt lat="43.60809" lon="6.29447">
        <ele>671.4</ele>
        <time>2025-07-09T06:36:45.000Z</time>
      </trkpt>
      <trkpt lat="43.60813" lon="6.29452">
        <ele>671.7</ele>
        <time>2025-07-09T06:36:50.640Z</time>
      </trkpt>
      <trkpt lat="43.60816" lon="6.29456">
        <ele>671.7</ele>
        <time>2025-07-09T06:36:55.000Z</time>
      </trkpt>
      <trkpt lat="43.60821" lon="6.29466">
        <ele>671.4</ele>
        <time>2025-07-09T06:37:05.000Z</time>
      </trkpt>
      <trkpt lat="43.60821" lon="6.29474">
        <ele>670.9</ele>
        <time>2025-07-09T06:37:09.963Z</time>
      </trkpt>
      <trkpt lat="43.6082" lon="6.29482">
        <ele>672</ele>
        <time>2025-07-09T06:37:15.000Z</time>
      </trkpt>
      <trkpt lat="43.60814" lon="6.29489">
        <ele>672.6</ele>
        <time>2025-07-09T06:37:24.761Z</time>
      </trkpt>
      <trkpt lat="43.60807" lon="6.29495">
        <ele>673.2</ele>
        <time>2025-07-09T06:37:35.000Z</time>
      </trkpt>
      <trkpt lat="43.60802" lon="6.29504">
        <ele>674.7</ele>
        <time>2025-07-09T06:37:45.000Z</time>
      </trkpt>
      <trkpt lat="43.60803" lon="6.29514">
        <ele>675.1</ele>
        <time>2025-07-09T06:37:55.000Z</time>
      </trkpt>
      <trkpt lat="43.60807" lon="6.29523">
        <ele>675.8</ele>
        <time>2025-07-09T06:38:05.413Z</time>
      </trkpt>
      <trkpt lat="43.60811" lon="6.29531">
        <ele>676.5</ele>
        <time>2025-07-09T06:38:15.000Z</time>
      </trkpt>
      <trkpt lat="43.60811" lon="6.29542">
        <ele>676.9</ele>
        <time>2025-07-09T06:38:25.000Z</time>
      </trkpt>
      <trkpt lat="43.6081" lon="6.29552">
        <ele>677.2</ele>
        <time>2025-07-09T06:38:46.000Z</time>
      </trkpt>
      <trkpt lat="43.60813" lon="6.29559">
        <ele>677.3</ele>
        <time>2025-07-09T06:38:51.000Z</time>
      </trkpt>
      <trkpt lat="43.60816" lon="6.29566">
        <ele>677.1</ele>
        <time>2025-07-09T06:38:56.000Z</time>
      </trkpt>
      <trkpt lat="43.6082" lon="6.29572">
        <ele>677.2</ele>
        <time>2025-07-09T06:39:01.567Z</time>
      </trkpt>
      <trkpt lat="43.60823" lon="6.29577">
        <ele>677.2</ele>
        <time>2025-07-09T06:39:06.000Z</time>
      </trkpt>
      <trkpt lat="43.60827" lon="6.29581">
        <ele>677.4</ele>
        <time>2025-07-09T06:39:11.203Z</time>
      </trkpt>
      <trkpt lat="43.60831" lon="6.29584">
        <ele>677.7</ele>
        <time>2025-07-09T06:39:16.000Z</time>
      </trkpt>
      <trkpt lat="43.60835" lon="6.29589">
        <ele>678</ele>
        <time>2025-07-09T06:39:21.343Z</time>
      </trkpt>
      <trkpt lat="43.60838" lon="6.29594">
        <ele>678.2</ele>
        <time>2025-07-09T06:39:26.000Z</time>
      </trkpt>
      <trkpt lat="43.60838" lon="6.29605">
        <ele>677.9</ele>
        <time>2025-07-09T06:39:36.000Z</time>
      </trkpt>
      <trkpt lat="43.60834" lon="6.29611">
        <ele>677.1</ele>
        <time>2025-07-09T06:39:41.136Z</time>
      </trkpt>
      <trkpt lat="43.60831" lon="6.29617">
        <ele>677.2</ele>
        <time>2025-07-09T06:39:45.727Z</time>
      </trkpt>
      <trkpt lat="43.60827" lon="6.29623">
        <ele>677.3</ele>
        <time>2025-07-09T06:39:50.863Z</time>
      </trkpt>
      <trkpt lat="43.60823" lon="6.29629">
        <ele>677.4</ele>
        <time>2025-07-09T06:39:56.000Z</time>
      </trkpt>
      <trkpt lat="43.60819" lon="6.2964">
        <ele>677.8</ele>
        <time>2025-07-09T06:40:06.000Z</time>
      </trkpt>
      <trkpt lat="43.60824" lon="6.29649">
        <ele>677.2</ele>
        <time>2025-07-09T06:40:16.000Z</time>
      </trkpt>
      <trkpt lat="43.60829" lon="6.29653">
        <ele>677.4</ele>
        <time>2025-07-09T06:40:21.593Z</time>
      </trkpt>
      <trkpt lat="43.60833" lon="6.29656">
        <ele>677.7</ele>
        <time>2025-07-09T06:40:26.000Z</time>
      </trkpt>
      <trkpt lat="43.60838" lon="6.29661">
        <ele>678</ele>
        <time>2025-07-09T06:40:31.336Z</time>
      </trkpt>
      <trkpt lat="43.60842" lon="6.29666">
        <ele>678.3</ele>
        <time>2025-07-09T06:40:36.000Z</time>
      </trkpt>
      <trkpt lat="43.60848" lon="6.29669">
        <ele>678.7</ele>
        <time>2025-07-09T06:40:46.000Z</time>
      </trkpt>
      <trkpt lat="43.60854" lon="6.2967">
        <ele>679.5</ele>
        <time>2025-07-09T06:40:51.472Z</time>
      </trkpt>
      <trkpt lat="43.60859" lon="6.2967">
        <ele>680.2</ele>
        <time>2025-07-09T06:40:56.000Z</time>
      </trkpt>
      <trkpt lat="43.60864" lon="6.2967">
        <ele>680.7</ele>
        <time>2025-07-09T06:41:00.974Z</time>
      </trkpt>
      <trkpt lat="43.60869" lon="6.29669">
        <ele>681</ele>
        <time>2025-07-09T06:41:06.000Z</time>
      </trkpt>
      <trkpt lat="43.60874" lon="6.29669">
        <ele>681.3</ele>
        <time>2025-07-09T06:41:11.000Z</time>
      </trkpt>
      <trkpt lat="43.60879" lon="6.29669">
        <ele>681.5</ele>
        <time>2025-07-09T06:41:16.000Z</time>
      </trkpt>
      <trkpt lat="43.60885" lon="6.29672">
        <ele>681.8</ele>
        <time>2025-07-09T06:41:26.000Z</time>
      </trkpt>
      <trkpt lat="43.60889" lon="6.29679">
        <ele>682</ele>
        <time>2025-07-09T06:41:31.501Z</time>
      </trkpt>
      <trkpt lat="43.60892" lon="6.29685">
        <ele>682.5</ele>
        <time>2025-07-09T06:41:36.000Z</time>
      </trkpt>
      <trkpt lat="43.60898" lon="6.2969">
        <ele>683.4</ele>
        <time>2025-07-09T06:41:46.000Z</time>
      </trkpt>
      <trkpt lat="43.60906" lon="6.29693">
        <ele>684.5</ele>
        <time>2025-07-09T06:41:56.000Z</time>
      </trkpt>
      <trkpt lat="43.60912" lon="6.29694">
        <ele>685.3</ele>
        <time>2025-07-09T06:42:06.000Z</time>
      </trkpt>
      <trkpt lat="43.60919" lon="6.29698">
        <ele>686.4</ele>
        <time>2025-07-09T06:42:16.165Z</time>
      </trkpt>
      <trkpt lat="43.60926" lon="6.29701">
        <ele>687.2</ele>
        <time>2025-07-09T06:42:26.000Z</time>
      </trkpt>
      <trkpt lat="43.6093" lon="6.29705">
        <ele>687.6</ele>
        <time>2025-07-09T06:42:36.000Z</time>
      </trkpt>
      <trkpt lat="43.60938" lon="6.2971">
        <ele>688.4</ele>
        <time>2025-07-09T06:42:49.689Z</time>
      </trkpt>
      <trkpt lat="43.60945" lon="6.29714">
        <ele>689</ele>
        <time>2025-07-09T06:43:01.499Z</time>
      </trkpt>
      <trkpt lat="43.60953" lon="6.29719">
        <ele>689.7</ele>
        <time>2025-07-09T06:43:15.189Z</time>
      </trkpt>
      <trkpt lat="43.6096" lon="6.29723">
        <ele>690.1</ele>
        <time>2025-07-09T06:43:27.000Z</time>
      </trkpt>
      <trkpt lat="43.60964" lon="6.29726">
        <ele>690.2</ele>
        <time>2025-07-09T06:43:31.684Z</time>
      </trkpt>
      <trkpt lat="43.60969" lon="6.2973">
        <ele>690.3</ele>
        <time>2025-07-09T06:43:37.630Z</time>
      </trkpt>
      <trkpt lat="43.60973" lon="6.29733">
        <ele>690.2</ele>
        <time>2025-07-09T06:43:42.315Z</time>
      </trkpt>
      <trkpt lat="43.60977" lon="6.29736">
        <ele>690.1</ele>
        <time>2025-07-09T06:43:47.000Z</time>
      </trkpt>
      <trkpt lat="43.60983" lon="6.29738">
        <ele>690</ele>
        <time>2025-07-09T06:43:52.000Z</time>
      </trkpt>
      <trkpt lat="43.60989" lon="6.2974">
        <ele>689.8</ele>
        <time>2025-07-09T06:43:57.000Z</time>
      </trkpt>
      <trkpt lat="43.60996" lon="6.29736">
        <ele>690.4</ele>
        <time>2025-07-09T06:44:07.000Z</time>
      </trkpt>
      <trkpt lat="43.61" lon="6.2974">
        <ele>689.8</ele>
        <time>2025-07-09T06:44:37.000Z</time>
      </trkpt>
      <trkpt lat="43.61004" lon="6.29743">
        <ele>689</ele>
        <time>2025-07-09T06:44:42.000Z</time>
      </trkpt>
      <trkpt lat="43.61008" lon="6.29746">
        <ele>688.2</ele>
        <time>2025-07-09T06:44:47.000Z</time>
      </trkpt>
      <trkpt lat="43.61013" lon="6.29748">
        <ele>687.5</ele>
        <time>2025-07-09T06:44:52.502Z</time>
      </trkpt>
      <trkpt lat="43.61017" lon="6.2975">
        <ele>686.8</ele>
        <time>2025-07-09T06:44:57.000Z</time>
      </trkpt>
      <trkpt lat="43.61025" lon="6.29751">
        <ele>686.1</ele>
        <time>2025-07-09T06:45:07.000Z</time>
      </trkpt>
      <trkpt lat="43.61032" lon="6.29754">
        <ele>686.3</ele>
        <time>2025-07-09T06:45:12.345Z</time>
      </trkpt>
      <trkpt lat="43.61038" lon="6.29757">
        <ele>686.9</ele>
        <time>2025-07-09T06:45:17.000Z</time>
      </trkpt>
      <trkpt lat="43.61042" lon="6.29763">
        <ele>687.8</ele>
        <time>2025-07-09T06:45:22.567Z</time>
      </trkpt>
      <trkpt lat="43.61045" lon="6.29768">
        <ele>688.6</ele>
        <time>2025-07-09T06:45:27.000Z</time>
      </trkpt>
      <trkpt lat="43.61043" lon="6.29774">
        <ele>688.6</ele>
        <time>2025-07-09T06:45:31.910Z</time>
      </trkpt>
      <trkpt lat="43.6104" lon="6.2978">
        <ele>688.6</ele>
        <time>2025-07-09T06:45:37.331Z</time>
      </trkpt>
      <trkpt lat="43.61038" lon="6.29785">
        <ele>689.2</ele>
        <time>2025-07-09T06:45:41.578Z</time>
      </trkpt>
      <trkpt lat="43.61035" lon="6.29791">
        <ele>689.8</ele>
        <time>2025-07-09T06:45:47.000Z</time>
      </trkpt>
      <trkpt lat="43.61032" lon="6.29797">
        <ele>690.3</ele>
        <time>2025-07-09T06:45:51.945Z</time>
      </trkpt>
      <trkpt lat="43.61028" lon="6.29802">
        <ele>690.3</ele>
        <time>2025-07-09T06:45:57.000Z</time>
      </trkpt>
      <trkpt lat="43.61025" lon="6.29807">
        <ele>691.2</ele>
        <time>2025-07-09T06:46:02.155Z</time>
      </trkpt>
      <trkpt lat="43.61023" lon="6.29812">
        <ele>692</ele>
        <time>2025-07-09T06:46:06.689Z</time>
      </trkpt>
      <trkpt lat="43.6102" lon="6.29817">
        <ele>692.5</ele>
        <time>2025-07-09T06:46:11.844Z</time>
      </trkpt>
      <trkpt lat="43.61017" lon="6.29822">
        <ele>692.8</ele>
        <time>2025-07-09T06:46:17.000Z</time>
      </trkpt>
      <trkpt lat="43.61015" lon="6.29833">
        <ele>693.7</ele>
        <time>2025-07-09T06:46:27.000Z</time>
      </trkpt>
      <trkpt lat="43.61017" lon="6.29839">
        <ele>693.7</ele>
        <time>2025-07-09T06:46:37.000Z</time>
      </trkpt>
      <trkpt lat="43.61021" lon="6.29843">
        <ele>694.2</ele>
        <time>2025-07-09T06:46:42.421Z</time>
      </trkpt>
      <trkpt lat="43.61024" lon="6.29847">
        <ele>694.4</ele>
        <time>2025-07-09T06:46:47.000Z</time>
      </trkpt>
      <trkpt lat="43.6103" lon="6.29852">
        <ele>694.9</ele>
        <time>2025-07-09T06:46:57.000Z</time>
      </trkpt>
      <trkpt lat="43.61033" lon="6.29858">
        <ele>694.8</ele>
        <time>2025-07-09T06:47:02.289Z</time>
      </trkpt>
      <trkpt lat="43.61036" lon="6.29863">
        <ele>695</ele>
        <time>2025-07-09T06:47:07.000Z</time>
      </trkpt>
      <trkpt lat="43.61034" lon="6.29875">
        <ele>695.6</ele>
        <time>2025-07-09T06:47:17.000Z</time>
      </trkpt>
      <trkpt lat="43.61031" lon="6.29886">
        <ele>695.7</ele>
        <time>2025-07-09T06:47:27.000Z</time>
      </trkpt>
      <trkpt lat="43.61028" lon="6.29894">
        <ele>695.8</ele>
        <time>2025-07-09T06:47:32.255Z</time>
      </trkpt>
      <trkpt lat="43.61025" lon="6.29901">
        <ele>696.1</ele>
        <time>2025-07-09T06:47:37.000Z</time>
      </trkpt>
      <trkpt lat="43.61022" lon="6.29907">
        <ele>696.3</ele>
        <time>2025-07-09T06:47:42.289Z</time>
      </trkpt>
      <trkpt lat="43.61019" lon="6.29912">
        <ele>696.4</ele>
        <time>2025-07-09T06:47:47.000Z</time>
      </trkpt>
      <trkpt lat="43.61017" lon="6.2992">
        <ele>697.1</ele>
        <time>2025-07-09T06:47:54.295Z</time>
      </trkpt>
      <trkpt lat="43.61015" lon="6.29929">
        <ele>697.7</ele>
        <time>2025-07-09T06:48:02.409Z</time>
      </trkpt>
      <trkpt lat="43.61013" lon="6.29937">
        <ele>698.4</ele>
        <time>2025-07-09T06:48:09.704Z</time>
      </trkpt>
      <trkpt lat="43.61011" lon="6.29945">
        <ele>699.2</ele>
        <time>2025-07-09T06:48:17.000Z</time>
      </trkpt>
      <trkpt lat="43.61008" lon="6.2995">
        <ele>698.6</ele>
        <time>2025-07-09T06:48:21.541Z</time>
      </trkpt>
      <trkpt lat="43.61004" lon="6.29956">
        <ele>698</ele>
        <time>2025-07-09T06:48:27.245Z</time>
      </trkpt>
      <trkpt lat="43.61001" lon="6.29961">
        <ele>697.5</ele>
        <time>2025-07-09T06:48:31.787Z</time>
      </trkpt>
      <trkpt lat="43.60997" lon="6.29966">
        <ele>697.1</ele>
        <time>2025-07-09T06:48:37.000Z</time>
      </trkpt>
      <trkpt lat="43.60997" lon="6.29973">
        <ele>696.8</ele>
        <time>2025-07-09T06:48:41.952Z</time>
      </trkpt>
      <trkpt lat="43.60996" lon="6.2998">
        <ele>696.2</ele>
        <time>2025-07-09T06:48:47.000Z</time>
      </trkpt>
      <trkpt lat="43.61001" lon="6.29985">
        <ele>696.2</ele>
        <time>2025-07-09T06:48:52.336Z</time>
      </trkpt>
      <trkpt lat="43.61005" lon="6.2999">
        <ele>696.1</ele>
        <time>2025-07-09T06:48:56.999Z</time>
      </trkpt>
      <trkpt lat="43.6101" lon="6.29995">
        <ele>696.1</ele>
        <time>2025-07-09T06:49:02.335Z</time>
      </trkpt>
      <trkpt lat="43.61014" lon="6.3">
        <ele>696</ele>
        <time>2025-07-09T06:49:07.000Z</time>
      </trkpt>
      <trkpt lat="43.61017" lon="6.30005">
        <ele>695.8</ele>
        <time>2025-07-09T06:49:12.000Z</time>
      </trkpt>
      <trkpt lat="43.6102" lon="6.3001">
        <ele>695.6</ele>
        <time>2025-07-09T06:49:17.000Z</time>
      </trkpt>
      <trkpt lat="43.61023" lon="6.30017">
        <ele>695.3</ele>
        <time>2025-07-09T06:49:22.043Z</time>
      </trkpt>
      <trkpt lat="43.61025" lon="6.30025">
        <ele>694.9</ele>
        <time>2025-07-09T06:49:27.290Z</time>
      </trkpt>
      <trkpt lat="43.61028" lon="6.30032">
        <ele>694.9</ele>
        <time>2025-07-09T06:49:32.333Z</time>
      </trkpt>
      <trkpt lat="43.6103" lon="6.30039">
        <ele>694.9</ele>
        <time>2025-07-09T06:49:37.000Z</time>
      </trkpt>
      <trkpt lat="43.61033" lon="6.30045">
        <ele>695.1</ele>
        <time>2025-07-09T06:49:42.289Z</time>
      </trkpt>
      <trkpt lat="43.61036" lon="6.3005">
        <ele>695.4</ele>
        <time>2025-07-09T06:49:47.000Z</time>
      </trkpt>
      <trkpt lat="43.61038" lon="6.30056">
        <ele>695.4</ele>
        <time>2025-07-09T06:49:52.000Z</time>
      </trkpt>
      <trkpt lat="43.6104" lon="6.30062">
        <ele>695.2</ele>
        <time>2025-07-09T06:49:57.000Z</time>
      </trkpt>
      <trkpt lat="43.61041" lon="6.30069">
        <ele>694.7</ele>
        <time>2025-07-09T06:50:02.367Z</time>
      </trkpt>
      <trkpt lat="43.61042" lon="6.30075">
        <ele>694.3</ele>
        <time>2025-07-09T06:50:07.000Z</time>
      </trkpt>
      <trkpt lat="43.6104" lon="6.30082">
        <ele>693.4</ele>
        <time>2025-07-09T06:50:11.999Z</time>
      </trkpt>
      <trkpt lat="43.61038" lon="6.30089">
        <ele>693.7</ele>
        <time>2025-07-09T06:50:16.999Z</time>
      </trkpt>
      <trkpt lat="43.61036" lon="6.30096">
        <ele>694.1</ele>
        <time>2025-07-09T06:50:21.999Z</time>
      </trkpt>
      <trkpt lat="43.61034" lon="6.30103">
        <ele>694.4</ele>
        <time>2025-07-09T06:50:27.000Z</time>
      </trkpt>
      <trkpt lat="43.61036" lon="6.30115">
        <ele>695.6</ele>
        <time>2025-07-09T06:50:37.000Z</time>
      </trkpt>
      <trkpt lat="43.6104" lon="6.30124">
        <ele>696.7</ele>
        <time>2025-07-09T06:50:47.000Z</time>
      </trkpt>
      <trkpt lat="43.61041" lon="6.30131">
        <ele>697.1</ele>
        <time>2025-07-09T06:50:52.367Z</time>
      </trkpt>
      <trkpt lat="43.61042" lon="6.30137">
        <ele>697.5</ele>
        <time>2025-07-09T06:50:57.000Z</time>
      </trkpt>
      <trkpt lat="43.61046" lon="6.30148">
        <ele>698.1</ele>
        <time>2025-07-09T06:51:07.000Z</time>
      </trkpt>
      <trkpt lat="43.61049" lon="6.30154">
        <ele>698.4</ele>
        <time>2025-07-09T06:51:12.111Z</time>
      </trkpt>
      <trkpt lat="43.61053" lon="6.30159">
        <ele>698.9</ele>
        <time>2025-07-09T06:51:17.335Z</time>
      </trkpt>
      <trkpt lat="43.61056" lon="6.30165">
        <ele>699.1</ele>
        <time>2025-07-09T06:51:22.447Z</time>
      </trkpt>
      <trkpt lat="43.61059" lon="6.3017">
        <ele>699.5</ele>
        <time>2025-07-09T06:51:27.000Z</time>
      </trkpt>
      <trkpt lat="43.61062" lon="6.30176">
        <ele>699.9</ele>
        <time>2025-07-09T06:51:32.246Z</time>
      </trkpt>
      <trkpt lat="43.61064" lon="6.30182">
        <ele>700.2</ele>
        <time>2025-07-09T06:51:37.000Z</time>
      </trkpt>
      <trkpt lat="43.61065" lon="6.3019">
        <ele>700.4</ele>
        <time>2025-07-09T06:51:42.036Z</time>
      </trkpt>
      <trkpt lat="43.61065" lon="6.30198">
        <ele>700.3</ele>
        <time>2025-07-09T06:51:47.000Z</time>
      </trkpt>
      <trkpt lat="43.61065" lon="6.30206">
        <ele>700.1</ele>
        <time>2025-07-09T06:51:52.000Z</time>
      </trkpt>
      <trkpt lat="43.61065" lon="6.30214">
        <ele>699.9</ele>
        <time>2025-07-09T06:51:57.000Z</time>
      </trkpt>
      <trkpt lat="43.61067" lon="6.30226">
        <ele>699.7</ele>
        <time>2025-07-09T06:52:07.000Z</time>
      </trkpt>
      <trkpt lat="43.6107" lon="6.30233">
        <ele>699.4</ele>
        <time>2025-07-09T06:52:12.000Z</time>
      </trkpt>
      <trkpt lat="43.61073" lon="6.3024">
        <ele>699.1</ele>
        <time>2025-07-09T06:52:17.000Z</time>
      </trkpt>
      <trkpt lat="43.61076" lon="6.30245">
        <ele>698.8</ele>
        <time>2025-07-09T06:52:22.000Z</time>
      </trkpt>
      <trkpt lat="43.61079" lon="6.3025">
        <ele>698.5</ele>
        <time>2025-07-09T06:52:27.000Z</time>
      </trkpt>
      <trkpt lat="43.61083" lon="6.30259">
        <ele>697.7</ele>
        <time>2025-07-09T06:52:34.227Z</time>
      </trkpt>
      <trkpt lat="43.61088" lon="6.30269">
        <ele>696.6</ele>
        <time>2025-07-09T06:52:42.544Z</time>
      </trkpt>
      <trkpt lat="43.61092" lon="6.30278">
        <ele>695.3</ele>
        <time>2025-07-09T06:52:49.772Z</time>
      </trkpt>
      <trkpt lat="43.61096" lon="6.30287">
        <ele>696.2</ele>
        <time>2025-07-09T06:52:57.000Z</time>
      </trkpt>
      <trkpt lat="43.61096" lon="6.30294">
        <ele>696.8</ele>
        <time>2025-07-09T06:53:02.320Z</time>
      </trkpt>
      <trkpt lat="43.61095" lon="6.303">
        <ele>697.2</ele>
        <time>2025-07-09T06:53:07.000Z</time>
      </trkpt>
      <trkpt lat="43.61093" lon="6.30307">
        <ele>697.6</ele>
        <time>2025-07-09T06:53:12.078Z</time>
      </trkpt>
      <trkpt lat="43.6109" lon="6.30313">
        <ele>698</ele>
        <time>2025-07-09T06:53:17.000Z</time>
      </trkpt>
      <trkpt lat="43.61087" lon="6.30319">
        <ele>698.4</ele>
        <time>2025-07-09T06:53:21.999Z</time>
      </trkpt>
      <trkpt lat="43.61084" lon="6.30325">
        <ele>698.9</ele>
        <time>2025-07-09T06:53:27.000Z</time>
      </trkpt>
      <trkpt lat="43.61082" lon="6.30332">
        <ele>699.4</ele>
        <time>2025-07-09T06:53:32.325Z</time>
      </trkpt>
      <trkpt lat="43.6108" lon="6.30338">
        <ele>698.9</ele>
        <time>2025-07-09T06:53:37.000Z</time>
      </trkpt>
      <trkpt lat="43.61082" lon="6.30344">
        <ele>699.3</ele>
        <time>2025-07-09T06:53:42.175Z</time>
      </trkpt>
      <trkpt lat="43.61083" lon="6.3035">
        <ele>699.3</ele>
        <time>2025-07-09T06:53:47.000Z</time>
      </trkpt>
      <trkpt lat="43.61088" lon="6.30355">
        <ele>699.6</ele>
        <time>2025-07-09T06:53:52.437Z</time>
      </trkpt>
      <trkpt lat="43.61092" lon="6.30359">
        <ele>699.7</ele>
        <time>2025-07-09T06:53:56.787Z</time>
      </trkpt>
      <trkpt lat="43.61097" lon="6.30364">
        <ele>699.6</ele>
        <time>2025-07-09T06:54:02.224Z</time>
      </trkpt>
      <trkpt lat="43.61102" lon="6.30368">
        <ele>699.5</ele>
        <time>2025-07-09T06:54:07.314Z</time>
      </trkpt>
      <trkpt lat="43.61106" lon="6.30373">
        <ele>699.3</ele>
        <time>2025-07-09T06:54:12.066Z</time>
      </trkpt>
      <trkpt lat="43.61111" lon="6.30377">
        <ele>699.3</ele>
        <time>2025-07-09T06:54:17.156Z</time>
      </trkpt>
      <trkpt lat="43.61115" lon="6.30382">
        <ele>699</ele>
        <time>2025-07-09T06:54:21.909Z</time>
      </trkpt>
      <trkpt lat="43.6112" lon="6.30386">
        <ele>699</ele>
        <time>2025-07-09T06:54:27.000Z</time>
      </trkpt>
      <trkpt lat="43.61125" lon="6.30392">
        <ele>698.9</ele>
        <time>2025-07-09T06:54:32.511Z</time>
      </trkpt>
      <trkpt lat="43.61129" lon="6.30397">
        <ele>699</ele>
        <time>2025-07-09T06:54:37.000Z</time>
      </trkpt>
      <trkpt lat="43.61132" lon="6.30404">
        <ele>699</ele>
        <time>2025-07-09T06:54:42.518Z</time>
      </trkpt>
      <trkpt lat="43.61134" lon="6.3041">
        <ele>698.9</ele>
        <time>2025-07-09T06:54:47.000Z</time>
      </trkpt>
      <trkpt lat="43.61134" lon="6.30417">
        <ele>698.7</ele>
        <time>2025-07-09T06:54:52.320Z</time>
      </trkpt>
      <trkpt lat="43.61133" lon="6.30423">
        <ele>699</ele>
        <time>2025-07-09T06:54:57.000Z</time>
      </trkpt>
      <trkpt lat="43.61134" lon="6.3043">
        <ele>699.5</ele>
        <time>2025-07-09T06:55:02.047Z</time>
      </trkpt>
      <trkpt lat="43.61134" lon="6.30437">
        <ele>700</ele>
        <time>2025-07-09T06:55:07.000Z</time>
      </trkpt>
      <trkpt lat="43.61137" lon="6.30444">
        <ele>700.8</ele>
        <time>2025-07-09T06:55:17.000Z</time>
      </trkpt>
      <trkpt lat="43.61134" lon="6.30449">
        <ele>700.5</ele>
        <time>2025-07-09T06:59:12.000Z</time>
      </trkpt>
      <trkpt lat="43.61132" lon="6.30457">
        <ele>700.3</ele>
        <time>2025-07-09T06:59:16.999Z</time>
      </trkpt>
      <trkpt lat="43.6113" lon="6.30465">
        <ele>700</ele>
        <time>2025-07-09T06:59:22.000Z</time>
      </trkpt>
      <trkpt lat="43.61131" lon="6.30473">
        <ele>700.1</ele>
        <time>2025-07-09T06:59:27.369Z</time>
      </trkpt>
      <trkpt lat="43.61131" lon="6.3048">
        <ele>700.1</ele>
        <time>2025-07-09T06:59:32.000Z</time>
      </trkpt>
      <trkpt lat="43.61131" lon="6.30487">
        <ele>700</ele>
        <time>2025-07-09T06:59:37.320Z</time>
      </trkpt>
      <trkpt lat="43.6113" lon="6.30493">
        <ele>699.8</ele>
        <time>2025-07-09T06:59:42.000Z</time>
      </trkpt>
      <trkpt lat="43.61128" lon="6.30501">
        <ele>699.5</ele>
        <time>2025-07-09T06:59:47.051Z</time>
      </trkpt>
      <trkpt lat="43.61127" lon="6.30509">
        <ele>699.8</ele>
        <time>2025-07-09T06:59:51.896Z</time>
      </trkpt>
      <trkpt lat="43.61125" lon="6.30517">
        <ele>699.9</ele>
        <time>2025-07-09T06:59:56.947Z</time>
      </trkpt>
      <trkpt lat="43.61123" lon="6.30525">
        <ele>700.1</ele>
        <time>2025-07-09T07:00:02.000Z</time>
      </trkpt>
      <trkpt lat="43.61123" lon="6.30532">
        <ele>700.3</ele>
        <time>2025-07-09T07:00:06.952Z</time>
      </trkpt>
      <trkpt lat="43.61122" lon="6.30539">
        <ele>700.3</ele>
        <time>2025-07-09T07:00:12.000Z</time>
      </trkpt>
      <trkpt lat="43.61124" lon="6.30547">
        <ele>700.7</ele>
        <time>2025-07-09T07:00:17.204Z</time>
      </trkpt>
      <trkpt lat="43.61126" lon="6.30555">
        <ele>701.1</ele>
        <time>2025-07-09T07:00:22.408Z</time>
      </trkpt>
      <trkpt lat="43.61127" lon="6.30562">
        <ele>701.1</ele>
        <time>2025-07-09T07:00:26.795Z</time>
      </trkpt>
      <trkpt lat="43.61129" lon="6.3057">
        <ele>701.2</ele>
        <time>2025-07-09T07:00:32.000Z</time>
      </trkpt>
      <trkpt lat="43.61131" lon="6.30577">
        <ele>701.4</ele>
        <time>2025-07-09T07:00:36.848Z</time>
      </trkpt>
      <trkpt lat="43.61133" lon="6.30585">
        <ele>701.6</ele>
        <time>2025-07-09T07:00:42.301Z</time>
      </trkpt>
      <trkpt lat="43.61135" lon="6.30592">
        <ele>701.5</ele>
        <time>2025-07-09T07:00:47.150Z</time>
      </trkpt>
      <trkpt lat="43.61137" lon="6.30599">
        <ele>701.5</ele>
        <time>2025-07-09T07:00:52.000Z</time>
      </trkpt>
      <trkpt lat="43.6114" lon="6.30606">
        <ele>701.6</ele>
        <time>2025-07-09T07:00:57.194Z</time>
      </trkpt>
      <trkpt lat="43.61142" lon="6.30613">
        <ele>701.4</ele>
        <time>2025-07-09T07:01:01.999Z</time>
      </trkpt>
      <trkpt lat="43.61145" lon="6.3062">
        <ele>701.2</ele>
        <time>2025-07-09T07:01:07.193Z</time>
      </trkpt>
      <trkpt lat="43.61147" lon="6.30627">
        <ele>700.9</ele>
        <time>2025-07-09T07:01:12.000Z</time>
      </trkpt>
      <trkpt lat="43.61148" lon="6.30634">
        <ele>700.4</ele>
        <time>2025-07-09T07:01:17.000Z</time>
      </trkpt>
      <trkpt lat="43.61149" lon="6.30641">
        <ele>700.1</ele>
        <time>2025-07-09T07:01:22.000Z</time>
      </trkpt>
      <trkpt lat="43.61151" lon="6.30648">
        <ele>700.2</ele>
        <time>2025-07-09T07:01:26.765Z</time>
      </trkpt>
      <trkpt lat="43.61154" lon="6.30656">
        <ele>700.3</ele>
        <time>2025-07-09T07:01:32.469Z</time>
      </trkpt>
      <trkpt lat="43.61156" lon="6.30663">
        <ele>700.1</ele>
        <time>2025-07-09T07:01:37.234Z</time>
      </trkpt>
      <trkpt lat="43.61158" lon="6.3067">
        <ele>700</ele>
        <time>2025-07-09T07:01:42.000Z</time>
      </trkpt>
      <trkpt lat="43.6116" lon="6.30678">
        <ele>700</ele>
        <time>2025-07-09T07:01:47.425Z</time>
      </trkpt>
      <trkpt lat="43.61161" lon="6.30685">
        <ele>699.9</ele>
        <time>2025-07-09T07:01:52.000Z</time>
      </trkpt>
      <trkpt lat="43.61165" lon="6.3069">
        <ele>700</ele>
        <time>2025-07-09T07:01:57.042Z</time>
      </trkpt>
      <trkpt lat="43.61169" lon="6.30696">
        <ele>700.2</ele>
        <time>2025-07-09T07:02:02.562Z</time>
      </trkpt>
      <trkpt lat="43.61172" lon="6.30701">
        <ele>700.3</ele>
        <time>2025-07-09T07:02:06.956Z</time>
      </trkpt>
      <trkpt lat="43.61176" lon="6.30706">
        <ele>700.6</ele>
        <time>2025-07-09T07:02:12.000Z</time>
      </trkpt>
      <trkpt lat="43.61181" lon="6.30709">
        <ele>701</ele>
        <time>2025-07-09T07:02:16.926Z</time>
      </trkpt>
      <trkpt lat="43.61186" lon="6.30713">
        <ele>701.4</ele>
        <time>2025-07-09T07:02:22.147Z</time>
      </trkpt>
      <trkpt lat="43.61191" lon="6.30716">
        <ele>701.9</ele>
        <time>2025-07-09T07:02:27.073Z</time>
      </trkpt>
      <trkpt lat="43.61196" lon="6.30719">
        <ele>702.3</ele>
        <time>2025-07-09T07:02:32.000Z</time>
      </trkpt>
      <trkpt lat="43.61203" lon="6.30726">
        <ele>702.8</ele>
        <time>2025-07-09T07:02:42.000Z</time>
      </trkpt>
      <trkpt lat="43.61209" lon="6.30729">
        <ele>703.3</ele>
        <time>2025-07-09T07:02:47.507Z</time>
      </trkpt>
      <trkpt lat="43.61214" lon="6.30731">
        <ele>703.8</ele>
        <time>2025-07-09T07:02:52.000Z</time>
      </trkpt>
      <trkpt lat="43.6122" lon="6.30732">
        <ele>704.4</ele>
        <time>2025-07-09T07:02:57.000Z</time>
      </trkpt>
      <trkpt lat="43.61226" lon="6.30733">
        <ele>705</ele>
        <time>2025-07-09T07:03:02.000Z</time>
      </trkpt>
      <trkpt lat="43.61231" lon="6.30733">
        <ele>705.6</ele>
        <time>2025-07-09T07:03:06.974Z</time>
      </trkpt>
      <trkpt lat="43.61236" lon="6.30732">
        <ele>706.1</ele>
        <time>2025-07-09T07:03:12.000Z</time>
      </trkpt>
      <trkpt lat="43.61241" lon="6.30733">
        <ele>706.6</ele>
        <time>2025-07-09T07:03:17.285Z</time>
      </trkpt>
      <trkpt lat="43.61246" lon="6.30733">
        <ele>707.2</ele>
        <time>2025-07-09T07:03:22.516Z</time>
      </trkpt>
      <trkpt lat="43.6125" lon="6.30734">
        <ele>707.6</ele>
        <time>2025-07-09T07:03:26.768Z</time>
      </trkpt>
      <trkpt lat="43.61255" lon="6.30734">
        <ele>708.2</ele>
        <time>2025-07-09T07:03:32.000Z</time>
      </trkpt>
      <trkpt lat="43.6126" lon="6.30736">
        <ele>708.7</ele>
        <time>2025-07-09T07:03:37.276Z</time>
      </trkpt>
      <trkpt lat="43.61264" lon="6.30737">
        <ele>709.2</ele>
        <time>2025-07-09T07:03:42.552Z</time>
      </trkpt>
      <trkpt lat="43.61272" lon="6.3074">
        <ele>710.2</ele>
        <time>2025-07-09T07:03:52.000Z</time>
      </trkpt>
      <trkpt lat="43.61277" lon="6.30743">
        <ele>710.9</ele>
        <time>2025-07-09T07:03:57.616Z</time>
      </trkpt>
      <trkpt lat="43.61281" lon="6.30745">
        <ele>711.2</ele>
        <time>2025-07-09T07:04:01.999Z</time>
      </trkpt>
      <trkpt lat="43.61286" lon="6.30748">
        <ele>711.3</ele>
        <time>2025-07-09T07:04:07.616Z</time>
      </trkpt>
      <trkpt lat="43.6129" lon="6.3075">
        <ele>711.4</ele>
        <time>2025-07-09T07:04:12.000Z</time>
      </trkpt>
      <trkpt lat="43.61295" lon="6.30754">
        <ele>711.3</ele>
        <time>2025-07-09T07:04:17.145Z</time>
      </trkpt>
      <trkpt lat="43.613" lon="6.30757">
        <ele>711.3</ele>
        <time>2025-07-09T07:04:22.000Z</time>
      </trkpt>
      <trkpt lat="43.61304" lon="6.30761">
        <ele>711.2</ele>
        <time>2025-07-09T07:04:26.796Z</time>
      </trkpt>
      <trkpt lat="43.61309" lon="6.30765">
        <ele>711.2</ele>
        <time>2025-07-09T07:04:32.407Z</time>
      </trkpt>
      <trkpt lat="43.61313" lon="6.30769">
        <ele>711.4</ele>
        <time>2025-07-09T07:04:37.203Z</time>
      </trkpt>
      <trkpt lat="43.61317" lon="6.30773">
        <ele>711.5</ele>
        <time>2025-07-09T07:04:42.000Z</time>
      </trkpt>
      <trkpt lat="43.61321" lon="6.30778">
        <ele>711.6</ele>
        <time>2025-07-09T07:04:47.017Z</time>
      </trkpt>
      <trkpt lat="43.61326" lon="6.30782">
        <ele>711.6</ele>
        <time>2025-07-09T07:04:52.390Z</time>
      </trkpt>
      <trkpt lat="43.6133" lon="6.30787">
        <ele>711.4</ele>
        <time>2025-07-09T07:04:57.407Z</time>
      </trkpt>
      <trkpt lat="43.61334" lon="6.30791">
        <ele>711.1</ele>
        <time>2025-07-09T07:05:02.000Z</time>
      </trkpt>
      <trkpt lat="43.61339" lon="6.30796">
        <ele>710.8</ele>
        <time>2025-07-09T07:05:07.165Z</time>
      </trkpt>
      <trkpt lat="43.61344" lon="6.308">
        <ele>710.7</ele>
        <time>2025-07-09T07:05:12.000Z</time>
      </trkpt>
      <trkpt lat="43.61348" lon="6.3081">
        <ele>710.8</ele>
        <time>2025-07-09T07:05:22.000Z</time>
      </trkpt>
      <trkpt lat="43.61347" lon="6.30818">
        <ele>711.2</ele>
        <time>2025-07-09T07:05:26.895Z</time>
      </trkpt>
      <trkpt lat="43.61345" lon="6.30826">
        <ele>711.4</ele>
        <time>2025-07-09T07:05:32.000Z</time>
      </trkpt>
      <trkpt lat="43.61343" lon="6.30834">
        <ele>711.7</ele>
        <time>2025-07-09T07:05:37.293Z</time>
      </trkpt>
      <trkpt lat="43.61341" lon="6.30841">
        <ele>712.1</ele>
        <time>2025-07-09T07:05:42.000Z</time>
      </trkpt>
      <trkpt lat="43.61342" lon="6.30848">
        <ele>712.7</ele>
        <time>2025-07-09T07:05:47.432Z</time>
      </trkpt>
      <trkpt lat="43.61342" lon="6.30854">
        <ele>713.1</ele>
        <time>2025-07-09T07:05:52.000Z</time>
      </trkpt>
      <trkpt lat="43.61344" lon="6.30861">
        <ele>713.8</ele>
        <time>2025-07-09T07:05:57.133Z</time>
      </trkpt>
      <trkpt lat="43.61345" lon="6.30868">
        <ele>713.6</ele>
        <time>2025-07-09T07:06:02.000Z</time>
      </trkpt>
      <trkpt lat="43.61348" lon="6.30874">
        <ele>713.6</ele>
        <time>2025-07-09T07:06:07.246Z</time>
      </trkpt>
      <trkpt lat="43.6135" lon="6.3088">
        <ele>713.5</ele>
        <time>2025-07-09T07:06:12.000Z</time>
      </trkpt>
      <trkpt lat="43.61355" lon="6.30884">
        <ele>713.7</ele>
        <time>2025-07-09T07:06:17.000Z</time>
      </trkpt>
      <trkpt lat="43.6136" lon="6.30888">
        <ele>714</ele>
        <time>2025-07-09T07:06:22.000Z</time>
      </trkpt>
      <trkpt lat="43.61365" lon="6.30891">
        <ele>714.2</ele>
        <time>2025-07-09T07:06:27.616Z</time>
      </trkpt>
      <trkpt lat="43.61369" lon="6.30893">
        <ele>714.4</ele>
        <time>2025-07-09T07:06:32.000Z</time>
      </trkpt>
      <trkpt lat="43.61375" lon="6.30895">
        <ele>714.7</ele>
        <time>2025-07-09T07:06:37.424Z</time>
      </trkpt>
      <trkpt lat="43.6138" lon="6.30897">
        <ele>714.9</ele>
        <time>2025-07-09T07:06:42.000Z</time>
      </trkpt>
      <trkpt lat="43.61385" lon="6.30902">
        <ele>714.8</ele>
        <time>2025-07-09T07:06:47.165Z</time>
      </trkpt>
      <trkpt lat="43.6139" lon="6.30906">
        <ele>714.8</ele>
        <time>2025-07-09T07:06:52.000Z</time>
      </trkpt>
      <trkpt lat="43.61392" lon="6.30913">
        <ele>714.4</ele>
        <time>2025-07-09T07:06:57.000Z</time>
      </trkpt>
      <trkpt lat="43.61394" lon="6.3092">
        <ele>714.2</ele>
        <time>2025-07-09T07:07:02.000Z</time>
      </trkpt>
      <trkpt lat="43.61397" lon="6.30926">
        <ele>714.4</ele>
        <time>2025-07-09T07:07:07.246Z</time>
      </trkpt>
      <trkpt lat="43.61399" lon="6.30932">
        <ele>714.6</ele>
        <time>2025-07-09T07:07:12.000Z</time>
      </trkpt>
      <trkpt lat="43.61399" lon="6.3094">
        <ele>714.7</ele>
        <time>2025-07-09T07:07:17.333Z</time>
      </trkpt>
      <trkpt lat="43.61399" lon="6.30947">
        <ele>714.7</ele>
        <time>2025-07-09T07:07:22.000Z</time>
      </trkpt>
      <trkpt lat="43.61402" lon="6.30955">
        <ele>714.7</ele>
        <time>2025-07-09T07:07:27.000Z</time>
      </trkpt>
      <trkpt lat="43.61405" lon="6.30963">
        <ele>714.9</ele>
        <time>2025-07-09T07:07:32.000Z</time>
      </trkpt>
      <trkpt lat="43.61409" lon="6.30967">
        <ele>715.2</ele>
        <time>2025-07-09T07:07:37.421Z</time>
      </trkpt>
      <trkpt lat="43.61412" lon="6.30971">
        <ele>715.5</ele>
        <time>2025-07-09T07:07:42.000Z</time>
      </trkpt>
      <trkpt lat="43.61416" lon="6.30975">
        <ele>715.8</ele>
        <time>2025-07-09T07:07:47.203Z</time>
      </trkpt>
      <trkpt lat="43.6142" lon="6.30978">
        <ele>716.4</ele>
        <time>2025-07-09T07:07:52.000Z</time>
      </trkpt>
      <trkpt lat="43.61424" lon="6.30984">
        <ele>716.9</ele>
        <time>2025-07-09T07:07:57.403Z</time>
      </trkpt>
      <trkpt lat="43.61427" lon="6.3099">
        <ele>717.2</ele>
        <time>2025-07-09T07:08:02.233Z</time>
      </trkpt>
      <trkpt lat="43.61431" lon="6.30995">
        <ele>717.8</ele>
        <time>2025-07-09T07:08:07.169Z</time>
      </trkpt>
      <trkpt lat="43.61434" lon="6.31001">
        <ele>718.1</ele>
        <time>2025-07-09T07:08:12.000Z</time>
      </trkpt>
      <trkpt lat="43.6144" lon="6.31009">
        <ele>718.8</ele>
        <time>2025-07-09T07:08:19.687Z</time>
      </trkpt>
      <trkpt lat="43.61445" lon="6.31018">
        <ele>718.8</ele>
        <time>2025-07-09T07:08:27.258Z</time>
      </trkpt>
      <trkpt lat="43.61451" lon="6.31026">
        <ele>718.6</ele>
        <time>2025-07-09T07:08:34.946Z</time>
      </trkpt>
      <trkpt lat="43.61456" lon="6.31034">
        <ele>719</ele>
        <time>2025-07-09T07:08:42.000Z</time>
      </trkpt>
      <trkpt lat="43.61462" lon="6.31041">
        <ele>719.4</ele>
        <time>2025-07-09T07:08:52.000Z</time>
      </trkpt>
      <trkpt lat="43.61466" lon="6.31044">
        <ele>719.7</ele>
        <time>2025-07-09T07:08:56.764Z</time>
      </trkpt>
      <trkpt lat="43.61471" lon="6.31047">
        <ele>719.9</ele>
        <time>2025-07-09T07:09:02.470Z</time>
      </trkpt>
      <trkpt lat="43.61475" lon="6.3105">
        <ele>720.4</ele>
        <time>2025-07-09T07:09:07.235Z</time>
      </trkpt>
      <trkpt lat="43.61479" lon="6.31053">
        <ele>721</ele>
        <time>2025-07-09T07:09:12.000Z</time>
      </trkpt>
      <trkpt lat="43.61483" lon="6.31058">
        <ele>721.6</ele>
        <time>2025-07-09T07:09:17.640Z</time>
      </trkpt>
      <trkpt lat="43.61486" lon="6.31062">
        <ele>722.1</ele>
        <time>2025-07-09T07:09:22.000Z</time>
      </trkpt>
      <trkpt lat="43.61487" lon="6.31069">
        <ele>722.3</ele>
        <time>2025-07-09T07:09:27.432Z</time>
      </trkpt>
      <trkpt lat="43.61487" lon="6.31075">
        <ele>722.4</ele>
        <time>2025-07-09T07:09:32.000Z</time>
      </trkpt>
      <trkpt lat="43.61486" lon="6.31083">
        <ele>722.5</ele>
        <time>2025-07-09T07:09:36.999Z</time>
      </trkpt>
      <trkpt lat="43.61485" lon="6.31091">
        <ele>722.9</ele>
        <time>2025-07-09T07:09:42.000Z</time>
      </trkpt>
      <trkpt lat="43.61481" lon="6.31096">
        <ele>723.1</ele>
        <time>2025-07-09T07:09:46.999Z</time>
      </trkpt>
      <trkpt lat="43.61477" lon="6.31101">
        <ele>723.3</ele>
        <time>2025-07-09T07:09:52.000Z</time>
      </trkpt>
      <trkpt lat="43.61473" lon="6.31105">
        <ele>723.6</ele>
        <time>2025-07-09T07:09:57.203Z</time>
      </trkpt>
      <trkpt lat="43.61469" lon="6.31108">
        <ele>723.7</ele>
        <time>2025-07-09T07:10:02.000Z</time>
      </trkpt>
      <trkpt lat="43.61467" lon="6.31114">
        <ele>723.9</ele>
        <time>2025-07-09T07:10:06.753Z</time>
      </trkpt>
      <trkpt lat="43.61464" lon="6.3112">
        <ele>723.9</ele>
        <time>2025-07-09T07:10:12.000Z</time>
      </trkpt>
      <trkpt lat="43.61466" lon="6.31131">
        <ele>724.3</ele>
        <time>2025-07-09T07:10:22.000Z</time>
      </trkpt>
      <trkpt lat="43.6147" lon="6.31135">
        <ele>724.7</ele>
        <time>2025-07-09T07:10:27.421Z</time>
      </trkpt>
      <trkpt lat="43.61473" lon="6.31139">
        <ele>725</ele>
        <time>2025-07-09T07:10:32.000Z</time>
      </trkpt>
      <trkpt lat="43.61478" lon="6.31141">
        <ele>725.3</ele>
        <time>2025-07-09T07:10:37.615Z</time>
      </trkpt>
      <trkpt lat="43.61482" lon="6.31142">
        <ele>725.5</ele>
        <time>2025-07-09T07:10:42.000Z</time>
      </trkpt>
      <trkpt lat="43.61487" lon="6.31143">
        <ele>725.8</ele>
        <time>2025-07-09T07:10:47.541Z</time>
      </trkpt>
      <trkpt lat="43.61491" lon="6.31144">
        <ele>726</ele>
        <time>2025-07-09T07:10:52.000Z</time>
      </trkpt>
      <trkpt lat="43.61496" lon="6.31146">
        <ele>726.3</ele>
        <time>2025-07-09T07:10:56.941Z</time>
      </trkpt>
      <trkpt lat="43.61501" lon="6.31149">
        <ele>726.7</ele>
        <time>2025-07-09T07:11:02.116Z</time>
      </trkpt>
      <trkpt lat="43.61506" lon="6.31151">
        <ele>726.9</ele>
        <time>2025-07-09T07:11:07.058Z</time>
      </trkpt>
      <trkpt lat="43.61511" lon="6.31153">
        <ele>727</ele>
        <time>2025-07-09T07:11:12.000Z</time>
      </trkpt>
      <trkpt lat="43.61517" lon="6.31157">
        <ele>727.1</ele>
        <time>2025-07-09T07:11:17.107Z</time>
      </trkpt>
      <trkpt lat="43.61523" lon="6.3116">
        <ele>727.1</ele>
        <time>2025-07-09T07:11:22.000Z</time>
      </trkpt>
      <trkpt lat="43.61529" lon="6.31167">
        <ele>727.1</ele>
        <time>2025-07-09T07:11:32.000Z</time>
      </trkpt>
      <trkpt lat="43.61533" lon="6.31177">
        <ele>727.7</ele>
        <time>2025-07-09T07:11:42.000Z</time>
      </trkpt>
      <trkpt lat="43.61535" lon="6.31185">
        <ele>728</ele>
        <time>2025-07-09T07:11:47.425Z</time>
      </trkpt>
      <trkpt lat="43.61536" lon="6.31192">
        <ele>728.2</ele>
        <time>2025-07-09T07:11:52.000Z</time>
      </trkpt>
      <trkpt lat="43.61536" lon="6.31199">
        <ele>728.3</ele>
        <time>2025-07-09T07:11:56.952Z</time>
      </trkpt>
      <trkpt lat="43.61535" lon="6.31206">
        <ele>728.3</ele>
        <time>2025-07-09T07:12:02.000Z</time>
      </trkpt>
      <trkpt lat="43.61529" lon="6.31215">
        <ele>728</ele>
        <time>2025-07-09T07:12:12.000Z</time>
      </trkpt>
      <trkpt lat="43.61528" lon="6.31218">
        <ele>728</ele>
        <time>2025-07-09T07:14:32.000Z</time>
      </trkpt>
      <trkpt lat="43.61523" lon="6.31224">
        <ele>727.8</ele>
        <time>2025-07-09T07:14:36.859Z</time>
      </trkpt>
      <trkpt lat="43.61517" lon="6.31229">
        <ele>727.6</ele>
        <time>2025-07-09T07:14:42.000Z</time>
      </trkpt>
      <trkpt lat="43.61514" lon="6.31236">
        <ele>727.5</ele>
        <time>2025-07-09T07:14:46.993Z</time>
      </trkpt>
      <trkpt lat="43.6151" lon="6.31242">
        <ele>727.4</ele>
        <time>2025-07-09T07:14:52.000Z</time>
      </trkpt>
      <trkpt lat="43.61508" lon="6.3125">
        <ele>727.3</ele>
        <time>2025-07-09T07:14:57.293Z</time>
      </trkpt>
      <trkpt lat="43.61506" lon="6.31257">
        <ele>727.1</ele>
        <time>2025-07-09T07:15:02.000Z</time>
      </trkpt>
      <trkpt lat="43.61503" lon="6.31265">
        <ele>726.7</ele>
        <time>2025-07-09T07:15:06.999Z</time>
      </trkpt>
      <trkpt lat="43.615" lon="6.31273">
        <ele>726.2</ele>
        <time>2025-07-09T07:15:12.000Z</time>
      </trkpt>
      <trkpt lat="43.61496" lon="6.31281">
        <ele>725.9</ele>
        <time>2025-07-09T07:15:17.215Z</time>
      </trkpt>
      <trkpt lat="43.61492" lon="6.31288">
        <ele>725.9</ele>
        <time>2025-07-09T07:15:22.000Z</time>
      </trkpt>
      <trkpt lat="43.61487" lon="6.31292">
        <ele>725.6</ele>
        <time>2025-07-09T07:15:26.999Z</time>
      </trkpt>
      <trkpt lat="43.61482" lon="6.31296">
        <ele>725.2</ele>
        <time>2025-07-09T07:15:32.000Z</time>
      </trkpt>
      <trkpt lat="43.61476" lon="6.31298">
        <ele>724.6</ele>
        <time>2025-07-09T07:15:36.633Z</time>
      </trkpt>
      <trkpt lat="43.61469" lon="6.313">
        <ele>724.1</ele>
        <time>2025-07-09T07:15:42.000Z</time>
      </trkpt>
      <trkpt lat="43.61463" lon="6.31304">
        <ele>723.7</ele>
        <time>2025-07-09T07:15:47.107Z</time>
      </trkpt>
      <trkpt lat="43.61457" lon="6.31307">
        <ele>723.5</ele>
        <time>2025-07-09T07:15:52.000Z</time>
      </trkpt>
      <trkpt lat="43.61452" lon="6.31313">
        <ele>723.5</ele>
        <time>2025-07-09T07:15:57.176Z</time>
      </trkpt>
      <trkpt lat="43.61447" lon="6.31318">
        <ele>723.5</ele>
        <time>2025-07-09T07:16:02.000Z</time>
      </trkpt>
      <trkpt lat="43.61444" lon="6.31326">
        <ele>723.7</ele>
        <time>2025-07-09T07:16:07.255Z</time>
      </trkpt>
      <trkpt lat="43.61441" lon="6.31333">
        <ele>723.9</ele>
        <time>2025-07-09T07:16:12.000Z</time>
      </trkpt>
      <trkpt lat="43.6144" lon="6.31341">
        <ele>723.8</ele>
        <time>2025-07-09T07:16:17.086Z</time>
      </trkpt>
      <trkpt lat="43.61439" lon="6.31349">
        <ele>723.8</ele>
        <time>2025-07-09T07:16:22.172Z</time>
      </trkpt>
      <trkpt lat="43.61438" lon="6.31357">
        <ele>723.8</ele>
        <time>2025-07-09T07:16:27.258Z</time>
      </trkpt>
      <trkpt lat="43.61438" lon="6.31365">
        <ele>723.9</ele>
        <time>2025-07-09T07:16:32.270Z</time>
      </trkpt>
      <trkpt lat="43.61437" lon="6.31372">
        <ele>724</ele>
        <time>2025-07-09T07:16:36.740Z</time>
      </trkpt>
      <trkpt lat="43.61436" lon="6.3138">
        <ele>724.2</ele>
        <time>2025-07-09T07:16:41.826Z</time>
      </trkpt>
      <trkpt lat="43.61435" lon="6.31388">
        <ele>724.3</ele>
        <time>2025-07-09T07:16:46.912Z</time>
      </trkpt>
      <trkpt lat="43.61434" lon="6.31396">
        <ele>724.2</ele>
        <time>2025-07-09T07:16:52.000Z</time>
      </trkpt>
      <trkpt lat="43.61435" lon="6.31403">
        <ele>724.3</ele>
        <time>2025-07-09T07:16:57.047Z</time>
      </trkpt>
      <trkpt lat="43.61435" lon="6.3141">
        <ele>724.3</ele>
        <time>2025-07-09T07:17:02.000Z</time>
      </trkpt>
      <trkpt lat="43.61435" lon="6.31419">
        <ele>724.4</ele>
        <time>2025-07-09T07:17:06.970Z</time>
      </trkpt>
      <trkpt lat="43.61434" lon="6.31428">
        <ele>724.6</ele>
        <time>2025-07-09T07:17:12.000Z</time>
      </trkpt>
      <trkpt lat="43.61431" lon="6.31435">
        <ele>724.7</ele>
        <time>2025-07-09T07:17:16.999Z</time>
      </trkpt>
      <trkpt lat="43.61428" lon="6.31442">
        <ele>724.9</ele>
        <time>2025-07-09T07:17:22.000Z</time>
      </trkpt>
      <trkpt lat="43.61424" lon="6.31449">
        <ele>725.4</ele>
        <time>2025-07-09T07:17:26.755Z</time>
      </trkpt>
      <trkpt lat="43.61419" lon="6.31456">
        <ele>725.9</ele>
        <time>2025-07-09T07:17:32.000Z</time>
      </trkpt>
      <trkpt lat="43.61415" lon="6.31462">
        <ele>726.1</ele>
        <time>2025-07-09T07:17:36.889Z</time>
      </trkpt>
      <trkpt lat="43.6141" lon="6.31467">
        <ele>726.1</ele>
        <time>2025-07-09T07:17:41.999Z</time>
      </trkpt>
      <trkpt lat="43.61406" lon="6.31473">
        <ele>726.3</ele>
        <time>2025-07-09T07:17:46.888Z</time>
      </trkpt>
      <trkpt lat="43.61401" lon="6.31478">
        <ele>726.3</ele>
        <time>2025-07-09T07:17:52.000Z</time>
      </trkpt>
      <trkpt lat="43.61397" lon="6.31485">
        <ele>726.5</ele>
        <time>2025-07-09T07:17:56.936Z</time>
      </trkpt>
      <trkpt lat="43.61392" lon="6.31491">
        <ele>726.6</ele>
        <time>2025-07-09T07:18:02.000Z</time>
      </trkpt>
      <trkpt lat="43.61389" lon="6.31498">
        <ele>726.9</ele>
        <time>2025-07-09T07:18:06.891Z</time>
      </trkpt>
      <trkpt lat="43.61385" lon="6.31505">
        <ele>727.1</ele>
        <time>2025-07-09T07:18:12.253Z</time>
      </trkpt>
      <trkpt lat="43.61382" lon="6.31511">
        <ele>727.2</ele>
        <time>2025-07-09T07:18:16.637Z</time>
      </trkpt>
      <trkpt lat="43.61378" lon="6.31518">
        <ele>727.3</ele>
        <time>2025-07-09T07:18:22.000Z</time>
      </trkpt>
      <trkpt lat="43.61374" lon="6.31525">
        <ele>727.2</ele>
        <time>2025-07-09T07:18:26.936Z</time>
      </trkpt>
      <trkpt lat="43.61369" lon="6.31531">
        <ele>727.1</ele>
        <time>2025-07-09T07:18:32.000Z</time>
      </trkpt>
      <trkpt lat="43.61364" lon="6.31537">
        <ele>727</ele>
        <time>2025-07-09T07:18:37.176Z</time>
      </trkpt>
      <trkpt lat="43.61359" lon="6.31542">
        <ele>726.9</ele>
        <time>2025-07-09T07:18:42.000Z</time>
      </trkpt>
      <trkpt lat="43.61355" lon="6.31548">
        <ele>727.2</ele>
        <time>2025-07-09T07:18:46.713Z</time>
      </trkpt>
      <trkpt lat="43.6135" lon="6.31554">
        <ele>727.5</ele>
        <time>2025-07-09T07:18:52.000Z</time>
      </trkpt>
      <trkpt lat="43.61345" lon="6.31559">
        <ele>727.6</ele>
        <time>2025-07-09T07:18:56.683Z</time>
      </trkpt>
      <trkpt lat="43.61339" lon="6.31564">
        <ele>727.6</ele>
        <time>2025-07-09T07:19:02.000Z</time>
      </trkpt>
      <trkpt lat="43.61334" lon="6.3157">
        <ele>727.6</ele>
        <time>2025-07-09T07:19:07.230Z</time>
      </trkpt>
      <trkpt lat="43.6133" lon="6.31576">
        <ele>727.6</ele>
        <time>2025-07-09T07:19:11.893Z</time>
      </trkpt>
      <trkpt lat="43.61325" lon="6.31581">
        <ele>727.6</ele>
        <time>2025-07-09T07:19:16.768Z</time>
      </trkpt>
      <trkpt lat="43.6132" lon="6.31587">
        <ele>727.6</ele>
        <time>2025-07-09T07:19:22.000Z</time>
      </trkpt>
      <trkpt lat="43.61314" lon="6.31593">
        <ele>727.4</ele>
        <time>2025-07-09T07:19:27.138Z</time>
      </trkpt>
      <trkpt lat="43.61308" lon="6.31598">
        <ele>727.1</ele>
        <time>2025-07-09T07:19:32.000Z</time>
      </trkpt>
      <trkpt lat="43.61303" lon="6.31602">
        <ele>726.9</ele>
        <time>2025-07-09T07:19:36.644Z</time>
      </trkpt>
      <trkpt lat="43.61297" lon="6.31606">
        <ele>726.7</ele>
        <time>2025-07-09T07:19:42.000Z</time>
      </trkpt>
      <trkpt lat="43.61291" lon="6.3161">
        <ele>726.5</ele>
        <time>2025-07-09T07:19:46.761Z</time>
      </trkpt>
      <trkpt lat="43.61284" lon="6.31613">
        <ele>726.2</ele>
        <time>2025-07-09T07:19:52.000Z</time>
      </trkpt>
      <trkpt lat="43.61279" lon="6.31618">
        <ele>726.1</ele>
        <time>2025-07-09T07:19:56.990Z</time>
      </trkpt>
      <trkpt lat="43.61274" lon="6.31622">
        <ele>725.9</ele>
        <time>2025-07-09T07:20:01.662Z</time>
      </trkpt>
      <trkpt lat="43.61268" lon="6.31627">
        <ele>725.6</ele>
        <time>2025-07-09T07:20:07.327Z</time>
      </trkpt>
      <trkpt lat="43.61263" lon="6.31631">
        <ele>725.5</ele>
        <time>2025-07-09T07:20:12.000Z</time>
      </trkpt>
      <trkpt lat="43.61259" lon="6.31636">
        <ele>725.3</ele>
        <time>2025-07-09T07:20:16.663Z</time>
      </trkpt>
      <trkpt lat="43.61254" lon="6.31641">
        <ele>725.2</ele>
        <time>2025-07-09T07:20:22.000Z</time>
      </trkpt>
      <trkpt lat="43.61249" lon="6.31646">
        <ele>725.2</ele>
        <time>2025-07-09T07:20:26.809Z</time>
      </trkpt>
      <trkpt lat="43.61243" lon="6.3165">
        <ele>725</ele>
        <time>2025-07-09T07:20:32.000Z</time>
      </trkpt>
      <trkpt lat="43.61239" lon="6.31656">
        <ele>725</ele>
        <time>2025-07-09T07:20:37.225Z</time>
      </trkpt>
      <trkpt lat="43.61235" lon="6.31661">
        <ele>724.8</ele>
        <time>2025-07-09T07:20:41.999Z</time>
      </trkpt>
      <trkpt lat="43.61231" lon="6.31667">
        <ele>724.6</ele>
        <time>2025-07-09T07:20:47.225Z</time>
      </trkpt>
      <trkpt lat="43.61227" lon="6.31672">
        <ele>724.5</ele>
        <time>2025-07-09T07:20:52.000Z</time>
      </trkpt>
      <trkpt lat="43.61223" lon="6.3168">
        <ele>724.5</ele>
        <time>2025-07-09T07:20:56.791Z</time>
      </trkpt>
      <trkpt lat="43.61218" lon="6.31688">
        <ele>724.8</ele>
        <time>2025-07-09T07:21:02.000Z</time>
      </trkpt>
      <trkpt lat="43.61215" lon="6.31693">
        <ele>724.9</ele>
        <time>2025-07-09T07:21:06.656Z</time>
      </trkpt>
      <trkpt lat="43.61211" lon="6.31698">
        <ele>725</ele>
        <time>2025-07-09T07:21:12.000Z</time>
      </trkpt>
      <trkpt lat="43.61206" lon="6.31704">
        <ele>725</ele>
        <time>2025-07-09T07:21:17.176Z</time>
      </trkpt>
      <trkpt lat="43.61201" lon="6.31709">
        <ele>725</ele>
        <time>2025-07-09T07:21:22.000Z</time>
      </trkpt>
      <trkpt lat="43.61196" lon="6.31714">
        <ele>725</ele>
        <time>2025-07-09T07:21:27.165Z</time>
      </trkpt>
      <trkpt lat="43.61191" lon="6.31718">
        <ele>724.9</ele>
        <time>2025-07-09T07:21:32.000Z</time>
      </trkpt>
      <trkpt lat="43.61187" lon="6.31725">
        <ele>724.8</ele>
        <time>2025-07-09T07:21:37.222Z</time>
      </trkpt>
      <trkpt lat="43.61183" lon="6.31731">
        <ele>724.8</ele>
        <time>2025-07-09T07:21:42.000Z</time>
      </trkpt>
      <trkpt lat="43.6118" lon="6.31738">
        <ele>724.8</ele>
        <time>2025-07-09T07:21:47.393Z</time>
      </trkpt>
      <trkpt lat="43.61178" lon="6.31744">
        <ele>724.7</ele>
        <time>2025-07-09T07:21:51.772Z</time>
      </trkpt>
      <trkpt lat="43.61175" lon="6.31751">
        <ele>724.6</ele>
        <time>2025-07-09T07:21:57.165Z</time>
      </trkpt>
      <trkpt lat="43.61172" lon="6.31757">
        <ele>724.4</ele>
        <time>2025-07-09T07:22:02.000Z</time>
      </trkpt>
      <trkpt lat="43.61168" lon="6.31764">
        <ele>724.1</ele>
        <time>2025-07-09T07:22:07.222Z</time>
      </trkpt>
      <trkpt lat="43.61164" lon="6.3177">
        <ele>723.9</ele>
        <time>2025-07-09T07:22:11.999Z</time>
      </trkpt>
      <trkpt lat="43.6116" lon="6.31777">
        <ele>723.8</ele>
        <time>2025-07-09T07:22:17.222Z</time>
      </trkpt>
      <trkpt lat="43.61156" lon="6.31783">
        <ele>723.8</ele>
        <time>2025-07-09T07:22:22.000Z</time>
      </trkpt>
      <trkpt lat="43.61151" lon="6.31789">
        <ele>723.8</ele>
        <time>2025-07-09T07:22:26.720Z</time>
      </trkpt>
      <trkpt lat="43.61145" lon="6.31795">
        <ele>723.8</ele>
        <time>2025-07-09T07:22:32.000Z</time>
      </trkpt>
      <trkpt lat="43.61139" lon="6.318">
        <ele>723.8</ele>
        <time>2025-07-09T07:22:41.999Z</time>
      </trkpt>
      <trkpt lat="43.61133" lon="6.31805">
        <ele>724</ele>
        <time>2025-07-09T07:22:52.000Z</time>
      </trkpt>
      <trkpt lat="43.61127" lon="6.31808">
        <ele>724.1</ele>
        <time>2025-07-09T07:22:57.083Z</time>
      </trkpt>
      <trkpt lat="43.61121" lon="6.3181">
        <ele>724.1</ele>
        <time>2025-07-09T07:23:02.000Z</time>
      </trkpt>
      <trkpt lat="43.61116" lon="6.31813">
        <ele>724</ele>
        <time>2025-07-09T07:23:06.607Z</time>
      </trkpt>
      <trkpt lat="43.6111" lon="6.31816">
        <ele>724</ele>
        <time>2025-07-09T07:23:12.000Z</time>
      </trkpt>
      <trkpt lat="43.61104" lon="6.31819">
        <ele>724</ele>
        <time>2025-07-09T07:23:17.286Z</time>
      </trkpt>
      <trkpt lat="43.61099" lon="6.31821">
        <ele>724</ele>
        <time>2025-07-09T07:23:21.598Z</time>
      </trkpt>
      <trkpt lat="43.61093" lon="6.31824">
        <ele>724</ele>
        <time>2025-07-09T07:23:26.885Z</time>
      </trkpt>
      <trkpt lat="43.61087" lon="6.31826">
        <ele>724</ele>
        <time>2025-07-09T07:23:32.000Z</time>
      </trkpt>
      <trkpt lat="43.61082" lon="6.31829">
        <ele>724</ele>
        <time>2025-07-09T07:23:36.999Z</time>
      </trkpt>
      <trkpt lat="43.61077" lon="6.31832">
        <ele>724</ele>
        <time>2025-07-09T07:23:42.000Z</time>
      </trkpt>
      <trkpt lat="43.61073" lon="6.31837">
        <ele>724.1</ele>
        <time>2025-07-09T07:23:46.663Z</time>
      </trkpt>
      <trkpt lat="43.61068" lon="6.31842">
        <ele>724.3</ele>
        <time>2025-07-09T07:23:52.000Z</time>
      </trkpt>
      <trkpt lat="43.61064" lon="6.31848">
        <ele>724.5</ele>
        <time>2025-07-09T07:23:56.999Z</time>
      </trkpt>
      <trkpt lat="43.6106" lon="6.31854">
        <ele>724.7</ele>
        <time>2025-07-09T07:24:02.000Z</time>
      </trkpt>
      <trkpt lat="43.61057" lon="6.31861">
        <ele>725</ele>
        <time>2025-07-09T07:24:06.995Z</time>
      </trkpt>
      <trkpt lat="43.61053" lon="6.31867">
        <ele>725</ele>
        <time>2025-07-09T07:24:12.003Z</time>
      </trkpt>
      <trkpt lat="43.6105" lon="6.31874">
        <ele>725</ele>
        <time>2025-07-09T07:24:16.998Z</time>
      </trkpt>
      <trkpt lat="43.61047" lon="6.31881">
        <ele>725</ele>
        <time>2025-07-09T07:24:21.993Z</time>
      </trkpt>
      <trkpt lat="43.61043" lon="6.31887">
        <ele>725</ele>
        <time>2025-07-09T07:24:27.001Z</time>
      </trkpt>
      <trkpt lat="43.6104" lon="6.31894">
        <ele>725.2</ele>
        <time>2025-07-09T07:24:31.996Z</time>
      </trkpt>
      <trkpt lat="43.61036" lon="6.319">
        <ele>725.4</ele>
        <time>2025-07-09T07:24:37.004Z</time>
      </trkpt>
      <trkpt lat="43.61033" lon="6.31907">
        <ele>725.7</ele>
        <time>2025-07-09T07:24:42.000Z</time>
      </trkpt>
      <trkpt lat="43.61031" lon="6.31916">
        <ele>726</ele>
        <time>2025-07-09T07:24:47.265Z</time>
      </trkpt>
      <trkpt lat="43.61029" lon="6.31924">
        <ele>726</ele>
        <time>2025-07-09T07:24:52.000Z</time>
      </trkpt>
      <trkpt lat="43.61026" lon="6.31931">
        <ele>726</ele>
        <time>2025-07-09T07:24:57.273Z</time>
      </trkpt>
      <trkpt lat="43.61023" lon="6.31937">
        <ele>726</ele>
        <time>2025-07-09T07:25:02.000Z</time>
      </trkpt>
      <trkpt lat="43.61021" lon="6.31945">
        <ele>726</ele>
        <time>2025-07-09T07:25:07.049Z</time>
      </trkpt>
      <trkpt lat="43.61019" lon="6.31953">
        <ele>726.2</ele>
        <time>2025-07-09T07:25:12.098Z</time>
      </trkpt>
      <trkpt lat="43.61016" lon="6.3196">
        <ele>726.3</ele>
        <time>2025-07-09T07:25:16.950Z</time>
      </trkpt>
      <trkpt lat="43.61014" lon="6.31968">
        <ele>726.4</ele>
        <time>2025-07-09T07:25:22.000Z</time>
      </trkpt>
      <trkpt lat="43.61011" lon="6.31973">
        <ele>726.4</ele>
        <time>2025-07-09T07:25:38.764Z</time>
      </trkpt>
      <trkpt lat="43.61007" lon="6.31978">
        <ele>726.6</ele>
        <time>2025-07-09T07:25:58.000Z</time>
      </trkpt>
      <trkpt lat="43.61003" lon="6.31983">
        <ele>726.8</ele>
        <time>2025-07-09T07:26:02.663Z</time>
      </trkpt>
      <trkpt lat="43.60998" lon="6.31988">
        <ele>727.1</ele>
        <time>2025-07-09T07:26:08.000Z</time>
      </trkpt>
      <trkpt lat="43.60992" lon="6.31992">
        <ele>727</ele>
        <time>2025-07-09T07:26:12.999Z</time>
      </trkpt>
      <trkpt lat="43.60986" lon="6.31996">
        <ele>726.8</ele>
        <time>2025-07-09T07:26:17.999Z</time>
      </trkpt>
      <trkpt lat="43.6098" lon="6.32">
        <ele>726.6</ele>
        <time>2025-07-09T07:26:22.999Z</time>
      </trkpt>
      <trkpt lat="43.60974" lon="6.32004">
        <ele>726.3</ele>
        <time>2025-07-09T07:26:28.000Z</time>
      </trkpt>
      <trkpt lat="43.60969" lon="6.32008">
        <ele>726.3</ele>
        <time>2025-07-09T07:26:32.815Z</time>
      </trkpt>
      <trkpt lat="43.60964" lon="6.32012">
        <ele>726.4</ele>
        <time>2025-07-09T07:26:37.631Z</time>
      </trkpt>
      <trkpt lat="43.60958" lon="6.32016">
        <ele>726.6</ele>
        <time>2025-07-09T07:26:43.183Z</time>
      </trkpt>
      <trkpt lat="43.60953" lon="6.3202">
        <ele>726.7</ele>
        <time>2025-07-09T07:26:48.000Z</time>
      </trkpt>
      <trkpt lat="43.60948" lon="6.32025">
        <ele>726.9</ele>
        <time>2025-07-09T07:26:52.999Z</time>
      </trkpt>
      <trkpt lat="43.60943" lon="6.3203">
        <ele>727.1</ele>
        <time>2025-07-09T07:26:58.000Z</time>
      </trkpt>
      <trkpt lat="43.60937" lon="6.32035">
        <ele>727.2</ele>
        <time>2025-07-09T07:27:03.126Z</time>
      </trkpt>
      <trkpt lat="43.60931" lon="6.32039">
        <ele>727.2</ele>
        <time>2025-07-09T07:27:08.000Z</time>
      </trkpt>
      <trkpt lat="43.60926" lon="6.32042">
        <ele>727.2</ele>
        <time>2025-07-09T07:27:12.689Z</time>
      </trkpt>
      <trkpt lat="43.6092" lon="6.32044">
        <ele>727.1</ele>
        <time>2025-07-09T07:27:18.000Z</time>
      </trkpt>
      <trkpt lat="43.60914" lon="6.32046">
        <ele>727</ele>
        <time>2025-07-09T07:27:22.999Z</time>
      </trkpt>
      <trkpt lat="43.60908" lon="6.32048">
        <ele>727</ele>
        <time>2025-07-09T07:27:28.000Z</time>
      </trkpt>
      <trkpt lat="43.60902" lon="6.32052">
        <ele>727</ele>
        <time>2025-07-09T07:27:32.999Z</time>
      </trkpt>
      <trkpt lat="43.60896" lon="6.32056">
        <ele>727</ele>
        <time>2025-07-09T07:27:38.000Z</time>
      </trkpt>
      <trkpt lat="43.60889" lon="6.32058">
        <ele>727</ele>
        <time>2025-07-09T07:27:48.000Z</time>
      </trkpt>
      <trkpt lat="43.60888" lon="6.32061">
        <ele>727</ele>
        <time>2025-07-09T07:28:15.000Z</time>
      </trkpt>
      <trkpt lat="43.60883" lon="6.32069">
        <ele>727</ele>
        <time>2025-07-09T07:28:25.360Z</time>
      </trkpt>
      <trkpt lat="43.60878" lon="6.32076">
        <ele>727</ele>
        <time>2025-07-09T07:28:35.000Z</time>
      </trkpt>
      <trkpt lat="43.60876" lon="6.32083">
        <ele>727</ele>
        <time>2025-07-09T07:28:43.499Z</time>
      </trkpt>
      <trkpt lat="43.60874" lon="6.3209">
        <ele>727.1</ele>
        <time>2025-07-09T07:28:51.999Z</time>
      </trkpt>
      <trkpt lat="43.60872" lon="6.32097">
        <ele>727.2</ele>
        <time>2025-07-09T07:29:00.499Z</time>
      </trkpt>
      <trkpt lat="43.6087" lon="6.32104">
        <ele>727.2</ele>
        <time>2025-07-09T07:29:09.000Z</time>
      </trkpt>
      <trkpt lat="43.60867" lon="6.3211">
        <ele>727.2</ele>
        <time>2025-07-09T07:29:15.429Z</time>
      </trkpt>
      <trkpt lat="43.60863" lon="6.32115">
        <ele>727.1</ele>
        <time>2025-07-09T07:29:21.999Z</time>
      </trkpt>
      <trkpt lat="43.6086" lon="6.32121">
        <ele>727</ele>
        <time>2025-07-09T07:29:28.429Z</time>
      </trkpt>
      <trkpt lat="43.60856" lon="6.32126">
        <ele>726.8</ele>
        <time>2025-07-09T07:29:35.000Z</time>
      </trkpt>
      <trkpt lat="43.60853" lon="6.32133">
        <ele>726.7</ele>
        <time>2025-07-09T07:29:40.273Z</time>
      </trkpt>
      <trkpt lat="43.6085" lon="6.32139">
        <ele>726.6</ele>
        <time>2025-07-09T07:29:45.000Z</time>
      </trkpt>
      <trkpt lat="43.60848" lon="6.32147">
        <ele>726.8</ele>
        <time>2025-07-09T07:29:49.843Z</time>
      </trkpt>
      <trkpt lat="43.60845" lon="6.32155">
        <ele>726.9</ele>
        <time>2025-07-09T07:29:55.000Z</time>
      </trkpt>
      <trkpt lat="43.60843" lon="6.32162">
        <ele>726.9</ele>
        <time>2025-07-09T07:30:00.078Z</time>
      </trkpt>
      <trkpt lat="43.6084" lon="6.32168">
        <ele>726.8</ele>
        <time>2025-07-09T07:30:05.000Z</time>
      </trkpt>
      <trkpt lat="43.60836" lon="6.32175">
        <ele>726.6</ele>
        <time>2025-07-09T07:30:09.967Z</time>
      </trkpt>
      <trkpt lat="43.60832" lon="6.32182">
        <ele>726.5</ele>
        <time>2025-07-09T07:30:14.935Z</time>
      </trkpt>
      <trkpt lat="43.60827" lon="6.32188">
        <ele>726.5</ele>
        <time>2025-07-09T07:30:20.031Z</time>
      </trkpt>
      <trkpt lat="43.60823" lon="6.32195">
        <ele>726.6</ele>
        <time>2025-07-09T07:30:25.000Z</time>
      </trkpt>
      <trkpt lat="43.6082" lon="6.32203">
        <ele>726.8</ele>
        <time>2025-07-09T07:30:30.025Z</time>
      </trkpt>
      <trkpt lat="43.60816" lon="6.3221">
        <ele>726.9</ele>
        <time>2025-07-09T07:30:35.000Z</time>
      </trkpt>
      <trkpt lat="43.60812" lon="6.32216">
        <ele>727</ele>
        <time>2025-07-09T07:30:39.713Z</time>
      </trkpt>
      <trkpt lat="43.60807" lon="6.32222">
        <ele>727</ele>
        <time>2025-07-09T07:30:45.000Z</time>
      </trkpt>
      <trkpt lat="43.60802" lon="6.32228">
        <ele>727.1</ele>
        <time>2025-07-09T07:30:50.176Z</time>
      </trkpt>
      <trkpt lat="43.60797" lon="6.32233">
        <ele>727.1</ele>
        <time>2025-07-09T07:30:55.000Z</time>
      </trkpt>
      <trkpt lat="43.60792" lon="6.32238">
        <ele>727.1</ele>
        <time>2025-07-09T07:30:59.683Z</time>
      </trkpt>
      <trkpt lat="43.60786" lon="6.32243">
        <ele>727</ele>
        <time>2025-07-09T07:31:05.000Z</time>
      </trkpt>
      <trkpt lat="43.6078" lon="6.32247">
        <ele>727</ele>
        <time>2025-07-09T07:31:09.999Z</time>
      </trkpt>
      <trkpt lat="43.60774" lon="6.32251">
        <ele>726.8</ele>
        <time>2025-07-09T07:31:15.000Z</time>
      </trkpt>
      <trkpt lat="43.60768" lon="6.32254">
        <ele>726.5</ele>
        <time>2025-07-09T07:31:20.083Z</time>
      </trkpt>
      <trkpt lat="43.60762" lon="6.32256">
        <ele>726.2</ele>
        <time>2025-07-09T07:31:25.000Z</time>
      </trkpt>
      <trkpt lat="43.60757" lon="6.3226">
        <ele>726.1</ele>
        <time>2025-07-09T07:31:30.084Z</time>
      </trkpt>
      <trkpt lat="43.60753" lon="6.32265">
        <ele>726.2</ele>
        <time>2025-07-09T07:31:34.831Z</time>
      </trkpt>
      <trkpt lat="43.60748" lon="6.32269">
        <ele>726.2</ele>
        <time>2025-07-09T07:31:39.915Z</time>
      </trkpt>
      <trkpt lat="43.60743" lon="6.32273">
        <ele>726.2</ele>
        <time>2025-07-09T07:31:45.000Z</time>
      </trkpt>
      <trkpt lat="43.60739" lon="6.32279">
        <ele>726.2</ele>
        <time>2025-07-09T07:31:50.225Z</time>
      </trkpt>
      <trkpt lat="43.60735" lon="6.32284">
        <ele>726</ele>
        <time>2025-07-09T07:31:55.000Z</time>
      </trkpt>
      <trkpt lat="43.60731" lon="6.32288">
        <ele>725.9</ele>
        <time>2025-07-09T07:32:01.221Z</time>
      </trkpt>
      <trkpt lat="43.60726" lon="6.32292">
        <ele>725.7</ele>
        <time>2025-07-09T07:32:08.499Z</time>
      </trkpt>
      <trkpt lat="43.60722" lon="6.32296">
        <ele>725.6</ele>
        <time>2025-07-09T07:32:14.720Z</time>
      </trkpt>
      <trkpt lat="43.60717" lon="6.323">
        <ele>725.5</ele>
        <time>2025-07-09T07:32:21.999Z</time>
      </trkpt>
      <trkpt lat="43.60713" lon="6.32304">
        <ele>725.3</ele>
        <time>2025-07-09T07:32:28.220Z</time>
      </trkpt>
      <trkpt lat="43.60708" lon="6.32308">
        <ele>724.9</ele>
        <time>2025-07-09T07:32:35.499Z</time>
      </trkpt>
      <trkpt lat="43.60704" lon="6.32312">
        <ele>724.6</ele>
        <time>2025-07-09T07:32:41.720Z</time>
      </trkpt>
      <trkpt lat="43.60699" lon="6.32316">
        <ele>724.3</ele>
        <time>2025-07-09T07:32:49.000Z</time>
      </trkpt>
      <trkpt lat="43.60694" lon="6.32321">
        <ele>724</ele>
        <time>2025-07-09T07:32:54.353Z</time>
      </trkpt>
      <trkpt lat="43.6069" lon="6.32325">
        <ele>723.8</ele>
        <time>2025-07-09T07:32:58.635Z</time>
      </trkpt>
      <trkpt lat="43.60685" lon="6.3233">
        <ele>723.7</ele>
        <time>2025-07-09T07:33:03.988Z</time>
      </trkpt>
      <trkpt lat="43.6068" lon="6.32334">
        <ele>723.5</ele>
        <time>2025-07-09T07:33:09.000Z</time>
      </trkpt>
      <trkpt lat="43.60675" lon="6.32339">
        <ele>723.5</ele>
        <time>2025-07-09T07:33:13.809Z</time>
      </trkpt>
      <trkpt lat="43.60669" lon="6.32343">
        <ele>723.4</ele>
        <time>2025-07-09T07:33:18.999Z</time>
      </trkpt>
      <trkpt lat="43.60664" lon="6.32348">
        <ele>723.4</ele>
        <time>2025-07-09T07:33:23.808Z</time>
      </trkpt>
      <trkpt lat="43.60658" lon="6.32352">
        <ele>723.2</ele>
        <time>2025-07-09T07:33:29.000Z</time>
      </trkpt>
      <trkpt lat="43.60652" lon="6.32355">
        <ele>722.8</ele>
        <time>2025-07-09T07:33:34.083Z</time>
      </trkpt>
      <trkpt lat="43.60646" lon="6.32357">
        <ele>722.5</ele>
        <time>2025-07-09T07:33:39.000Z</time>
      </trkpt>
      <trkpt lat="43.6064" lon="6.3236">
        <ele>722.1</ele>
        <time>2025-07-09T07:33:43.999Z</time>
      </trkpt>
      <trkpt lat="43.60634" lon="6.32363">
        <ele>721.9</ele>
        <time>2025-07-09T07:33:49.000Z</time>
      </trkpt>
      <trkpt lat="43.60628" lon="6.32365">
        <ele>721.7</ele>
        <time>2025-07-09T07:33:53.999Z</time>
      </trkpt>
      <trkpt lat="43.60622" lon="6.32367">
        <ele>721.5</ele>
        <time>2025-07-09T07:33:59.000Z</time>
      </trkpt>
      <trkpt lat="43.60617" lon="6.3237">
        <ele>721.3</ele>
        <time>2025-07-09T07:34:03.689Z</time>
      </trkpt>
      <trkpt lat="43.60611" lon="6.32372">
        <ele>721</ele>
        <time>2025-07-09T07:34:09.000Z</time>
      </trkpt>
      <trkpt lat="43.60607" lon="6.32377">
        <ele>720.8</ele>
        <time>2025-07-09T07:34:13.828Z</time>
      </trkpt>
      <trkpt lat="43.60602" lon="6.32381">
        <ele>720.4</ele>
        <time>2025-07-09T07:34:19.000Z</time>
      </trkpt>
      <trkpt lat="43.60598" lon="6.32387">
        <ele>720.1</ele>
        <time>2025-07-09T07:34:24.064Z</time>
      </trkpt>
      <trkpt lat="43.60594" lon="6.32392">
        <ele>719.8</ele>
        <time>2025-07-09T07:34:28.691Z</time>
      </trkpt>
      <trkpt lat="43.60589" lon="6.32398">
        <ele>719.4</ele>
        <time>2025-07-09T07:34:34.372Z</time>
      </trkpt>
      <trkpt lat="43.60585" lon="6.32403">
        <ele>719.1</ele>
        <time>2025-07-09T07:34:39.000Z</time>
      </trkpt>
      <trkpt lat="43.60581" lon="6.32409">
        <ele>718.9</ele>
        <time>2025-07-09T07:34:43.744Z</time>
      </trkpt>
      <trkpt lat="43.60577" lon="6.32416">
        <ele>718.8</ele>
        <time>2025-07-09T07:34:48.932Z</time>
      </trkpt>
      <trkpt lat="43.60572" lon="6.32422">
        <ele>718.5</ele>
        <time>2025-07-09T07:34:54.254Z</time>
      </trkpt>
      <trkpt lat="43.60568" lon="6.32428">
        <ele>718.3</ele>
        <time>2025-07-09T07:34:59.000Z</time>
      </trkpt>
      <trkpt lat="43.60564" lon="6.32433">
        <ele>718.1</ele>
        <time>2025-07-09T07:35:04.220Z</time>
      </trkpt>
      <trkpt lat="43.6056" lon="6.32437">
        <ele>718</ele>
        <time>2025-07-09T07:35:09.000Z</time>
      </trkpt>
      <trkpt lat="43.60555" lon="6.32442">
        <ele>718</ele>
        <time>2025-07-09T07:35:14.165Z</time>
      </trkpt>
      <trkpt lat="43.6055" lon="6.32446">
        <ele>717.7</ele>
        <time>2025-07-09T07:35:19.000Z</time>
      </trkpt>
      <trkpt lat="43.60544" lon="6.32448">
        <ele>717.5</ele>
        <time>2025-07-09T07:35:23.999Z</time>
      </trkpt>
      <trkpt lat="43.60538" lon="6.3245">
        <ele>717.2</ele>
        <time>2025-07-09T07:35:29.000Z</time>
      </trkpt>
      <trkpt lat="43.60533" lon="6.32448">
        <ele>717.1</ele>
        <time>2025-07-09T07:35:33.575Z</time>
      </trkpt>
      <trkpt lat="43.60527" lon="6.32446">
        <ele>716.9</ele>
        <time>2025-07-09T07:35:39.000Z</time>
      </trkpt>
      <trkpt lat="43.60525" lon="6.3244">
        <ele>716.9</ele>
        <time>2025-07-09T07:35:43.999Z</time>
      </trkpt>
      <trkpt lat="43.60523" lon="6.32434">
        <ele>716.7</ele>
        <time>2025-07-09T07:35:49.000Z</time>
      </trkpt>
      <trkpt lat="43.60523" lon="6.32426">
        <ele>716.5</ele>
        <time>2025-07-09T07:36:13.872Z</time>
      </trkpt>
      <trkpt lat="43.60523" lon="6.32417">
        <ele>716.2</ele>
        <time>2025-07-09T07:36:41.853Z</time>
      </trkpt>
      <trkpt lat="43.60522" lon="6.32409">
        <ele>716.4</ele>
        <time>2025-07-09T07:37:07.093Z</time>
      </trkpt>
      <trkpt lat="43.60522" lon="6.32401">
        <ele>716.7</ele>
        <time>2025-07-09T07:37:31.965Z</time>
      </trkpt>
      <trkpt lat="43.60522" lon="6.32392">
        <ele>716.9</ele>
        <time>2025-07-09T07:37:59.946Z</time>
      </trkpt>
      <trkpt lat="43.60522" lon="6.32384">
        <ele>717</ele>
        <time>2025-07-09T07:38:24.818Z</time>
      </trkpt>
      <trkpt lat="43.60521" lon="6.32375">
        <ele>717</ele>
        <time>2025-07-09T07:38:53.127Z</time>
      </trkpt>
      <trkpt lat="43.60521" lon="6.32367">
        <ele>717</ele>
        <time>2025-07-09T07:39:18.000Z</time>
      </trkpt>
      <trkpt lat="43.60517" lon="6.32356">
        <ele>717</ele>
        <time>2025-07-09T07:39:28.000Z</time>
      </trkpt>
      <trkpt lat="43.60515" lon="6.32347">
        <ele>717</ele>
        <time>2025-07-09T07:39:32.872Z</time>
      </trkpt>
      <trkpt lat="43.60512" lon="6.32338">
        <ele>717</ele>
        <time>2025-07-09T07:39:38.000Z</time>
      </trkpt>
      <trkpt lat="43.60511" lon="6.32331">
        <ele>716.9</ele>
        <time>2025-07-09T07:39:42.677Z</time>
      </trkpt>
      <trkpt lat="43.6051" lon="6.32323">
        <ele>716.6</ele>
        <time>2025-07-09T07:39:48.000Z</time>
      </trkpt>
      <trkpt lat="43.6051" lon="6.32315">
        <ele>716.3</ele>
        <time>2025-07-09T07:39:52.963Z</time>
      </trkpt>
      <trkpt lat="43.60509" lon="6.32307">
        <ele>716.1</ele>
        <time>2025-07-09T07:39:58.000Z</time>
      </trkpt>
      <trkpt lat="43.6051" lon="6.32299">
        <ele>715.8</ele>
        <time>2025-07-09T07:40:02.742Z</time>
      </trkpt>
      <trkpt lat="43.6051" lon="6.3229">
        <ele>715.6</ele>
        <time>2025-07-09T07:40:08.000Z</time>
      </trkpt>
      <trkpt lat="43.6051" lon="6.3228">
        <ele>715.4</ele>
        <time>2025-07-09T07:40:13.000Z</time>
      </trkpt>
      <trkpt lat="43.6051" lon="6.3227">
        <ele>715.4</ele>
        <time>2025-07-09T07:40:18.000Z</time>
      </trkpt>
      <trkpt lat="43.6051" lon="6.32262">
        <ele>715.4</ele>
        <time>2025-07-09T07:40:22.676Z</time>
      </trkpt>
      <trkpt lat="43.60509" lon="6.32253">
        <ele>715.3</ele>
        <time>2025-07-09T07:40:28.000Z</time>
      </trkpt>
      <trkpt lat="43.60506" lon="6.32248">
        <ele>715.2</ele>
        <time>2025-07-09T07:40:32.710Z</time>
      </trkpt>
      <trkpt lat="43.60503" lon="6.32242">
        <ele>714.9</ele>
        <time>2025-07-09T07:40:38.000Z</time>
      </trkpt>
      <trkpt lat="43.60501" lon="6.32235">
        <ele>714.5</ele>
        <time>2025-07-09T07:40:42.805Z</time>
      </trkpt>
      <trkpt lat="43.60498" lon="6.32228">
        <ele>714.2</ele>
        <time>2025-07-09T07:40:47.999Z</time>
      </trkpt>
      <trkpt lat="43.60496" lon="6.32221">
        <ele>714</ele>
        <time>2025-07-09T07:40:52.805Z</time>
      </trkpt>
      <trkpt lat="43.60493" lon="6.32214">
        <ele>713.7</ele>
        <time>2025-07-09T07:40:58.000Z</time>
      </trkpt>
      <trkpt lat="43.60493" lon="6.32206">
        <ele>713.4</ele>
        <time>2025-07-09T07:41:03.000Z</time>
      </trkpt>
      <trkpt lat="43.60493" lon="6.32198">
        <ele>713.1</ele>
        <time>2025-07-09T07:41:08.000Z</time>
      </trkpt>
      <trkpt lat="43.60495" lon="6.3219">
        <ele>713</ele>
        <time>2025-07-09T07:41:13.260Z</time>
      </trkpt>
      <trkpt lat="43.60496" lon="6.32183">
        <ele>713</ele>
        <time>2025-07-09T07:41:17.694Z</time>
      </trkpt>
      <trkpt lat="43.60498" lon="6.32175">
        <ele>713</ele>
        <time>2025-07-09T07:41:22.954Z</time>
      </trkpt>
      <trkpt lat="43.60499" lon="6.32167">
        <ele>713</ele>
        <time>2025-07-09T07:41:28.000Z</time>
      </trkpt>
      <trkpt lat="43.605" lon="6.3216">
        <ele>712.8</ele>
        <time>2025-07-09T07:41:33.047Z</time>
      </trkpt>
      <trkpt lat="43.605" lon="6.32153">
        <ele>712.5</ele>
        <time>2025-07-09T07:41:38.000Z</time>
      </trkpt>
      <trkpt lat="43.605" lon="6.32144">
        <ele>712.2</ele>
        <time>2025-07-09T07:41:43.000Z</time>
      </trkpt>
      <trkpt lat="43.605" lon="6.32135">
        <ele>712</ele>
        <time>2025-07-09T07:41:48.000Z</time>
      </trkpt>
      <trkpt lat="43.605" lon="6.32126">
        <ele>712</ele>
        <time>2025-07-09T07:41:53.000Z</time>
      </trkpt>
      <trkpt lat="43.605" lon="6.32117">
        <ele>712</ele>
        <time>2025-07-09T07:41:58.000Z</time>
      </trkpt>
      <trkpt lat="43.60502" lon="6.32105">
        <ele>711.8</ele>
        <time>2025-07-09T07:42:08.000Z</time>
      </trkpt>
      <trkpt lat="43.60505" lon="6.32097">
        <ele>711.5</ele>
        <time>2025-07-09T07:42:12.890Z</time>
      </trkpt>
      <trkpt lat="43.60507" lon="6.32088">
        <ele>711.2</ele>
        <time>2025-07-09T07:42:18.000Z</time>
      </trkpt>
      <trkpt lat="43.60511" lon="6.32082">
        <ele>711</ele>
        <time>2025-07-09T07:42:23.279Z</time>
      </trkpt>
      <trkpt lat="43.60514" lon="6.32076">
        <ele>711.1</ele>
        <time>2025-07-09T07:42:27.999Z</time>
      </trkpt>
      <trkpt lat="43.60518" lon="6.3207">
        <ele>711.2</ele>
        <time>2025-07-09T07:42:33.279Z</time>
      </trkpt>
      <trkpt lat="43.60521" lon="6.32064">
        <ele>711.2</ele>
        <time>2025-07-09T07:42:38.000Z</time>
      </trkpt>
      <trkpt lat="43.60523" lon="6.32056">
        <ele>711.2</ele>
        <time>2025-07-09T07:42:43.000Z</time>
      </trkpt>
      <trkpt lat="43.60525" lon="6.32048">
        <ele>710.8</ele>
        <time>2025-07-09T07:42:48.000Z</time>
      </trkpt>
      <trkpt lat="43.60526" lon="6.3204">
        <ele>710.5</ele>
        <time>2025-07-09T07:42:53.000Z</time>
      </trkpt>
      <trkpt lat="43.60527" lon="6.32032">
        <ele>710.2</ele>
        <time>2025-07-09T07:42:58.000Z</time>
      </trkpt>
      <trkpt lat="43.60528" lon="6.32024">
        <ele>710</ele>
        <time>2025-07-09T07:43:03.000Z</time>
      </trkpt>
      <trkpt lat="43.60529" lon="6.32016">
        <ele>710.1</ele>
        <time>2025-07-09T07:43:08.000Z</time>
      </trkpt>
      <trkpt lat="43.60533" lon="6.32009">
        <ele>710.6</ele>
        <time>2025-07-09T07:43:12.974Z</time>
      </trkpt>
      <trkpt lat="43.60536" lon="6.32001">
        <ele>710.9</ele>
        <time>2025-07-09T07:43:18.000Z</time>
      </trkpt>
      <trkpt lat="43.60537" lon="6.31992">
        <ele>711.2</ele>
        <time>2025-07-09T07:43:23.000Z</time>
      </trkpt>
      <trkpt lat="43.60538" lon="6.31983">
        <ele>711.5</ele>
        <time>2025-07-09T07:43:28.000Z</time>
      </trkpt>
      <trkpt lat="43.60535" lon="6.31974">
        <ele>711.5</ele>
        <time>2025-07-09T07:43:37.999Z</time>
      </trkpt>
      <trkpt lat="43.60532" lon="6.31965">
        <ele>711.5</ele>
        <time>2025-07-09T07:43:48.000Z</time>
      </trkpt>
      <trkpt lat="43.60524" lon="6.31961">
        <ele>711.3</ele>
        <time>2025-07-09T07:43:58.000Z</time>
      </trkpt>
      <trkpt lat="43.60519" lon="6.3196">
        <ele>711.1</ele>
        <time>2025-07-09T07:44:02.925Z</time>
      </trkpt>
      <trkpt lat="43.60514" lon="6.31958">
        <ele>711</ele>
        <time>2025-07-09T07:44:08.000Z</time>
      </trkpt>
      <trkpt lat="43.60509" lon="6.31954">
        <ele>711</ele>
        <time>2025-07-09T07:44:12.999Z</time>
      </trkpt>
      <trkpt lat="43.60504" lon="6.3195">
        <ele>710.9</ele>
        <time>2025-07-09T07:44:17.999Z</time>
      </trkpt>
      <trkpt lat="43.60499" lon="6.31946">
        <ele>710.9</ele>
        <time>2025-07-09T07:44:22.999Z</time>
      </trkpt>
      <trkpt lat="43.60494" lon="6.31942">
        <ele>710.6</ele>
        <time>2025-07-09T07:44:28.000Z</time>
      </trkpt>
      <trkpt lat="43.60489" lon="6.31934">
        <ele>710.4</ele>
        <time>2025-07-09T07:44:38.000Z</time>
      </trkpt>
      <trkpt lat="43.60489" lon="6.31927">
        <ele>710.6</ele>
        <time>2025-07-09T07:44:42.666Z</time>
      </trkpt>
      <trkpt lat="43.60489" lon="6.31919">
        <ele>710.8</ele>
        <time>2025-07-09T07:44:48.000Z</time>
      </trkpt>
      <trkpt lat="43.60491" lon="6.31913">
        <ele>710.9</ele>
        <time>2025-07-09T07:44:52.575Z</time>
      </trkpt>
      <trkpt lat="43.60494" lon="6.31906">
        <ele>711</ele>
        <time>2025-07-09T07:44:58.210Z</time>
      </trkpt>
      <trkpt lat="43.60496" lon="6.319">
        <ele>711</ele>
        <time>2025-07-09T07:45:02.786Z</time>
      </trkpt>
      <trkpt lat="43.60498" lon="6.31893">
        <ele>710.9</ele>
        <time>2025-07-09T07:45:08.000Z</time>
      </trkpt>
      <trkpt lat="43.60497" lon="6.31886">
        <ele>710.6</ele>
        <time>2025-07-09T07:45:35.000Z</time>
      </trkpt>
      <trkpt lat="43.605" lon="6.31881">
        <ele>710.7</ele>
        <time>2025-07-09T07:45:37.572Z</time>
      </trkpt>
      <trkpt lat="43.60503" lon="6.31876">
        <ele>710.9</ele>
        <time>2025-07-09T07:45:40.145Z</time>
      </trkpt>
      <trkpt lat="43.60506" lon="6.31872">
        <ele>711.2</ele>
        <time>2025-07-09T07:45:42.426Z</time>
      </trkpt>
      <trkpt lat="43.60509" lon="6.31867">
        <ele>711.4</ele>
        <time>2025-07-09T07:45:45.000Z</time>
      </trkpt>
      <trkpt lat="43.60502" lon="6.31873">
        <ele>710.7</ele>
        <time>2025-07-09T07:45:49.880Z</time>
      </trkpt>
      <trkpt lat="43.60495" lon="6.3188">
        <ele>710.1</ele>
        <time>2025-07-09T07:45:55.000Z</time>
      </trkpt>
      <trkpt lat="43.60493" lon="6.31888">
        <ele>710.2</ele>
        <time>2025-07-09T07:45:59.843Z</time>
      </trkpt>
      <trkpt lat="43.6049" lon="6.31896">
        <ele>710.2</ele>
        <time>2025-07-09T07:46:05.000Z</time>
      </trkpt>
      <trkpt lat="43.60486" lon="6.31905">
        <ele>710.1</ele>
        <time>2025-07-09T07:46:33.999Z</time>
      </trkpt>
      <trkpt lat="43.60482" lon="6.31914">
        <ele>710</ele>
        <time>2025-07-09T07:47:03.000Z</time>
      </trkpt>
      <trkpt lat="43.60475" lon="6.3192">
        <ele>709.3</ele>
        <time>2025-07-09T07:47:08.110Z</time>
      </trkpt>
      <trkpt lat="43.60468" lon="6.31925">
        <ele>708.7</ele>
        <time>2025-07-09T07:47:13.000Z</time>
      </trkpt>
      <trkpt lat="43.60463" lon="6.31927">
        <ele>708.3</ele>
        <time>2025-07-09T07:47:18.074Z</time>
      </trkpt>
      <trkpt lat="43.60458" lon="6.31928">
        <ele>708</ele>
        <time>2025-07-09T07:47:23.000Z</time>
      </trkpt>
      <trkpt lat="43.60453" lon="6.31932">
        <ele>707.6</ele>
        <time>2025-07-09T07:47:27.752Z</time>
      </trkpt>
      <trkpt lat="43.60447" lon="6.31935">
        <ele>707.2</ele>
        <time>2025-07-09T07:47:33.000Z</time>
      </trkpt>
      <trkpt lat="43.60443" lon="6.31939">
        <ele>706.9</ele>
        <time>2025-07-09T07:47:37.753Z</time>
      </trkpt>
      <trkpt lat="43.60438" lon="6.31942">
        <ele>706.8</ele>
        <time>2025-07-09T07:47:43.000Z</time>
      </trkpt>
      <trkpt lat="43.60433" lon="6.31944">
        <ele>706.6</ele>
        <time>2025-07-09T07:47:47.999Z</time>
      </trkpt>
      <trkpt lat="43.60428" lon="6.31946">
        <ele>706.5</ele>
        <time>2025-07-09T07:47:53.000Z</time>
      </trkpt>
      <trkpt lat="43.60423" lon="6.31951">
        <ele>706.5</ele>
        <time>2025-07-09T07:47:57.999Z</time>
      </trkpt>
      <trkpt lat="43.60418" lon="6.31956">
        <ele>706.5</ele>
        <time>2025-07-09T07:48:03.000Z</time>
      </trkpt>
      <trkpt lat="43.60414" lon="6.31962">
        <ele>706.6</ele>
        <time>2025-07-09T07:48:07.999Z</time>
      </trkpt>
      <trkpt lat="43.6041" lon="6.31968">
        <ele>706.6</ele>
        <time>2025-07-09T07:48:13.000Z</time>
      </trkpt>
      <trkpt lat="43.60407" lon="6.31975">
        <ele>706.7</ele>
        <time>2025-07-09T07:48:17.999Z</time>
      </trkpt>
      <trkpt lat="43.60404" lon="6.31982">
        <ele>706.6</ele>
        <time>2025-07-09T07:48:23.000Z</time>
      </trkpt>
      <trkpt lat="43.60398" lon="6.31991">
        <ele>706.1</ele>
        <time>2025-07-09T07:48:33.000Z</time>
      </trkpt>
      <trkpt lat="43.60396" lon="6.31997">
        <ele>705.8</ele>
        <time>2025-07-09T07:48:37.999Z</time>
      </trkpt>
      <trkpt lat="43.60394" lon="6.32003">
        <ele>705.7</ele>
        <time>2025-07-09T07:48:43.000Z</time>
      </trkpt>
      <trkpt lat="43.60391" lon="6.3201">
        <ele>705.6</ele>
        <time>2025-07-09T07:48:48.273Z</time>
      </trkpt>
      <trkpt lat="43.60388" lon="6.32016">
        <ele>705.6</ele>
        <time>2025-07-09T07:48:53.000Z</time>
      </trkpt>
      <trkpt lat="43.60386" lon="6.32023">
        <ele>705.7</ele>
        <time>2025-07-09T07:48:57.999Z</time>
      </trkpt>
      <trkpt lat="43.60384" lon="6.3203">
        <ele>705.8</ele>
        <time>2025-07-09T07:49:03.000Z</time>
      </trkpt>
      <trkpt lat="43.60379" lon="6.32039">
        <ele>705.5</ele>
        <time>2025-07-09T07:49:13.000Z</time>
      </trkpt>
      <trkpt lat="43.60377" lon="6.32041">
        <ele>705.4</ele>
        <time>2025-07-09T07:49:30.000Z</time>
      </trkpt>
      <trkpt lat="43.60372" lon="6.32045">
        <ele>705</ele>
        <time>2025-07-09T07:49:34.752Z</time>
      </trkpt>
      <trkpt lat="43.60366" lon="6.32048">
        <ele>704.6</ele>
        <time>2025-07-09T07:49:40.000Z</time>
      </trkpt>
      <trkpt lat="43.60362" lon="6.32055">
        <ele>704.1</ele>
        <time>2025-07-09T07:49:44.999Z</time>
      </trkpt>
      <trkpt lat="43.60358" lon="6.32062">
        <ele>704</ele>
        <time>2025-07-09T07:49:50.000Z</time>
      </trkpt>
      <trkpt lat="43.60356" lon="6.3207">
        <ele>704</ele>
        <time>2025-07-09T07:49:55.099Z</time>
      </trkpt>
      <trkpt lat="43.60353" lon="6.32077">
        <ele>704</ele>
        <time>2025-07-09T07:50:00.000Z</time>
      </trkpt>
      <trkpt lat="43.6035" lon="6.32084">
        <ele>704</ele>
        <time>2025-07-09T07:50:05.273Z</time>
      </trkpt>
      <trkpt lat="43.60347" lon="6.3209">
        <ele>704</ele>
        <time>2025-07-09T07:50:10.000Z</time>
      </trkpt>
      <trkpt lat="43.60345" lon="6.32096">
        <ele>704</ele>
        <time>2025-07-09T07:50:14.999Z</time>
      </trkpt>
      <trkpt lat="43.60343" lon="6.32102">
        <ele>704</ele>
        <time>2025-07-09T07:50:20.000Z</time>
      </trkpt>
      <trkpt lat="43.60339" lon="6.32111">
        <ele>704</ele>
        <time>2025-07-09T07:50:24.821Z</time>
      </trkpt>
      <trkpt lat="43.60334" lon="6.3212">
        <ele>704</ele>
        <time>2025-07-09T07:50:30.000Z</time>
      </trkpt>
      <trkpt lat="43.6033" lon="6.32125">
        <ele>704.1</ele>
        <time>2025-07-09T07:50:34.999Z</time>
      </trkpt>
      <trkpt lat="43.60326" lon="6.3213">
        <ele>704.1</ele>
        <time>2025-07-09T07:50:40.000Z</time>
      </trkpt>
      <trkpt lat="43.60321" lon="6.3214">
        <ele>704</ele>
        <time>2025-07-09T07:50:50.000Z</time>
      </trkpt>
      <trkpt lat="43.60317" lon="6.32147">
        <ele>704</ele>
        <time>2025-07-09T07:50:55.223Z</time>
      </trkpt>
      <trkpt lat="43.60313" lon="6.32153">
        <ele>704</ele>
        <time>2025-07-09T07:51:00.000Z</time>
      </trkpt>
      <trkpt lat="43.60308" lon="6.32158">
        <ele>704</ele>
        <time>2025-07-09T07:51:04.809Z</time>
      </trkpt>
      <trkpt lat="43.60302" lon="6.32162">
        <ele>704.1</ele>
        <time>2025-07-09T07:51:10.000Z</time>
      </trkpt>
      <trkpt lat="43.60297" lon="6.32169">
        <ele>704.4</ele>
        <time>2025-07-09T07:51:15.180Z</time>
      </trkpt>
      <trkpt lat="43.60292" lon="6.32175">
        <ele>704.6</ele>
        <time>2025-07-09T07:51:20.000Z</time>
      </trkpt>
      <trkpt lat="43.60289" lon="6.32184">
        <ele>704.8</ele>
        <time>2025-07-09T07:51:24.840Z</time>
      </trkpt>
      <trkpt lat="43.60285" lon="6.32193">
        <ele>705</ele>
        <time>2025-07-09T07:51:30.000Z</time>
      </trkpt>
      <trkpt lat="43.60283" lon="6.32201">
        <ele>705.2</ele>
        <time>2025-07-09T07:51:35.293Z</time>
      </trkpt>
      <trkpt lat="43.60281" lon="6.32208">
        <ele>705.4</ele>
        <time>2025-07-09T07:51:40.000Z</time>
      </trkpt>
      <trkpt lat="43.6028" lon="6.3222">
        <ele>705.8</ele>
        <time>2025-07-09T07:51:50.000Z</time>
      </trkpt>
      <trkpt lat="43.60274" lon="6.32226">
        <ele>706.3</ele>
        <time>2025-07-09T07:52:00.000Z</time>
      </trkpt>
      <trkpt lat="43.6027" lon="6.32223">
        <ele>706.6</ele>
        <time>2025-07-09T07:52:04.796Z</time>
      </trkpt>
      <trkpt lat="43.60266" lon="6.32219">
        <ele>706.8</ele>
        <time>2025-07-09T07:52:10.000Z</time>
      </trkpt>
      <trkpt lat="43.60265" lon="6.32207">
        <ele>706.6</ele>
        <time>2025-07-09T07:52:20.000Z</time>
      </trkpt>
      <trkpt lat="43.60265" lon="6.32201">
        <ele>706.5</ele>
        <time>2025-07-09T07:52:24.615Z</time>
      </trkpt>
      <trkpt lat="43.60265" lon="6.32194">
        <ele>706.4</ele>
        <time>2025-07-09T07:52:30.000Z</time>
      </trkpt>
      <trkpt lat="43.60265" lon="6.32188">
        <ele>706.3</ele>
        <time>2025-07-09T07:52:34.740Z</time>
      </trkpt>
      <trkpt lat="43.60264" lon="6.32182">
        <ele>706.3</ele>
        <time>2025-07-09T07:52:39.604Z</time>
      </trkpt>
      <trkpt lat="43.60264" lon="6.32175">
        <ele>706.1</ele>
        <time>2025-07-09T07:52:45.135Z</time>
      </trkpt>
      <trkpt lat="43.60263" lon="6.32169">
        <ele>706.1</ele>
        <time>2025-07-09T07:52:50.000Z</time>
      </trkpt>
      <trkpt lat="43.60261" lon="6.32162">
        <ele>706.2</ele>
        <time>2025-07-09T07:52:54.999Z</time>
      </trkpt>
      <trkpt lat="43.60259" lon="6.32155">
        <ele>706.4</ele>
        <time>2025-07-09T07:53:00.000Z</time>
      </trkpt>
      <trkpt lat="43.60258" lon="6.32147">
        <ele>706.4</ele>
        <time>2025-07-09T07:53:04.999Z</time>
      </trkpt>
      <trkpt lat="43.60257" lon="6.32139">
        <ele>706.5</ele>
        <time>2025-07-09T07:53:10.000Z</time>
      </trkpt>
      <trkpt lat="43.60255" lon="6.32133">
        <ele>706.5</ele>
        <time>2025-07-09T07:53:14.481Z</time>
      </trkpt>
      <trkpt lat="43.60252" lon="6.32126">
        <ele>706.4</ele>
        <time>2025-07-09T07:53:20.000Z</time>
      </trkpt>
      <trkpt lat="43.60251" lon="6.32116">
        <ele>706.1</ele>
        <time>2025-07-09T07:53:24.931Z</time>
      </trkpt>
      <trkpt lat="43.60249" lon="6.32106">
        <ele>706.1</ele>
        <time>2025-07-09T07:53:30.000Z</time>
      </trkpt>
      <trkpt lat="43.60247" lon="6.32097">
        <ele>706.3</ele>
        <time>2025-07-09T07:53:34.757Z</time>
      </trkpt>
      <trkpt lat="43.60245" lon="6.32087">
        <ele>706.3</ele>
        <time>2025-07-09T07:53:40.000Z</time>
      </trkpt>
      <trkpt lat="43.60245" lon="6.32077">
        <ele>706.1</ele>
        <time>2025-07-09T07:53:45.000Z</time>
      </trkpt>
      <trkpt lat="43.60245" lon="6.32067">
        <ele>706.1</ele>
        <time>2025-07-09T07:53:50.000Z</time>
      </trkpt>
      <trkpt lat="43.60245" lon="6.3206">
        <ele>706</ele>
        <time>2025-07-09T07:53:54.952Z</time>
      </trkpt>
      <trkpt lat="43.60244" lon="6.32053">
        <ele>706.1</ele>
        <time>2025-07-09T07:54:00.000Z</time>
      </trkpt>
      <trkpt lat="43.6024" lon="6.32046">
        <ele>706.3</ele>
        <time>2025-07-09T07:54:04.999Z</time>
      </trkpt>
      <trkpt lat="43.60236" lon="6.32039">
        <ele>706.6</ele>
        <time>2025-07-09T07:54:10.000Z</time>
      </trkpt>
      <trkpt lat="43.60236" lon="6.32031">
        <ele>706.9</ele>
        <time>2025-07-09T07:54:14.676Z</time>
      </trkpt>
      <trkpt lat="43.60235" lon="6.32022">
        <ele>707.1</ele>
        <time>2025-07-09T07:54:20.000Z</time>
      </trkpt>
      <trkpt lat="43.60234" lon="6.32016">
        <ele>707.2</ele>
        <time>2025-07-09T07:54:24.499Z</time>
      </trkpt>
      <trkpt lat="43.60232" lon="6.32009">
        <ele>707.2</ele>
        <time>2025-07-09T07:54:30.000Z</time>
      </trkpt>
      <trkpt lat="43.60232" lon="6.31999">
        <ele>707.3</ele>
        <time>2025-07-09T07:54:34.976Z</time>
      </trkpt>
      <trkpt lat="43.60231" lon="6.31989">
        <ele>707.2</ele>
        <time>2025-07-09T07:54:40.000Z</time>
      </trkpt>
      <trkpt lat="43.6023" lon="6.3198">
        <ele>707.1</ele>
        <time>2025-07-09T07:54:44.742Z</time>
      </trkpt>
      <trkpt lat="43.60229" lon="6.3197">
        <ele>707</ele>
        <time>2025-07-09T07:54:50.000Z</time>
      </trkpt>
      <trkpt lat="43.6023" lon="6.31961">
        <ele>706.9</ele>
        <time>2025-07-09T07:54:54.742Z</time>
      </trkpt>
      <trkpt lat="43.60231" lon="6.31951">
        <ele>706.8</ele>
        <time>2025-07-09T07:55:00.000Z</time>
      </trkpt>
      <trkpt lat="43.60233" lon="6.31943">
        <ele>706.6</ele>
        <time>2025-07-09T07:55:04.817Z</time>
      </trkpt>
      <trkpt lat="43.60234" lon="6.31934">
        <ele>706.6</ele>
        <time>2025-07-09T07:55:10.000Z</time>
      </trkpt>
      <trkpt lat="43.60237" lon="6.31927">
        <ele>706.5</ele>
        <time>2025-07-09T07:55:14.900Z</time>
      </trkpt>
      <trkpt lat="43.60239" lon="6.31919">
        <ele>706.4</ele>
        <time>2025-07-09T07:55:20.000Z</time>
      </trkpt>
      <trkpt lat="43.6024" lon="6.31912">
        <ele>706.4</ele>
        <time>2025-07-09T07:55:24.677Z</time>
      </trkpt>
      <trkpt lat="43.60241" lon="6.31904">
        <ele>706.3</ele>
        <time>2025-07-09T07:55:29.999Z</time>
      </trkpt>
      <trkpt lat="43.60242" lon="6.31897">
        <ele>706.3</ele>
        <time>2025-07-09T07:55:34.677Z</time>
      </trkpt>
      <trkpt lat="43.60243" lon="6.31889">
        <ele>706.3</ele>
        <time>2025-07-09T07:55:40.000Z</time>
      </trkpt>
      <trkpt lat="43.60243" lon="6.31881">
        <ele>706.5</ele>
        <time>2025-07-09T07:55:44.963Z</time>
      </trkpt>
      <trkpt lat="43.60242" lon="6.31873">
        <ele>706.7</ele>
        <time>2025-07-09T07:55:50.000Z</time>
      </trkpt>
      <trkpt lat="43.60243" lon="6.31866">
        <ele>706.9</ele>
        <time>2025-07-09T07:55:56.187Z</time>
      </trkpt>
      <trkpt lat="43.60244" lon="6.31859">
        <ele>707</ele>
        <time>2025-07-09T07:56:02.374Z</time>
      </trkpt>
      <trkpt lat="43.60244" lon="6.31851">
        <ele>707</ele>
        <time>2025-07-09T07:56:09.311Z</time>
      </trkpt>
      <trkpt lat="43.60245" lon="6.31844">
        <ele>707</ele>
        <time>2025-07-09T07:56:15.498Z</time>
      </trkpt>
      <trkpt lat="43.60246" lon="6.31837">
        <ele>707</ele>
        <time>2025-07-09T07:56:21.685Z</time>
      </trkpt>
      <trkpt lat="43.60247" lon="6.3183">
        <ele>707.1</ele>
        <time>2025-07-09T07:56:27.873Z</time>
      </trkpt>
      <trkpt lat="43.60247" lon="6.31822">
        <ele>707.4</ele>
        <time>2025-07-09T07:56:34.811Z</time>
      </trkpt>
      <trkpt lat="43.60248" lon="6.31815">
        <ele>707.7</ele>
        <time>2025-07-09T07:56:41.000Z</time>
      </trkpt>
      <trkpt lat="43.6025" lon="6.31808">
        <ele>707.9</ele>
        <time>2025-07-09T07:56:46.310Z</time>
      </trkpt>
      <trkpt lat="43.60251" lon="6.31802">
        <ele>708</ele>
        <time>2025-07-09T07:56:50.654Z</time>
      </trkpt>
      <trkpt lat="43.60253" lon="6.31795">
        <ele>708.1</ele>
        <time>2025-07-09T07:56:55.964Z</time>
      </trkpt>
      <trkpt lat="43.60254" lon="6.31788">
        <ele>708.2</ele>
        <time>2025-07-09T07:57:01.000Z</time>
      </trkpt>
      <trkpt lat="43.60257" lon="6.31781">
        <ele>708.5</ele>
        <time>2025-07-09T07:57:05.744Z</time>
      </trkpt>
      <trkpt lat="43.6026" lon="6.31773">
        <ele>708.8</ele>
        <time>2025-07-09T07:57:11.000Z</time>
      </trkpt>
      <trkpt lat="43.60263" lon="6.31766">
        <ele>709.2</ele>
        <time>2025-07-09T07:57:15.900Z</time>
      </trkpt>
      <trkpt lat="43.60265" lon="6.31758">
        <ele>709.4</ele>
        <time>2025-07-09T07:57:21.000Z</time>
      </trkpt>
      <trkpt lat="43.60267" lon="6.3175">
        <ele>709.6</ele>
        <time>2025-07-09T07:57:25.817Z</time>
      </trkpt>
      <trkpt lat="43.60268" lon="6.31741">
        <ele>709.8</ele>
        <time>2025-07-09T07:57:31.000Z</time>
      </trkpt>
      <trkpt lat="43.60269" lon="6.31734">
        <ele>709.9</ele>
        <time>2025-07-09T07:57:36.047Z</time>
      </trkpt>
      <trkpt lat="43.60269" lon="6.31727">
        <ele>709.9</ele>
        <time>2025-07-09T07:57:41.000Z</time>
      </trkpt>
      <trkpt lat="43.60269" lon="6.3172">
        <ele>710</ele>
        <time>2025-07-09T07:57:45.666Z</time>
      </trkpt>
      <trkpt lat="43.60269" lon="6.31712">
        <ele>710.1</ele>
        <time>2025-07-09T07:57:51.000Z</time>
      </trkpt>
      <trkpt lat="43.6027" lon="6.31704">
        <ele>710.2</ele>
        <time>2025-07-09T07:57:55.742Z</time>
      </trkpt>
      <trkpt lat="43.6027" lon="6.31695">
        <ele>710.3</ele>
        <time>2025-07-09T07:58:01.000Z</time>
      </trkpt>
      <trkpt lat="43.60272" lon="6.31684">
        <ele>710.2</ele>
        <time>2025-07-09T07:58:08.277Z</time>
      </trkpt>
      <trkpt lat="43.60275" lon="6.31673">
        <ele>710.1</ele>
        <time>2025-07-09T07:58:15.819Z</time>
      </trkpt>
      <trkpt lat="43.60277" lon="6.31661">
        <ele>710.2</ele>
        <time>2025-07-09T07:58:23.721Z</time>
      </trkpt>
      <trkpt lat="43.60279" lon="6.3165">
        <ele>710.7</ele>
        <time>2025-07-09T07:58:31.000Z</time>
      </trkpt>
      <trkpt lat="43.60279" lon="6.31643">
        <ele>710.9</ele>
        <time>2025-07-09T07:58:36.000Z</time>
      </trkpt>
      <trkpt lat="43.60279" lon="6.31636">
        <ele>711.1</ele>
        <time>2025-07-09T07:58:41.000Z</time>
      </trkpt>
      <trkpt lat="43.6028" lon="6.31628">
        <ele>711.2</ele>
        <time>2025-07-09T07:58:45.713Z</time>
      </trkpt>
      <trkpt lat="43.60281" lon="6.31619">
        <ele>711.3</ele>
        <time>2025-07-09T07:58:50.999Z</time>
      </trkpt>
      <trkpt lat="43.60282" lon="6.31611">
        <ele>711.5</ele>
        <time>2025-07-09T07:58:55.712Z</time>
      </trkpt>
      <trkpt lat="43.60283" lon="6.31602">
        <ele>711.7</ele>
        <time>2025-07-09T07:59:00.998Z</time>
      </trkpt>
      <trkpt lat="43.60284" lon="6.31594">
        <ele>711.9</ele>
        <time>2025-07-09T07:59:05.711Z</time>
      </trkpt>
      <trkpt lat="43.60285" lon="6.31585">
        <ele>712</ele>
        <time>2025-07-09T07:59:10.998Z</time>
      </trkpt>
      <trkpt lat="43.60286" lon="6.31577">
        <ele>711.8</ele>
        <time>2025-07-09T07:59:15.712Z</time>
      </trkpt>
      <trkpt lat="43.60287" lon="6.31568">
        <ele>711.4</ele>
        <time>2025-07-09T07:59:21.000Z</time>
      </trkpt>
      <trkpt lat="43.6029" lon="6.31561">
        <ele>711.2</ele>
        <time>2025-07-09T07:59:26.194Z</time>
      </trkpt>
      <trkpt lat="43.60292" lon="6.31554">
        <ele>710.9</ele>
        <time>2025-07-09T07:59:31.000Z</time>
      </trkpt>
      <trkpt lat="43.60295" lon="6.31543">
        <ele>710.5</ele>
        <time>2025-07-09T07:59:38.211Z</time>
      </trkpt>
      <trkpt lat="43.60297" lon="6.31537">
        <ele>710.3</ele>
        <time>2025-07-09T07:59:42.105Z</time>
      </trkpt>
      <trkpt lat="43.60298" lon="6.31531">
        <ele>710.1</ele>
        <time>2025-07-09T07:59:45.999Z</time>
      </trkpt>
      <trkpt lat="43.60301" lon="6.3152">
        <ele>709.8</ele>
        <time>2025-07-09T07:59:53.210Z</time>
      </trkpt>
      <trkpt lat="43.60303" lon="6.31514">
        <ele>709.6</ele>
        <time>2025-07-09T07:59:57.105Z</time>
      </trkpt>
      <trkpt lat="43.60304" lon="6.31508">
        <ele>709.3</ele>
        <time>2025-07-09T08:00:01.000Z</time>
      </trkpt>
      <trkpt lat="43.60304" lon="6.31501">
        <ele>709.1</ele>
        <time>2025-07-09T08:00:05.648Z</time>
      </trkpt>
      <trkpt lat="43.60305" lon="6.31493">
        <ele>709</ele>
        <time>2025-07-09T08:00:11.039Z</time>
      </trkpt>
      <trkpt lat="43.60305" lon="6.31486">
        <ele>709</ele>
        <time>2025-07-09T08:00:15.687Z</time>
      </trkpt>
      <trkpt lat="43.60305" lon="6.31478">
        <ele>709</ele>
        <time>2025-07-09T08:00:21.000Z</time>
      </trkpt>
      <trkpt lat="43.60308" lon="6.31469">
        <ele>708.9</ele>
        <time>2025-07-09T08:00:25.884Z</time>
      </trkpt>
      <trkpt lat="43.6031" lon="6.31459">
        <ele>708.8</ele>
        <time>2025-07-09T08:00:31.000Z</time>
      </trkpt>
      <trkpt lat="43.60315" lon="6.31452">
        <ele>708.7</ele>
        <time>2025-07-09T08:00:36.244Z</time>
      </trkpt>
      <trkpt lat="43.60319" lon="6.31445">
        <ele>708.5</ele>
        <time>2025-07-09T08:00:41.000Z</time>
      </trkpt>
      <trkpt lat="43.60324" lon="6.31441">
        <ele>708.3</ele>
        <time>2025-07-09T08:00:45.834Z</time>
      </trkpt>
      <trkpt lat="43.60329" lon="6.31436">
        <ele>708.2</ele>
        <time>2025-07-09T08:00:51.000Z</time>
      </trkpt>
      <trkpt lat="43.60334" lon="6.31431">
        <ele>708</ele>
        <time>2025-07-09T08:00:55.823Z</time>
      </trkpt>
      <trkpt lat="43.60339" lon="6.31425">
        <ele>708.1</ele>
        <time>2025-07-09T08:01:01.000Z</time>
      </trkpt>
      <trkpt lat="43.60343" lon="6.31418">
        <ele>708</ele>
        <time>2025-07-09T08:01:05.974Z</time>
      </trkpt>
      <trkpt lat="43.60346" lon="6.3141">
        <ele>707.9</ele>
        <time>2025-07-09T08:01:11.000Z</time>
      </trkpt>
      <trkpt lat="43.6035" lon="6.31399">
        <ele>707.6</ele>
        <time>2025-07-09T08:01:18.725Z</time>
      </trkpt>
      <trkpt lat="43.60354" lon="6.31389">
        <ele>707.3</ele>
        <time>2025-07-09T08:01:25.895Z</time>
      </trkpt>
      <trkpt lat="43.60357" lon="6.31378">
        <ele>707.2</ele>
        <time>2025-07-09T08:01:33.273Z</time>
      </trkpt>
      <trkpt lat="43.60361" lon="6.31367">
        <ele>707</ele>
        <time>2025-07-09T08:01:41.000Z</time>
      </trkpt>
      <trkpt lat="43.60363" lon="6.3136">
        <ele>707</ele>
        <time>2025-07-09T08:01:45.810Z</time>
      </trkpt>
      <trkpt lat="43.60364" lon="6.31352">
        <ele>707</ele>
        <time>2025-07-09T08:01:51.000Z</time>
      </trkpt>
      <trkpt lat="43.60367" lon="6.31345">
        <ele>706.9</ele>
        <time>2025-07-09T08:01:55.744Z</time>
      </trkpt>
      <trkpt lat="43.6037" lon="6.31337">
        <ele>706.7</ele>
        <time>2025-07-09T08:02:01.000Z</time>
      </trkpt>
      <trkpt lat="43.60374" lon="6.3133">
        <ele>706.5</ele>
        <time>2025-07-09T08:02:05.784Z</time>
      </trkpt>
      <trkpt lat="43.60378" lon="6.31322">
        <ele>706.2</ele>
        <time>2025-07-09T08:02:11.000Z</time>
      </trkpt>
      <trkpt lat="43.60383" lon="6.31316">
        <ele>706.1</ele>
        <time>2025-07-09T08:02:16.000Z</time>
      </trkpt>
      <trkpt lat="43.60388" lon="6.3131">
        <ele>706</ele>
        <time>2025-07-09T08:02:21.000Z</time>
      </trkpt>
      <trkpt lat="43.60393" lon="6.31306">
        <ele>706</ele>
        <time>2025-07-09T08:02:26.490Z</time>
      </trkpt>
      <trkpt lat="43.60397" lon="6.31303">
        <ele>706</ele>
        <time>2025-07-09T08:02:30.815Z</time>
      </trkpt>
      <trkpt lat="43.60402" lon="6.31299">
        <ele>705.9</ele>
        <time>2025-07-09T08:02:36.306Z</time>
      </trkpt>
      <trkpt lat="43.60406" lon="6.31295">
        <ele>705.8</ele>
        <time>2025-07-09T08:02:41.000Z</time>
      </trkpt>
      <trkpt lat="43.60413" lon="6.31293">
        <ele>705.6</ele>
        <time>2025-07-09T08:02:46.366Z</time>
      </trkpt>
      <trkpt lat="43.60419" lon="6.31291">
        <ele>705.4</ele>
        <time>2025-07-09T08:02:51.000Z</time>
      </trkpt>
      <trkpt lat="43.60425" lon="6.31289">
        <ele>705.3</ele>
        <time>2025-07-09T08:02:55.916Z</time>
      </trkpt>
      <trkpt lat="43.60431" lon="6.31286">
        <ele>705.1</ele>
        <time>2025-07-09T08:03:01.000Z</time>
      </trkpt>
      <trkpt lat="43.60436" lon="6.31285">
        <ele>705.1</ele>
        <time>2025-07-09T08:03:05.775Z</time>
      </trkpt>
      <trkpt lat="43.60442" lon="6.31285">
        <ele>705</ele>
        <time>2025-07-09T08:03:11.447Z</time>
      </trkpt>
      <trkpt lat="43.60447" lon="6.31284">
        <ele>705</ele>
        <time>2025-07-09T08:03:16.223Z</time>
      </trkpt>
      <trkpt lat="43.60452" lon="6.31283">
        <ele>705.1</ele>
        <time>2025-07-09T08:03:21.000Z</time>
      </trkpt>
      <trkpt lat="43.60457" lon="6.3128">
        <ele>705</ele>
        <time>2025-07-09T08:03:26.246Z</time>
      </trkpt>
      <trkpt lat="43.60461" lon="6.31276">
        <ele>705.1</ele>
        <time>2025-07-09T08:03:31.000Z</time>
      </trkpt>
      <trkpt lat="43.60467" lon="6.3127">
        <ele>705.6</ele>
        <time>2025-07-09T08:03:36.000Z</time>
      </trkpt>
      <trkpt lat="43.60473" lon="6.31264">
        <ele>706</ele>
        <time>2025-07-09T08:03:41.000Z</time>
      </trkpt>
      <trkpt lat="43.60478" lon="6.31258">
        <ele>706.1</ele>
        <time>2025-07-09T08:03:46.000Z</time>
      </trkpt>
      <trkpt lat="43.60483" lon="6.31252">
        <ele>706.1</ele>
        <time>2025-07-09T08:03:51.000Z</time>
      </trkpt>
      <trkpt lat="43.60486" lon="6.31245">
        <ele>706.1</ele>
        <time>2025-07-09T08:03:56.194Z</time>
      </trkpt>
      <trkpt lat="43.60488" lon="6.31238">
        <ele>706</ele>
        <time>2025-07-09T08:04:01.000Z</time>
      </trkpt>
      <trkpt lat="43.6049" lon="6.31227">
        <ele>705.8</ele>
        <time>2025-07-09T08:04:10.588Z</time>
      </trkpt>
      <trkpt lat="43.60492" lon="6.31215">
        <ele>705.6</ele>
        <time>2025-07-09T08:04:21.000Z</time>
      </trkpt>
      <trkpt lat="43.60494" lon="6.31208">
        <ele>705.5</ele>
        <time>2025-07-09T08:04:25.764Z</time>
      </trkpt>
      <trkpt lat="43.60496" lon="6.312">
        <ele>705.4</ele>
        <time>2025-07-09T08:04:31.123Z</time>
      </trkpt>
      <trkpt lat="43.60497" lon="6.31193">
        <ele>705.4</ele>
        <time>2025-07-09T08:04:35.640Z</time>
      </trkpt>
      <trkpt lat="43.60499" lon="6.31185">
        <ele>705.1</ele>
        <time>2025-07-09T08:04:41.000Z</time>
      </trkpt>
      <trkpt lat="43.60501" lon="6.31177">
        <ele>705</ele>
        <time>2025-07-09T08:04:45.669Z</time>
      </trkpt>
      <trkpt lat="43.60504" lon="6.31168">
        <ele>705</ele>
        <time>2025-07-09T08:04:51.135Z</time>
      </trkpt>
      <trkpt lat="43.60506" lon="6.3116">
        <ele>704.9</ele>
        <time>2025-07-09T08:04:55.805Z</time>
      </trkpt>
      <trkpt lat="43.60508" lon="6.31151">
        <ele>704.8</ele>
        <time>2025-07-09T08:05:01.000Z</time>
      </trkpt>
      <trkpt lat="43.60511" lon="6.31142">
        <ele>704.6</ele>
        <time>2025-07-09T08:05:05.778Z</time>
      </trkpt>
      <trkpt lat="43.60514" lon="6.31132">
        <ele>704.4</ele>
        <time>2025-07-09T08:05:11.000Z</time>
      </trkpt>
      <trkpt lat="43.60518" lon="6.31123">
        <ele>704</ele>
        <time>2025-07-09T08:05:15.803Z</time>
      </trkpt>
      <trkpt lat="43.60522" lon="6.31113">
        <ele>703.5</ele>
        <time>2025-07-09T08:05:21.000Z</time>
      </trkpt>
      <trkpt lat="43.60524" lon="6.31101">
        <ele>703.3</ele>
        <time>2025-07-09T08:05:31.000Z</time>
      </trkpt>
      <trkpt lat="43.60524" lon="6.31092">
        <ele>703.3</ele>
        <time>2025-07-09T08:05:35.736Z</time>
      </trkpt>
      <trkpt lat="43.60524" lon="6.31082">
        <ele>703.3</ele>
        <time>2025-07-09T08:05:41.000Z</time>
      </trkpt>
      <trkpt lat="43.60523" lon="6.31074">
        <ele>703.3</ele>
        <time>2025-07-09T08:05:45.754Z</time>
      </trkpt>
      <trkpt lat="43.60521" lon="6.31066">
        <ele>703.3</ele>
        <time>2025-07-09T08:05:50.710Z</time>
      </trkpt>
      <trkpt lat="43.6052" lon="6.31057">
        <ele>703.3</ele>
        <time>2025-07-09T08:05:56.042Z</time>
      </trkpt>
      <trkpt lat="43.60518" lon="6.31049">
        <ele>703.5</ele>
        <time>2025-07-09T08:06:01.000Z</time>
      </trkpt>
      <trkpt lat="43.60518" lon="6.31041">
        <ele>703.7</ele>
        <time>2025-07-09T08:06:05.705Z</time>
      </trkpt>
      <trkpt lat="43.60518" lon="6.31032">
        <ele>703.9</ele>
        <time>2025-07-09T08:06:11.000Z</time>
      </trkpt>
      <trkpt lat="43.60519" lon="6.31024">
        <ele>703.9</ele>
        <time>2025-07-09T08:06:16.036Z</time>
      </trkpt>
      <trkpt lat="43.60519" lon="6.31016">
        <ele>703.7</ele>
        <time>2025-07-09T08:06:21.000Z</time>
      </trkpt>
      <trkpt lat="43.60518" lon="6.31009">
        <ele>703.6</ele>
        <time>2025-07-09T08:06:25.999Z</time>
      </trkpt>
      <trkpt lat="43.60517" lon="6.31002">
        <ele>703.4</ele>
        <time>2025-07-09T08:06:31.000Z</time>
      </trkpt>
      <trkpt lat="43.6052" lon="6.30995">
        <ele>703</ele>
        <time>2025-07-09T08:06:35.744Z</time>
      </trkpt>
      <trkpt lat="43.60523" lon="6.30987">
        <ele>702.4</ele>
        <time>2025-07-09T08:06:41.000Z</time>
      </trkpt>
      <trkpt lat="43.60524" lon="6.30979">
        <ele>701.8</ele>
        <time>2025-07-09T08:06:46.000Z</time>
      </trkpt>
      <trkpt lat="43.60525" lon="6.30971">
        <ele>701.3</ele>
        <time>2025-07-09T08:06:51.000Z</time>
      </trkpt>
      <trkpt lat="43.60524" lon="6.30965">
        <ele>701.1</ele>
        <time>2025-07-09T08:06:55.824Z</time>
      </trkpt>
      <trkpt lat="43.60522" lon="6.30959">
        <ele>701</ele>
        <time>2025-07-09T08:07:01.000Z</time>
      </trkpt>
      <trkpt lat="43.60518" lon="6.30953">
        <ele>701.1</ele>
        <time>2025-07-09T08:07:05.776Z</time>
      </trkpt>
      <trkpt lat="43.60514" lon="6.30946">
        <ele>701.1</ele>
        <time>2025-07-09T08:07:11.000Z</time>
      </trkpt>
      <trkpt lat="43.60514" lon="6.30939">
        <ele>700.8</ele>
        <time>2025-07-09T08:07:15.952Z</time>
      </trkpt>
      <trkpt lat="43.60513" lon="6.30932">
        <ele>700.6</ele>
        <time>2025-07-09T08:07:21.000Z</time>
      </trkpt>
      <trkpt lat="43.6051" lon="6.30927">
        <ele>700.3</ele>
        <time>2025-07-09T08:07:25.999Z</time>
      </trkpt>
      <trkpt lat="43.60507" lon="6.30922">
        <ele>699.9</ele>
        <time>2025-07-09T08:07:31.000Z</time>
      </trkpt>
      <trkpt lat="43.60508" lon="6.30915">
        <ele>699.6</ele>
        <time>2025-07-09T08:07:35.878Z</time>
      </trkpt>
      <trkpt lat="43.60508" lon="6.30908">
        <ele>699.5</ele>
        <time>2025-07-09T08:07:40.663Z</time>
      </trkpt>
      <trkpt lat="43.60509" lon="6.309">
        <ele>699.5</ele>
        <time>2025-07-09T08:07:46.213Z</time>
      </trkpt>
      <trkpt lat="43.60509" lon="6.30893">
        <ele>699.4</ele>
        <time>2025-07-09T08:07:51.000Z</time>
      </trkpt>
      <trkpt lat="43.60513" lon="6.30889">
        <ele>699.5</ele>
        <time>2025-07-09T08:07:55.779Z</time>
      </trkpt>
      <trkpt lat="43.60517" lon="6.30884">
        <ele>699.5</ele>
        <time>2025-07-09T08:08:01.000Z</time>
      </trkpt>
      <trkpt lat="43.60523" lon="6.30879">
        <ele>699.3</ele>
        <time>2025-07-09T08:08:06.316Z</time>
      </trkpt>
      <trkpt lat="43.60528" lon="6.30874">
        <ele>698.9</ele>
        <time>2025-07-09T08:08:11.000Z</time>
      </trkpt>
      <trkpt lat="43.60536" lon="6.3087">
        <ele>699.1</ele>
        <time>2025-07-09T08:08:16.191Z</time>
      </trkpt>
      <trkpt lat="43.60543" lon="6.30865">
        <ele>699.3</ele>
        <time>2025-07-09T08:08:21.000Z</time>
      </trkpt>
      <trkpt lat="43.60548" lon="6.3086">
        <ele>699.4</ele>
        <time>2025-07-09T08:08:25.823Z</time>
      </trkpt>
      <trkpt lat="43.60553" lon="6.30854">
        <ele>699.4</ele>
        <time>2025-07-09T08:08:31.000Z</time>
      </trkpt>
      <trkpt lat="43.60558" lon="6.3085">
        <ele>699.2</ele>
        <time>2025-07-09T08:08:36.391Z</time>
      </trkpt>
      <trkpt lat="43.60562" lon="6.30846">
        <ele>699</ele>
        <time>2025-07-09T08:08:41.000Z</time>
      </trkpt>
      <trkpt lat="43.60566" lon="6.30841">
        <ele>698.8</ele>
        <time>2025-07-09T08:08:45.774Z</time>
      </trkpt>
      <trkpt lat="43.6057" lon="6.30835">
        <ele>698.6</ele>
        <time>2025-07-09T08:08:51.000Z</time>
      </trkpt>
      <trkpt lat="43.60575" lon="6.30826">
        <ele>698.4</ele>
        <time>2025-07-09T08:08:56.178Z</time>
      </trkpt>
      <trkpt lat="43.60579" lon="6.30817">
        <ele>698.3</ele>
        <time>2025-07-09T08:09:01.000Z</time>
      </trkpt>
      <trkpt lat="43.60582" lon="6.3081">
        <ele>698.1</ele>
        <time>2025-07-09T08:09:05.744Z</time>
      </trkpt>
      <trkpt lat="43.60585" lon="6.30802">
        <ele>697.9</ele>
        <time>2025-07-09T08:09:10.999Z</time>
      </trkpt>
      <trkpt lat="43.60588" lon="6.30795">
        <ele>697.8</ele>
        <time>2025-07-09T08:09:15.744Z</time>
      </trkpt>
      <trkpt lat="43.60591" lon="6.30787">
        <ele>697.6</ele>
        <time>2025-07-09T08:09:21.000Z</time>
      </trkpt>
      <trkpt lat="43.60595" lon="6.3078">
        <ele>697.5</ele>
        <time>2025-07-09T08:09:25.784Z</time>
      </trkpt>
      <trkpt lat="43.60599" lon="6.30772">
        <ele>697.4</ele>
        <time>2025-07-09T08:09:31.000Z</time>
      </trkpt>
      <trkpt lat="43.60605" lon="6.30767">
        <ele>697.4</ele>
        <time>2025-07-09T08:09:36.140Z</time>
      </trkpt>
      <trkpt lat="43.6061" lon="6.30761">
        <ele>697.4</ele>
        <time>2025-07-09T08:09:41.000Z</time>
      </trkpt>
      <trkpt lat="43.60611" lon="6.30753">
        <ele>697.1</ele>
        <time>2025-07-09T08:09:46.000Z</time>
      </trkpt>
      <trkpt lat="43.60612" lon="6.30745">
        <ele>696.9</ele>
        <time>2025-07-09T08:09:51.000Z</time>
      </trkpt>
      <trkpt lat="43.60614" lon="6.30737">
        <ele>696.7</ele>
        <time>2025-07-09T08:09:56.196Z</time>
      </trkpt>
      <trkpt lat="43.60616" lon="6.3073">
        <ele>696.5</ele>
        <time>2025-07-09T08:10:00.817Z</time>
      </trkpt>
      <trkpt lat="43.60617" lon="6.30722">
        <ele>696.2</ele>
        <time>2025-07-09T08:10:05.802Z</time>
      </trkpt>
      <trkpt lat="43.60619" lon="6.30714">
        <ele>696</ele>
        <time>2025-07-09T08:10:11.000Z</time>
      </trkpt>
      <trkpt lat="43.6062" lon="6.30706">
        <ele>695.7</ele>
        <time>2025-07-09T08:10:16.036Z</time>
      </trkpt>
      <trkpt lat="43.6062" lon="6.30698">
        <ele>695.4</ele>
        <time>2025-07-09T08:10:21.000Z</time>
      </trkpt>
      <trkpt lat="43.60625" lon="6.3069">
        <ele>695.4</ele>
        <time>2025-07-09T08:10:31.003Z</time>
      </trkpt>
      <trkpt lat="43.60629" lon="6.30681">
        <ele>695.2</ele>
        <time>2025-07-09T08:10:41.000Z</time>
      </trkpt>
      <trkpt lat="43.60636" lon="6.30678">
        <ele>694.9</ele>
        <time>2025-07-09T08:10:45.917Z</time>
      </trkpt>
      <trkpt lat="43.60643" lon="6.30674">
        <ele>694.7</ele>
        <time>2025-07-09T08:10:51.000Z</time>
      </trkpt>
      <trkpt lat="43.60647" lon="6.30669">
        <ele>694.5</ele>
        <time>2025-07-09T08:10:56.281Z</time>
      </trkpt>
      <trkpt lat="43.60651" lon="6.30665">
        <ele>694.4</ele>
        <time>2025-07-09T08:11:01.115Z</time>
      </trkpt>
      <trkpt lat="43.60654" lon="6.3066">
        <ele>694.4</ele>
        <time>2025-07-09T08:11:05.718Z</time>
      </trkpt>
      <trkpt lat="43.60658" lon="6.30655">
        <ele>694.2</ele>
        <time>2025-07-09T08:11:11.000Z</time>
      </trkpt>
      <trkpt lat="43.60661" lon="6.30649">
        <ele>693.9</ele>
        <time>2025-07-09T08:11:15.856Z</time>
      </trkpt>
      <trkpt lat="43.60665" lon="6.30643">
        <ele>693.4</ele>
        <time>2025-07-09T08:11:21.287Z</time>
      </trkpt>
      <trkpt lat="43.60668" lon="6.30637">
        <ele>693.2</ele>
        <time>2025-07-09T08:11:26.143Z</time>
      </trkpt>
      <trkpt lat="43.60671" lon="6.30631">
        <ele>693.5</ele>
        <time>2025-07-09T08:11:31.000Z</time>
      </trkpt>
      <trkpt lat="43.60674" lon="6.30624">
        <ele>693.6</ele>
        <time>2025-07-09T08:11:36.000Z</time>
      </trkpt>
      <trkpt lat="43.60677" lon="6.30617">
        <ele>693.7</ele>
        <time>2025-07-09T08:11:41.000Z</time>
      </trkpt>
      <trkpt lat="43.6068" lon="6.3061">
        <ele>693.5</ele>
        <time>2025-07-09T08:11:46.000Z</time>
      </trkpt>
      <trkpt lat="43.60683" lon="6.30603">
        <ele>693.2</ele>
        <time>2025-07-09T08:11:51.000Z</time>
      </trkpt>
      <trkpt lat="43.60686" lon="6.30595">
        <ele>692.9</ele>
        <time>2025-07-09T08:11:55.890Z</time>
      </trkpt>
      <trkpt lat="43.60688" lon="6.30586">
        <ele>692.5</ele>
        <time>2025-07-09T08:12:01.000Z</time>
      </trkpt>
      <trkpt lat="43.6069" lon="6.30577">
        <ele>692.1</ele>
        <time>2025-07-09T08:12:06.083Z</time>
      </trkpt>
      <trkpt lat="43.60691" lon="6.30568">
        <ele>691.8</ele>
        <time>2025-07-09T08:12:11.000Z</time>
      </trkpt>
      <trkpt lat="43.60695" lon="6.30561">
        <ele>691.2</ele>
        <time>2025-07-09T08:12:21.000Z</time>
      </trkpt>
      <trkpt lat="43.60697" lon="6.30555">
        <ele>691.2</ele>
        <time>2025-07-09T08:12:25.674Z</time>
      </trkpt>
      <trkpt lat="43.60699" lon="6.30548">
        <ele>691.5</ele>
        <time>2025-07-09T08:12:31.000Z</time>
      </trkpt>
      <trkpt lat="43.60702" lon="6.30542">
        <ele>691.6</ele>
        <time>2025-07-09T08:12:35.609Z</time>
      </trkpt>
      <trkpt lat="43.60706" lon="6.30535">
        <ele>691.6</ele>
        <time>2025-07-09T08:12:41.246Z</time>
      </trkpt>
      <trkpt lat="43.60709" lon="6.30529">
        <ele>691.5</ele>
        <time>2025-07-09T08:12:45.856Z</time>
      </trkpt>
      <trkpt lat="43.60712" lon="6.30522">
        <ele>691.3</ele>
        <time>2025-07-09T08:12:51.000Z</time>
      </trkpt>
      <trkpt lat="43.60716" lon="6.30516">
        <ele>691</ele>
        <time>2025-07-09T08:12:55.885Z</time>
      </trkpt>
      <trkpt lat="43.6072" lon="6.3051">
        <ele>690.5</ele>
        <time>2025-07-09T08:13:00.771Z</time>
      </trkpt>
      <trkpt lat="43.60724" lon="6.30503">
        <ele>690.2</ele>
        <time>2025-07-09T08:13:06.113Z</time>
      </trkpt>
      <trkpt lat="43.60728" lon="6.30497">
        <ele>690.3</ele>
        <time>2025-07-09T08:13:11.000Z</time>
      </trkpt>
      <trkpt lat="43.60731" lon="6.30489">
        <ele>690.5</ele>
        <time>2025-07-09T08:13:16.124Z</time>
      </trkpt>
      <trkpt lat="43.60734" lon="6.30482">
        <ele>690.5</ele>
        <time>2025-07-09T08:13:20.750Z</time>
      </trkpt>
      <trkpt lat="43.60737" lon="6.30474">
        <ele>690.5</ele>
        <time>2025-07-09T08:13:25.875Z</time>
      </trkpt>
      <trkpt lat="43.6074" lon="6.30466">
        <ele>690.3</ele>
        <time>2025-07-09T08:13:31.000Z</time>
      </trkpt>
      <trkpt lat="43.60745" lon="6.30459">
        <ele>689.9</ele>
        <time>2025-07-09T08:13:36.028Z</time>
      </trkpt>
      <trkpt lat="43.60749" lon="6.30451">
        <ele>689.3</ele>
        <time>2025-07-09T08:13:41.000Z</time>
      </trkpt>
      <trkpt lat="43.60754" lon="6.30447">
        <ele>689.4</ele>
        <time>2025-07-09T08:13:45.815Z</time>
      </trkpt>
      <trkpt lat="43.6076" lon="6.30443">
        <ele>689.8</ele>
        <time>2025-07-09T08:13:51.367Z</time>
      </trkpt>
      <trkpt lat="43.60765" lon="6.30439">
        <ele>690</ele>
        <time>2025-07-09T08:13:56.183Z</time>
      </trkpt>
      <trkpt lat="43.6077" lon="6.30435">
        <ele>690</ele>
        <time>2025-07-09T08:14:01.000Z</time>
      </trkpt>
      <trkpt lat="43.60773" lon="6.3043">
        <ele>689.6</ele>
        <time>2025-07-09T08:14:05.710Z</time>
      </trkpt>
      <trkpt lat="43.60776" lon="6.30424">
        <ele>688.9</ele>
        <time>2025-07-09T08:14:11.000Z</time>
      </trkpt>
      <trkpt lat="43.60781" lon="6.3042">
        <ele>689.2</ele>
        <time>2025-07-09T08:15:18.000Z</time>
      </trkpt>
      <trkpt lat="43.60785" lon="6.30412">
        <ele>690.2</ele>
        <time>2025-07-09T08:15:39.000Z</time>
      </trkpt>
      <trkpt lat="43.60789" lon="6.30404">
        <ele>691.4</ele>
        <time>2025-07-09T08:16:00.000Z</time>
      </trkpt>
      <trkpt lat="43.6079" lon="6.30397">
        <ele>691.7</ele>
        <time>2025-07-09T08:16:04.677Z</time>
      </trkpt>
      <trkpt lat="43.60791" lon="6.30389">
        <ele>692</ele>
        <time>2025-07-09T08:16:10.000Z</time>
      </trkpt>
      <trkpt lat="43.60791" lon="6.30383">
        <ele>691.8</ele>
        <time>2025-07-09T08:16:14.615Z</time>
      </trkpt>
      <trkpt lat="43.60791" lon="6.30376">
        <ele>691.6</ele>
        <time>2025-07-09T08:16:20.000Z</time>
      </trkpt>
      <trkpt lat="43.60796" lon="6.30369">
        <ele>690.6</ele>
        <time>2025-07-09T08:16:25.028Z</time>
      </trkpt>
      <trkpt lat="43.608" lon="6.30361">
        <ele>689.2</ele>
        <time>2025-07-09T08:16:30.000Z</time>
      </trkpt>
      <trkpt lat="43.60806" lon="6.30354">
        <ele>688.3</ele>
        <time>2025-07-09T08:16:35.245Z</time>
      </trkpt>
      <trkpt lat="43.60811" lon="6.30347">
        <ele>688.9</ele>
        <time>2025-07-09T08:16:40.000Z</time>
      </trkpt>
      <trkpt lat="43.60815" lon="6.30341">
        <ele>689.1</ele>
        <time>2025-07-09T08:16:44.777Z</time>
      </trkpt>
      <trkpt lat="43.60819" lon="6.30334">
        <ele>689</ele>
        <time>2025-07-09T08:16:50.000Z</time>
      </trkpt>
      <trkpt lat="43.60824" lon="6.30328">
        <ele>688.7</ele>
        <time>2025-07-09T08:16:55.286Z</time>
      </trkpt>
      <trkpt lat="43.60828" lon="6.30322">
        <ele>688</ele>
        <time>2025-07-09T08:17:00.000Z</time>
      </trkpt>
      <trkpt lat="43.60831" lon="6.30316">
        <ele>686.9</ele>
        <time>2025-07-09T08:17:05.246Z</time>
      </trkpt>
      <trkpt lat="43.60833" lon="6.3031">
        <ele>685.7</ele>
        <time>2025-07-09T08:17:10.000Z</time>
      </trkpt>
      <trkpt lat="43.60837" lon="6.30304">
        <ele>686.2</ele>
        <time>2025-07-09T08:17:15.279Z</time>
      </trkpt>
      <trkpt lat="43.6084" lon="6.30298">
        <ele>687.4</ele>
        <time>2025-07-09T08:17:20.000Z</time>
      </trkpt>
      <trkpt lat="43.60842" lon="6.3029">
        <ele>688.3</ele>
        <time>2025-07-09T08:17:25.000Z</time>
      </trkpt>
      <trkpt lat="43.60844" lon="6.30282">
        <ele>689</ele>
        <time>2025-07-09T08:17:30.000Z</time>
      </trkpt>
      <trkpt lat="43.60845" lon="6.3027">
        <ele>689.2</ele>
        <time>2025-07-09T08:17:37.512Z</time>
      </trkpt>
      <trkpt lat="43.60846" lon="6.30258">
        <ele>689.1</ele>
        <time>2025-07-09T08:17:45.024Z</time>
      </trkpt>
      <trkpt lat="43.60846" lon="6.30246">
        <ele>688.8</ele>
        <time>2025-07-09T08:17:52.487Z</time>
      </trkpt>
      <trkpt lat="43.60847" lon="6.30234">
        <ele>688.1</ele>
        <time>2025-07-09T08:18:00.000Z</time>
      </trkpt>
      <trkpt lat="43.60847" lon="6.30227">
        <ele>687.8</ele>
        <time>2025-07-09T08:18:04.952Z</time>
      </trkpt>
      <trkpt lat="43.60846" lon="6.3022">
        <ele>687.6</ele>
        <time>2025-07-09T08:18:10.000Z</time>
      </trkpt>
      <trkpt lat="43.60846" lon="6.30214">
        <ele>687.6</ele>
        <time>2025-07-09T08:18:13.500Z</time>
      </trkpt>
      <trkpt lat="43.60847" lon="6.30207">
        <ele>687.5</ele>
        <time>2025-07-09T08:18:17.662Z</time>
      </trkpt>
      <trkpt lat="43.60847" lon="6.30201">
        <ele>687.5</ele>
        <time>2025-07-09T08:18:21.162Z</time>
      </trkpt>
      <trkpt lat="43.60848" lon="6.30195">
        <ele>687.4</ele>
        <time>2025-07-09T08:18:24.753Z</time>
      </trkpt>
      <trkpt lat="43.60848" lon="6.30188">
        <ele>687.2</ele>
        <time>2025-07-09T08:18:28.836Z</time>
      </trkpt>
      <trkpt lat="43.60848" lon="6.30182">
        <ele>687.1</ele>
        <time>2025-07-09T08:18:32.336Z</time>
      </trkpt>
      <trkpt lat="43.60849" lon="6.30175">
        <ele>686.8</ele>
        <time>2025-07-09T08:18:36.499Z</time>
      </trkpt>
      <trkpt lat="43.60849" lon="6.30169">
        <ele>686.7</ele>
        <time>2025-07-09T08:18:40.000Z</time>
      </trkpt>
      <trkpt lat="43.60851" lon="6.30161">
        <ele>685.9</ele>
        <time>2025-07-09T08:18:45.104Z</time>
      </trkpt>
      <trkpt lat="43.60852" lon="6.30153">
        <ele>685.1</ele>
        <time>2025-07-09T08:18:50.000Z</time>
      </trkpt>
      <trkpt lat="43.60852" lon="6.30144">
        <ele>684.6</ele>
        <time>2025-07-09T08:18:54.736Z</time>
      </trkpt>
      <trkpt lat="43.60852" lon="6.30134">
        <ele>684.2</ele>
        <time>2025-07-09T08:19:00.000Z</time>
      </trkpt>
      <trkpt lat="43.60855" lon="6.30126">
        <ele>683.3</ele>
        <time>2025-07-09T08:19:04.762Z</time>
      </trkpt>
      <trkpt lat="43.60858" lon="6.30117">
        <ele>682.2</ele>
        <time>2025-07-09T08:19:10.000Z</time>
      </trkpt>
      <trkpt lat="43.6086" lon="6.3011">
        <ele>681.4</ele>
        <time>2025-07-09T08:19:14.810Z</time>
      </trkpt>
      <trkpt lat="43.60861" lon="6.30102">
        <ele>681</ele>
        <time>2025-07-09T08:19:20.000Z</time>
      </trkpt>
      <trkpt lat="43.60864" lon="6.30095">
        <ele>681.4</ele>
        <time>2025-07-09T08:19:25.000Z</time>
      </trkpt>
      <trkpt lat="43.60867" lon="6.30088">
        <ele>681.7</ele>
        <time>2025-07-09T08:19:30.000Z</time>
      </trkpt>
      <trkpt lat="43.60872" lon="6.3008">
        <ele>682.5</ele>
        <time>2025-07-09T08:19:37.500Z</time>
      </trkpt>
      <trkpt lat="43.60877" lon="6.30072">
        <ele>682.9</ele>
        <time>2025-07-09T08:19:45.000Z</time>
      </trkpt>
      <trkpt lat="43.60882" lon="6.30064">
        <ele>682</ele>
        <time>2025-07-09T08:19:52.500Z</time>
      </trkpt>
      <trkpt lat="43.60887" lon="6.30056">
        <ele>679.7</ele>
        <time>2025-07-09T08:20:00.000Z</time>
      </trkpt>
      <trkpt lat="43.60892" lon="6.30053">
        <ele>679.5</ele>
        <time>2025-07-09T08:20:05.057Z</time>
      </trkpt>
      <trkpt lat="43.60897" lon="6.30049">
        <ele>679.9</ele>
        <time>2025-07-09T08:20:10.417Z</time>
      </trkpt>
      <trkpt lat="43.60901" lon="6.30046">
        <ele>679.7</ele>
        <time>2025-07-09T08:20:14.639Z</time>
      </trkpt>
      <trkpt lat="43.60906" lon="6.30042">
        <ele>679.2</ele>
        <time>2025-07-09T08:20:20.000Z</time>
      </trkpt>
      <trkpt lat="43.60911" lon="6.3004">
        <ele>678</ele>
        <time>2025-07-09T08:20:25.335Z</time>
      </trkpt>
      <trkpt lat="43.60915" lon="6.30037">
        <ele>676.9</ele>
        <time>2025-07-09T08:20:30.000Z</time>
      </trkpt>
      <trkpt lat="43.60919" lon="6.3003">
        <ele>676.8</ele>
        <time>2025-07-09T08:20:34.974Z</time>
      </trkpt>
      <trkpt lat="43.60922" lon="6.30022">
        <ele>677.6</ele>
        <time>2025-07-09T08:20:40.000Z</time>
      </trkpt>
      <trkpt lat="43.60923" lon="6.30014">
        <ele>677.9</ele>
        <time>2025-07-09T08:20:44.742Z</time>
      </trkpt>
      <trkpt lat="43.60923" lon="6.30005">
        <ele>677.8</ele>
        <time>2025-07-09T08:20:50.000Z</time>
      </trkpt>
      <trkpt lat="43.60923" lon="6.29998">
        <ele>677.7</ele>
        <time>2025-07-09T08:20:54.630Z</time>
      </trkpt>
      <trkpt lat="43.60922" lon="6.2999">
        <ele>677.1</ele>
        <time>2025-07-09T08:21:00.000Z</time>
      </trkpt>
      <trkpt lat="43.60919" lon="6.29983">
        <ele>675.5</ele>
        <time>2025-07-09T08:21:10.000Z</time>
      </trkpt>
      <trkpt lat="43.60917" lon="6.29976">
        <ele>674.3</ele>
        <time>2025-07-09T08:21:14.706Z</time>
      </trkpt>
      <trkpt lat="43.60915" lon="6.29968">
        <ele>675.3</ele>
        <time>2025-07-09T08:21:20.000Z</time>
      </trkpt>
      <trkpt lat="43.60913" lon="6.29963">
        <ele>676.6</ele>
        <time>2025-07-09T08:21:24.392Z</time>
      </trkpt>
      <trkpt lat="43.6091" lon="6.29957">
        <ele>678.4</ele>
        <time>2025-07-09T08:21:30.000Z</time>
      </trkpt>
      <trkpt lat="43.6091" lon="6.29951">
        <ele>678.5</ele>
        <time>2025-07-09T08:21:34.615Z</time>
      </trkpt>
      <trkpt lat="43.6091" lon="6.29944">
        <ele>678.6</ele>
        <time>2025-07-09T08:21:40.000Z</time>
      </trkpt>
      <trkpt lat="43.60909" lon="6.29935">
        <ele>678.5</ele>
        <time>2025-07-09T08:21:44.999Z</time>
      </trkpt>
      <trkpt lat="43.60908" lon="6.29926">
        <ele>678.2</ele>
        <time>2025-07-09T08:21:50.000Z</time>
      </trkpt>
      <trkpt lat="43.60908" lon="6.29917">
        <ele>677.6</ele>
        <time>2025-07-09T08:21:55.000Z</time>
      </trkpt>
      <trkpt lat="43.60908" lon="6.29908">
        <ele>676.5</ele>
        <time>2025-07-09T08:22:00.000Z</time>
      </trkpt>
      <trkpt lat="43.60907" lon="6.299">
        <ele>675.7</ele>
        <time>2025-07-09T08:22:04.630Z</time>
      </trkpt>
      <trkpt lat="43.60905" lon="6.29891">
        <ele>674.7</ele>
        <time>2025-07-09T08:22:10.000Z</time>
      </trkpt>
      <trkpt lat="43.60898" lon="6.29884">
        <ele>674.7</ele>
        <time>2025-07-09T08:22:17.674Z</time>
      </trkpt>
      <trkpt lat="43.60892" lon="6.29877">
        <ele>674</ele>
        <time>2025-07-09T08:22:24.649Z</time>
      </trkpt>
      <trkpt lat="43.60885" lon="6.2987">
        <ele>673.6</ele>
        <time>2025-07-09T08:22:32.324Z</time>
      </trkpt>
      <trkpt lat="43.60878" lon="6.29863">
        <ele>672.6</ele>
        <time>2025-07-09T08:22:40.000Z</time>
      </trkpt>
      <trkpt lat="43.60874" lon="6.29857">
        <ele>671.8</ele>
        <time>2025-07-09T08:22:44.777Z</time>
      </trkpt>
      <trkpt lat="43.6087" lon="6.2985">
        <ele>671.3</ele>
        <time>2025-07-09T08:22:50.000Z</time>
      </trkpt>
      <trkpt lat="43.60867" lon="6.29843">
        <ele>670.6</ele>
        <time>2025-07-09T08:22:54.999Z</time>
      </trkpt>
      <trkpt lat="43.60864" lon="6.29836">
        <ele>669.7</ele>
        <time>2025-07-09T08:23:00.000Z</time>
      </trkpt>
      <trkpt lat="43.6086" lon="6.29832">
        <ele>669.4</ele>
        <time>2025-07-09T08:23:04.944Z</time>
      </trkpt>
      <trkpt lat="43.60857" lon="6.29827">
        <ele>670.5</ele>
        <time>2025-07-09T08:23:09.652Z</time>
      </trkpt>
      <trkpt lat="43.60853" lon="6.29823">
        <ele>671.1</ele>
        <time>2025-07-09T08:23:14.597Z</time>
      </trkpt>
      <trkpt lat="43.60849" lon="6.29818">
        <ele>671.1</ele>
        <time>2025-07-09T08:23:20.000Z</time>
      </trkpt>
      <trkpt lat="43.60844" lon="6.29815">
        <ele>670.7</ele>
        <time>2025-07-09T08:23:24.661Z</time>
      </trkpt>
      <trkpt lat="43.60839" lon="6.29811">
        <ele>669.5</ele>
        <time>2025-07-09T08:23:29.602Z</time>
      </trkpt>
      <trkpt lat="43.60833" lon="6.29808">
        <ele>667.9</ele>
        <time>2025-07-09T08:23:35.058Z</time>
      </trkpt>
      <trkpt lat="43.60828" lon="6.29804">
        <ele>668.2</ele>
        <time>2025-07-09T08:23:40.000Z</time>
      </trkpt>
      <trkpt lat="43.60823" lon="6.29802">
        <ele>669.1</ele>
        <time>2025-07-09T08:23:44.999Z</time>
      </trkpt>
      <trkpt lat="43.60818" lon="6.298">
        <ele>669.6</ele>
        <time>2025-07-09T08:23:50.000Z</time>
      </trkpt>
      <trkpt lat="43.60815" lon="6.29794">
        <ele>669.5</ele>
        <time>2025-07-09T08:23:54.720Z</time>
      </trkpt>
      <trkpt lat="43.60811" lon="6.29788">
        <ele>668.7</ele>
        <time>2025-07-09T08:24:00.000Z</time>
      </trkpt>
      <trkpt lat="43.60812" lon="6.29782">
        <ele>668.1</ele>
        <time>2025-07-09T08:24:04.659Z</time>
      </trkpt>
      <trkpt lat="43.60813" lon="6.29775">
        <ele>667.8</ele>
        <time>2025-07-09T08:24:10.058Z</time>
      </trkpt>
      <trkpt lat="43.60813" lon="6.29769">
        <ele>667.7</ele>
        <time>2025-07-09T08:24:14.599Z</time>
      </trkpt>
      <trkpt lat="43.60814" lon="6.29762">
        <ele>667.8</ele>
        <time>2025-07-09T08:24:20.000Z</time>
      </trkpt>
      <trkpt lat="43.60814" lon="6.29754">
        <ele>667.6</ele>
        <time>2025-07-09T08:24:24.705Z</time>
      </trkpt>
      <trkpt lat="43.60814" lon="6.29745">
        <ele>667.1</ele>
        <time>2025-07-09T08:24:30.000Z</time>
      </trkpt>
      <trkpt lat="43.60813" lon="6.29739">
        <ele>666.3</ele>
        <time>2025-07-09T08:24:34.499Z</time>
      </trkpt>
      <trkpt lat="43.60811" lon="6.29732">
        <ele>665</ele>
        <time>2025-07-09T08:24:40.000Z</time>
      </trkpt>
      <trkpt lat="43.60807" lon="6.29728">
        <ele>663.3</ele>
        <time>2025-07-09T08:24:44.444Z</time>
      </trkpt>
      <trkpt lat="43.60802" lon="6.29723">
        <ele>662.5</ele>
        <time>2025-07-09T08:24:50.000Z</time>
      </trkpt>
      <trkpt lat="43.60795" lon="6.29718">
        <ele>663.5</ele>
        <time>2025-07-09T08:25:00.000Z</time>
      </trkpt>
      <trkpt lat="43.60791" lon="6.29713">
        <ele>663.8</ele>
        <time>2025-07-09T08:25:04.488Z</time>
      </trkpt>
      <trkpt lat="43.60786" lon="6.29707">
        <ele>663.5</ele>
        <time>2025-07-09T08:25:10.000Z</time>
      </trkpt>
      <trkpt lat="43.60784" lon="6.29701">
        <ele>663</ele>
        <time>2025-07-09T08:25:14.674Z</time>
      </trkpt>
      <trkpt lat="43.60782" lon="6.29694">
        <ele>662.1</ele>
        <time>2025-07-09T08:25:19.999Z</time>
      </trkpt>
      <trkpt lat="43.6078" lon="6.29688">
        <ele>661.6</ele>
        <time>2025-07-09T08:25:24.673Z</time>
      </trkpt>
      <trkpt lat="43.60778" lon="6.29681">
        <ele>661.1</ele>
        <time>2025-07-09T08:25:30.000Z</time>
      </trkpt>
      <trkpt lat="43.60771" lon="6.29674">
        <ele>662.5</ele>
        <time>2025-07-09T08:25:40.000Z</time>
      </trkpt>
      <trkpt lat="43.60767" lon="6.29668">
        <ele>662.4</ele>
        <time>2025-07-09T08:25:44.999Z</time>
      </trkpt>
      <trkpt lat="43.60763" lon="6.29662">
        <ele>662.9</ele>
        <time>2025-07-09T08:25:50.000Z</time>
      </trkpt>
      <trkpt lat="43.60761" lon="6.29657">
        <ele>663</ele>
        <time>2025-07-09T08:25:54.392Z</time>
      </trkpt>
      <trkpt lat="43.60758" lon="6.29651">
        <ele>662.6</ele>
        <time>2025-07-09T08:26:00.000Z</time>
      </trkpt>
      <trkpt lat="43.60756" lon="6.29644">
        <ele>661.7</ele>
        <time>2025-07-09T08:26:04.765Z</time>
      </trkpt>
      <trkpt lat="43.60754" lon="6.29637">
        <ele>660.5</ele>
        <time>2025-07-09T08:26:09.530Z</time>
      </trkpt>
      <trkpt lat="43.60751" lon="6.29629">
        <ele>659.1</ele>
        <time>2025-07-09T08:26:15.234Z</time>
      </trkpt>
      <trkpt lat="43.60749" lon="6.29622">
        <ele>658.5</ele>
        <time>2025-07-09T08:26:20.000Z</time>
      </trkpt>
      <trkpt lat="43.60749" lon="6.29614">
        <ele>658.2</ele>
        <time>2025-07-09T08:26:24.676Z</time>
      </trkpt>
      <trkpt lat="43.60748" lon="6.29605">
        <ele>658.3</ele>
        <time>2025-07-09T08:26:30.000Z</time>
      </trkpt>
      <trkpt lat="43.60746" lon="6.29598">
        <ele>658.6</ele>
        <time>2025-07-09T08:26:34.551Z</time>
      </trkpt>
      <trkpt lat="43.60743" lon="6.2959">
        <ele>658.7</ele>
        <time>2025-07-09T08:26:40.000Z</time>
      </trkpt>
      <trkpt lat="43.60741" lon="6.29583">
        <ele>658.7</ele>
        <time>2025-07-09T08:26:44.706Z</time>
      </trkpt>
      <trkpt lat="43.60739" lon="6.29575">
        <ele>658.8</ele>
        <time>2025-07-09T08:26:50.000Z</time>
      </trkpt>
      <trkpt lat="43.60741" lon="6.29568">
        <ele>659.2</ele>
        <time>2025-07-09T08:27:00.000Z</time>
      </trkpt>
      <trkpt lat="43.60736" lon="6.29566">
        <ele>658.8</ele>
        <time>2025-07-09T08:27:10.000Z</time>
      </trkpt>
      <trkpt lat="43.60735" lon="6.29557">
        <ele>658.8</ele>
        <time>2025-07-09T08:27:19.484Z</time>
      </trkpt>
      <trkpt lat="43.60734" lon="6.29547">
        <ele>658.8</ele>
        <time>2025-07-09T08:27:30.000Z</time>
      </trkpt>
      <trkpt lat="43.60741" lon="6.29544">
        <ele>660.1</ele>
        <time>2025-07-09T08:28:09.000Z</time>
      </trkpt>
      <trkpt lat="43.60737" lon="6.29536">
        <ele>659.5</ele>
        <time>2025-07-09T08:28:30.000Z</time>
      </trkpt>
      <trkpt lat="43.60737" lon="6.2953">
        <ele>659.7</ele>
        <time>2025-07-09T08:28:34.567Z</time>
      </trkpt>
      <trkpt lat="43.60736" lon="6.29523">
        <ele>659.6</ele>
        <time>2025-07-09T08:28:40.000Z</time>
      </trkpt>
      <trkpt lat="43.60733" lon="6.29516">
        <ele>658.8</ele>
        <time>2025-07-09T08:28:44.770Z</time>
      </trkpt>
      <trkpt lat="43.60729" lon="6.29509">
        <ele>657.5</ele>
        <time>2025-07-09T08:28:50.000Z</time>
      </trkpt>
      <trkpt lat="43.60728" lon="6.29501">
        <ele>657.1</ele>
        <time>2025-07-09T08:28:54.754Z</time>
      </trkpt>
      <trkpt lat="43.60726" lon="6.29493">
        <ele>656.6</ele>
        <time>2025-07-09T08:28:59.710Z</time>
      </trkpt>
      <trkpt lat="43.60725" lon="6.29484">
        <ele>656.6</ele>
        <time>2025-07-09T08:29:05.042Z</time>
      </trkpt>
      <trkpt lat="43.60723" lon="6.29476">
        <ele>656.1</ele>
        <time>2025-07-09T08:29:10.000Z</time>
      </trkpt>
      <trkpt lat="43.60721" lon="6.2947">
        <ele>656.1</ele>
        <time>2025-07-09T08:29:14.753Z</time>
      </trkpt>
      <trkpt lat="43.60718" lon="6.29464">
        <ele>656.4</ele>
        <time>2025-07-09T08:29:19.999Z</time>
      </trkpt>
      <trkpt lat="43.60716" lon="6.29458">
        <ele>656.7</ele>
        <time>2025-07-09T08:29:24.752Z</time>
      </trkpt>
      <trkpt lat="43.60713" lon="6.29452">
        <ele>656.8</ele>
        <time>2025-07-09T08:29:30.000Z</time>
      </trkpt>
      <trkpt lat="43.60708" lon="6.29443">
        <ele>656.6</ele>
        <time>2025-07-09T08:29:40.000Z</time>
      </trkpt>
      <trkpt lat="43.60705" lon="6.29435">
        <ele>656.9</ele>
        <time>2025-07-09T08:29:50.000Z</time>
      </trkpt>
      <trkpt lat="43.60702" lon="6.29429">
        <ele>656.7</ele>
        <time>2025-07-09T08:29:54.999Z</time>
      </trkpt>
      <trkpt lat="43.60699" lon="6.29423">
        <ele>656.2</ele>
        <time>2025-07-09T08:30:00.000Z</time>
      </trkpt>
      <trkpt lat="43.60695" lon="6.29418">
        <ele>655.1</ele>
        <time>2025-07-09T08:30:04.999Z</time>
      </trkpt>
      <trkpt lat="43.60691" lon="6.29413">
        <ele>655.2</ele>
        <time>2025-07-09T08:30:10.000Z</time>
      </trkpt>
      <trkpt lat="43.60685" lon="6.2941">
        <ele>654.9</ele>
        <time>2025-07-09T08:30:37.091Z</time>
      </trkpt>
      <trkpt lat="43.6068" lon="6.29406">
        <ele>654.8</ele>
        <time>2025-07-09T08:31:01.622Z</time>
      </trkpt>
      <trkpt lat="43.60674" lon="6.29403">
        <ele>654.2</ele>
        <time>2025-07-09T08:31:28.713Z</time>
      </trkpt>
      <trkpt lat="43.60668" lon="6.29399">
        <ele>653.5</ele>
        <time>2025-07-09T08:31:57.000Z</time>
      </trkpt>
      <trkpt lat="43.60662" lon="6.29395">
        <ele>653.1</ele>
        <time>2025-07-09T08:32:03.053Z</time>
      </trkpt>
      <trkpt lat="43.6066" lon="6.29398">
        <ele>652.7</ele>
        <time>2025-07-09T08:32:05.735Z</time>
      </trkpt>
      <trkpt lat="43.60661" lon="6.29393">
        <ele>653.1</ele>
        <time>2025-07-09T08:32:09.147Z</time>
      </trkpt>
      <trkpt lat="43.60654" lon="6.29386">
        <ele>653.5</ele>
        <time>2025-07-09T08:32:17.000Z</time>
      </trkpt>
      <trkpt lat="43.60649" lon="6.29383">
        <ele>653.8</ele>
        <time>2025-07-09T08:32:21.661Z</time>
      </trkpt>
      <trkpt lat="43.60644" lon="6.29379">
        <ele>654.6</ele>
        <time>2025-07-09T08:32:26.602Z</time>
      </trkpt>
      <trkpt lat="43.60638" lon="6.29376">
        <ele>655.1</ele>
        <time>2025-07-09T08:32:32.058Z</time>
      </trkpt>
      <trkpt lat="43.60633" lon="6.29372">
        <ele>656.3</ele>
        <time>2025-07-09T08:32:37.000Z</time>
      </trkpt>
      <trkpt lat="43.60628" lon="6.29374">
        <ele>655.4</ele>
        <time>2025-07-09T08:32:42.074Z</time>
      </trkpt>
      <trkpt lat="43.60623" lon="6.29375">
        <ele>654.9</ele>
        <time>2025-07-09T08:32:47.000Z</time>
      </trkpt>
      <trkpt lat="43.60617" lon="6.29376">
        <ele>654.4</ele>
        <time>2025-07-09T08:32:52.000Z</time>
      </trkpt>
      <trkpt lat="43.60611" lon="6.29377">
        <ele>653.8</ele>
        <time>2025-07-09T08:32:57.000Z</time>
      </trkpt>
      <trkpt lat="43.60606" lon="6.29377">
        <ele>653.3</ele>
        <time>2025-07-09T08:33:01.545Z</time>
      </trkpt>
      <trkpt lat="43.606" lon="6.29377">
        <ele>652.7</ele>
        <time>2025-07-09T08:33:07.000Z</time>
      </trkpt>
      <trkpt lat="43.60596" lon="6.29375">
        <ele>652.6</ele>
        <time>2025-07-09T08:33:11.383Z</time>
      </trkpt>
      <trkpt lat="43.60591" lon="6.29372">
        <ele>652.4</ele>
        <time>2025-07-09T08:33:17.000Z</time>
      </trkpt>
      <trkpt lat="43.60586" lon="6.29372">
        <ele>651.6</ele>
        <time>2025-07-09T08:33:32.909Z</time>
      </trkpt>
      <trkpt lat="43.6058" lon="6.29372">
        <ele>651</ele>
        <time>2025-07-09T08:33:51.999Z</time>
      </trkpt>
      <trkpt lat="43.60575" lon="6.29372">
        <ele>650.7</ele>
        <time>2025-07-09T08:34:07.908Z</time>
      </trkpt>
      <trkpt lat="43.60569" lon="6.29372">
        <ele>650.4</ele>
        <time>2025-07-09T08:34:27.000Z</time>
      </trkpt>
      <trkpt lat="43.60563" lon="6.29369">
        <ele>650.2</ele>
        <time>2025-07-09T08:34:31.892Z</time>
      </trkpt>
      <trkpt lat="43.60557" lon="6.29365">
        <ele>650</ele>
        <time>2025-07-09T08:34:37.000Z</time>
      </trkpt>
      <trkpt lat="43.60555" lon="6.29356">
        <ele>650</ele>
        <time>2025-07-09T08:34:41.872Z</time>
      </trkpt>
      <trkpt lat="43.60552" lon="6.29347">
        <ele>649.9</ele>
        <time>2025-07-09T08:34:47.000Z</time>
      </trkpt>
      <trkpt lat="43.60548" lon="6.2934">
        <ele>649.7</ele>
        <time>2025-07-09T08:34:51.576Z</time>
      </trkpt>
      <trkpt lat="43.60543" lon="6.29332">
        <ele>649.6</ele>
        <time>2025-07-09T08:34:57.000Z</time>
      </trkpt>
      <trkpt lat="43.60539" lon="6.29327">
        <ele>649.5</ele>
        <time>2025-07-09T08:35:01.774Z</time>
      </trkpt>
      <trkpt lat="43.60535" lon="6.29321">
        <ele>649.4</ele>
        <time>2025-07-09T08:35:06.999Z</time>
      </trkpt>
      <trkpt lat="43.60531" lon="6.29316">
        <ele>649.2</ele>
        <time>2025-07-09T08:35:11.773Z</time>
      </trkpt>
      <trkpt lat="43.60527" lon="6.2931">
        <ele>649</ele>
        <time>2025-07-09T08:35:17.000Z</time>
      </trkpt>
      <trkpt lat="43.60522" lon="6.29306">
        <ele>649</ele>
        <time>2025-07-09T08:35:21.519Z</time>
      </trkpt>
      <trkpt lat="43.60516" lon="6.29301">
        <ele>649.4</ele>
        <time>2025-07-09T08:35:27.000Z</time>
      </trkpt>
      <trkpt lat="43.6051" lon="6.29299">
        <ele>649.4</ele>
        <time>2025-07-09T08:35:31.999Z</time>
      </trkpt>
      <trkpt lat="43.60504" lon="6.29297">
        <ele>649.4</ele>
        <time>2025-07-09T08:35:37.000Z</time>
      </trkpt>
      <trkpt lat="43.60499" lon="6.29294">
        <ele>649.4</ele>
        <time>2025-07-09T08:35:41.607Z</time>
      </trkpt>
      <trkpt lat="43.60493" lon="6.29291">
        <ele>649.2</ele>
        <time>2025-07-09T08:35:47.000Z</time>
      </trkpt>
      <trkpt lat="43.60488" lon="6.2929">
        <ele>648.9</ele>
        <time>2025-07-09T08:35:51.553Z</time>
      </trkpt>
      <trkpt lat="43.60482" lon="6.29289">
        <ele>648.7</ele>
        <time>2025-07-09T08:35:57.000Z</time>
      </trkpt>
      <trkpt lat="43.60476" lon="6.29287">
        <ele>648.5</ele>
        <time>2025-07-09T08:36:01.571Z</time>
      </trkpt>
      <trkpt lat="43.60469" lon="6.29284">
        <ele>648.5</ele>
        <time>2025-07-09T08:36:07.000Z</time>
      </trkpt>
      <trkpt lat="43.60462" lon="6.29285">
        <ele>648.2</ele>
        <time>2025-07-09T08:36:11.679Z</time>
      </trkpt>
      <trkpt lat="43.60454" lon="6.29285">
        <ele>648</ele>
        <time>2025-07-09T08:36:17.000Z</time>
      </trkpt>
      <trkpt lat="43.60448" lon="6.29286">
        <ele>647.8</ele>
        <time>2025-07-09T08:36:21.620Z</time>
      </trkpt>
      <trkpt lat="43.60441" lon="6.29287">
        <ele>647.4</ele>
        <time>2025-07-09T08:36:27.000Z</time>
      </trkpt>
      <trkpt lat="43.60436" lon="6.29289">
        <ele>647</ele>
        <time>2025-07-09T08:36:31.575Z</time>
      </trkpt>
      <trkpt lat="43.6043" lon="6.29291">
        <ele>646.5</ele>
        <time>2025-07-09T08:36:37.000Z</time>
      </trkpt>
      <trkpt lat="43.60425" lon="6.29289">
        <ele>646.2</ele>
        <time>2025-07-09T08:36:41.884Z</time>
      </trkpt>
      <trkpt lat="43.6042" lon="6.29286">
        <ele>645.9</ele>
        <time>2025-07-09T08:36:47.000Z</time>
      </trkpt>
      <trkpt lat="43.60418" lon="6.29278">
        <ele>646.1</ele>
        <time>2025-07-09T08:36:51.734Z</time>
      </trkpt>
      <trkpt lat="43.60416" lon="6.29269">
        <ele>645.6</ele>
        <time>2025-07-09T08:36:57.000Z</time>
      </trkpt>
      <trkpt lat="43.60416" lon="6.29261">
        <ele>645.3</ele>
        <time>2025-07-09T08:37:01.676Z</time>
      </trkpt>
      <trkpt lat="43.60415" lon="6.29252">
        <ele>644.9</ele>
        <time>2025-07-09T08:37:07.000Z</time>
      </trkpt>
      <trkpt lat="43.60411" lon="6.29246">
        <ele>644.6</ele>
        <time>2025-07-09T08:37:11.999Z</time>
      </trkpt>
      <trkpt lat="43.60407" lon="6.2924">
        <ele>644.4</ele>
        <time>2025-07-09T08:37:17.000Z</time>
      </trkpt>
      <trkpt lat="43.60403" lon="6.29238">
        <ele>644.2</ele>
        <time>2025-07-09T08:37:30.282Z</time>
      </trkpt>
      <trkpt lat="43.60398" lon="6.29236">
        <ele>644</ele>
        <time>2025-07-09T08:37:46.534Z</time>
      </trkpt>
      <trkpt lat="43.60394" lon="6.29233">
        <ele>643.9</ele>
        <time>2025-07-09T08:38:00.746Z</time>
      </trkpt>
      <trkpt lat="43.60389" lon="6.29231">
        <ele>643.7</ele>
        <time>2025-07-09T08:38:17.000Z</time>
      </trkpt>
      <trkpt lat="43.60383" lon="6.2923">
        <ele>643.6</ele>
        <time>2025-07-09T08:38:21.581Z</time>
      </trkpt>
      <trkpt lat="43.60376" lon="6.29228">
        <ele>643.4</ele>
        <time>2025-07-09T08:38:27.000Z</time>
      </trkpt>
      <trkpt lat="43.6037" lon="6.29228">
        <ele>643.3</ele>
        <time>2025-07-09T08:38:31.981Z</time>
      </trkpt>
      <trkpt lat="43.60364" lon="6.29227">
        <ele>643.1</ele>
        <time>2025-07-09T08:38:37.000Z</time>
      </trkpt>
      <trkpt lat="43.60357" lon="6.29225">
        <ele>642.9</ele>
        <time>2025-07-09T08:38:41.678Z</time>
      </trkpt>
      <trkpt lat="43.60349" lon="6.29223">
        <ele>642.6</ele>
        <time>2025-07-09T08:38:47.000Z</time>
      </trkpt>
      <trkpt lat="43.60344" lon="6.2922">
        <ele>642.5</ele>
        <time>2025-07-09T08:38:51.607Z</time>
      </trkpt>
      <trkpt lat="43.60338" lon="6.29217">
        <ele>642.4</ele>
        <time>2025-07-09T08:38:57.000Z</time>
      </trkpt>
      <trkpt lat="43.60333" lon="6.2921">
        <ele>642.4</ele>
        <time>2025-07-09T08:39:07.000Z</time>
        <extensions>
          <visugpx:TrkExtension xmlns:visugpx="https://www.visugpx.com/editgpx/">
            <visugpx:node>1</visugpx:node>
            </visugpx:TrkExtension>
        </extensions>
      </trkpt>
    </trkseg>
  </trk>
</gpx>